<?xml version='1.0' encoding='UTF-8'?><gpx version="1.1" creator="JPX - https://github.com/jenetics/jpx" xmlns="http://www.topografix.com/GPX/1/1"><trk><trkseg><trkpt lat="45.7112916" lon="11.8177952"><ele>73.0</ele><time>2026-05-04T11:49:37.115Z</time></trkpt><trkpt lat="45.7113159" lon="11.8176036"><ele>73.0</ele><time>2026-05-04T11:49:38.09Z</time></trkpt><trkpt lat="45.7113497" lon="11.817406"><ele>73.0</ele><time>2026-05-04T11:49:39.115Z</time></trkpt><trkpt lat="45.7113817" lon="11.8172092"><ele>73.0</ele><time>2026-05-04T11:49:40.121Z</time></trkpt><trkpt lat="45.7114107" lon="11.8170104"><ele>72.75</ele><time>2026-05-04T11:49:41.12Z</time></trkpt><trkpt lat="45.7114335" lon="11.8168109"><ele>72.5</ele><time>2026-05-04T11:49:42.121Z</time></trkpt><trkpt lat="45.7114611" lon="11.8166065"><ele>72.25</ele><time>2026-05-04T11:49:43.12Z</time></trkpt><trkpt lat="45.7114928" lon="11.8163913"><ele>72.0</ele><time>2026-05-04T11:49:44.12Z</time></trkpt><trkpt lat="45.7115242" lon="11.8161708"><ele>72.0</ele><time>2026-05-04T11:49:45.12Z</time></trkpt><trkpt lat="45.7115521" lon="11.8159397"><ele>72.0</ele><time>2026-05-04T11:49:46.12Z</time></trkpt><trkpt lat="45.7115831" lon="11.8157009"><ele>72.0</ele><time>2026-05-04T11:49:47.12Z</time></trkpt><trkpt lat="45.7116119" lon="11.815459"><ele>72.0</ele><time>2026-05-04T11:49:48.12Z</time></trkpt><trkpt lat="45.7116472" lon="11.8152102"><ele>72.0</ele><time>2026-05-04T11:49:49.121Z</time></trkpt><trkpt lat="45.7116769" lon="11.8149574"><ele>72.0</ele><time>2026-05-04T11:49:50.121Z</time></trkpt><trkpt lat="45.711706" lon="11.8147175"><ele>72.66666666666667</ele><time>2026-05-04T11:49:51.121Z</time></trkpt><trkpt lat="45.7117322" lon="11.8144864"><ele>73.33333333333334</ele><time>2026-05-04T11:49:52.121Z</time></trkpt><trkpt lat="45.7117559" lon="11.8142529"><ele>74.0</ele><time>2026-05-04T11:49:53.12Z</time></trkpt><trkpt lat="45.7117733" lon="11.8140233"><ele>74.0</ele><time>2026-05-04T11:49:54.12Z</time></trkpt><trkpt lat="45.711784" lon="11.8137898"><ele>74.0</ele><time>2026-05-04T11:49:55.121Z</time></trkpt><trkpt lat="45.7117934" lon="11.8135548"><ele>74.0</ele><time>2026-05-04T11:49:56.12Z</time></trkpt><trkpt lat="45.711809" lon="11.8133198"><ele>74.0</ele><time>2026-05-04T11:49:57.12Z</time></trkpt><trkpt lat="45.7118287" lon="11.8130799"><ele>74.0</ele><time>2026-05-04T11:49:58.121Z</time></trkpt><trkpt lat="45.7118586" lon="11.8128392"><ele>74.0</ele><time>2026-05-04T11:49:59.121Z</time></trkpt><trkpt lat="45.7118971" lon="11.8125992"><ele>74.0</ele><time>2026-05-04T11:50:00.121Z</time></trkpt><trkpt lat="45.7119344" lon="11.8123614"><ele>74.0</ele><time>2026-05-04T11:50:01.12Z</time></trkpt><trkpt lat="45.7119706" lon="11.8121232"><ele>74.0</ele><time>2026-05-04T11:50:02.121Z</time></trkpt><trkpt lat="45.71201" lon="11.8118827"><ele>74.33333333333334</ele><time>2026-05-04T11:50:03.12Z</time></trkpt><trkpt lat="45.7120483" lon="11.8116496"><ele>74.66666666666667</ele><time>2026-05-04T11:50:04.121Z</time></trkpt><trkpt lat="45.712083" lon="11.8114179"><ele>75.0</ele><time>2026-05-04T11:50:05.121Z</time></trkpt><trkpt lat="45.7121183" lon="11.8111849"><ele>75.33333333333333</ele><time>2026-05-04T11:50:06.121Z</time></trkpt><trkpt lat="45.7121549" lon="11.8109518"><ele>75.66666666666666</ele><time>2026-05-04T11:50:07.121Z</time></trkpt><trkpt lat="45.71219" lon="11.8107288"><ele>76.0</ele><time>2026-05-04T11:50:08.12Z</time></trkpt><trkpt lat="45.7122202" lon="11.8105241"><ele>76.0</ele><time>2026-05-04T11:50:09.12Z</time></trkpt><trkpt lat="45.7122474" lon="11.810327"><ele>76.0</ele><time>2026-05-04T11:50:10.12Z</time></trkpt><trkpt lat="45.7122839" lon="11.8101482"><ele>76.0</ele><time>2026-05-04T11:50:11.12Z</time></trkpt><trkpt lat="45.7123147" lon="11.8099801"><ele>76.0</ele><time>2026-05-04T11:50:12.12Z</time></trkpt><trkpt lat="45.71234" lon="11.8098239"><ele>76.0</ele><time>2026-05-04T11:50:13.121Z</time></trkpt><trkpt lat="45.7123652" lon="11.8096815"><ele>76.0</ele><time>2026-05-04T11:50:14.121Z</time></trkpt><trkpt lat="45.7123862" lon="11.8095379"><ele>76.0</ele><time>2026-05-04T11:50:15.12Z</time></trkpt><trkpt lat="45.7124099" lon="11.809374"><ele>76.0</ele><time>2026-05-04T11:50:16.121Z</time></trkpt><trkpt lat="45.7124392" lon="11.8091912"><ele>76.0</ele><time>2026-05-04T11:50:17.121Z</time></trkpt><trkpt lat="45.7124705" lon="11.8089929"><ele>76.0</ele><time>2026-05-04T11:50:18.12Z</time></trkpt><trkpt lat="45.7125086" lon="11.8087871"><ele>76.0</ele><time>2026-05-04T11:50:19.12Z</time></trkpt><trkpt lat="45.7125468" lon="11.8085723"><ele>76.0</ele><time>2026-05-04T11:50:20.12Z</time></trkpt><trkpt lat="45.7125922" lon="11.8083522"><ele>76.0</ele><time>2026-05-04T11:50:21.12Z</time></trkpt><trkpt lat="45.7126418" lon="11.8081303"><ele>76.0</ele><time>2026-05-04T11:50:22.12Z</time></trkpt><trkpt lat="45.7126971" lon="11.807903"><ele>76.0</ele><time>2026-05-04T11:50:23.12Z</time></trkpt><trkpt lat="45.7127562" lon="11.8076628"><ele>75.66666666666666</ele><time>2026-05-04T11:50:24.12Z</time></trkpt><trkpt lat="45.7128196" lon="11.8074121"><ele>75.33333333333333</ele><time>2026-05-04T11:50:25.121Z</time></trkpt><trkpt lat="45.7128765" lon="11.8071772"><ele>75.0</ele><time>2026-05-04T11:50:26.121Z</time></trkpt><trkpt lat="45.7129326" lon="11.806953"><ele>75.0</ele><time>2026-05-04T11:50:27.12Z</time></trkpt><trkpt lat="45.7129832" lon="11.8067483"><ele>75.0</ele><time>2026-05-04T11:50:28.121Z</time></trkpt><trkpt lat="45.7130305" lon="11.8065555"><ele>75.0</ele><time>2026-05-04T11:50:29.12Z</time></trkpt><trkpt lat="45.7130767" lon="11.8063787"><ele>75.0</ele><time>2026-05-04T11:50:30.12Z</time></trkpt><trkpt lat="45.7131194" lon="11.8062093"><ele>75.0</ele><time>2026-05-04T11:50:31.121Z</time></trkpt><trkpt lat="45.7131585" lon="11.8060545"><ele>75.0</ele><time>2026-05-04T11:50:32.12Z</time></trkpt><trkpt lat="45.7131989" lon="11.8058854"><ele>75.0</ele><time>2026-05-04T11:50:33.12Z</time></trkpt><trkpt lat="45.7132448" lon="11.8056927"><ele>75.0</ele><time>2026-05-04T11:50:34.12Z</time></trkpt><trkpt lat="45.7132976" lon="11.8054825"><ele>75.33333333333333</ele><time>2026-05-04T11:50:35.121Z</time></trkpt><trkpt lat="45.7133526" lon="11.805264"><ele>75.66666666666666</ele><time>2026-05-04T11:50:36.12Z</time></trkpt><trkpt lat="45.7134033" lon="11.8050389"><ele>76.0</ele><time>2026-05-04T11:50:37.121Z</time></trkpt><trkpt lat="45.7134564" lon="11.8048079"><ele>76.33333333333333</ele><time>2026-05-04T11:50:38.12Z</time></trkpt><trkpt lat="45.7135047" lon="11.8045828"><ele>76.66666666666667</ele><time>2026-05-04T11:50:39.121Z</time></trkpt><trkpt lat="45.7135535" lon="11.8043777"><ele>77.0</ele><time>2026-05-04T11:50:40.121Z</time></trkpt><trkpt lat="45.7135989" lon="11.8041964"><ele>77.0</ele><time>2026-05-04T11:50:41.121Z</time></trkpt><trkpt lat="45.7136381" lon="11.8040484"><ele>77.0</ele><time>2026-05-04T11:50:42.12Z</time></trkpt><trkpt lat="45.713671" lon="11.803932"><ele>77.0</ele><time>2026-05-04T11:50:43.12Z</time></trkpt><trkpt lat="45.7137152" lon="11.803831"><ele>77.0</ele><time>2026-05-04T11:50:44.12Z</time></trkpt><trkpt lat="45.7137478" lon="11.8037493"><ele>77.0</ele><time>2026-05-04T11:50:45.12Z</time></trkpt><trkpt lat="45.7137315" lon="11.8036149"><ele>77.0</ele><time>2026-05-04T11:50:47.121Z</time></trkpt><trkpt lat="45.7136401" lon="11.8035722"><ele>77.0</ele><time>2026-05-04T11:50:49.121Z</time></trkpt><trkpt lat="45.7135593" lon="11.8035302"><ele>77.0</ele><time>2026-05-04T11:50:50.12Z</time></trkpt><trkpt lat="45.7134651" lon="11.8034697"><ele>77.0</ele><time>2026-05-04T11:50:51.12Z</time></trkpt><trkpt lat="45.713356" lon="11.8034025"><ele>77.0</ele><time>2026-05-04T11:50:52.12Z</time></trkpt><trkpt lat="45.7132369" lon="11.803335"><ele>77.0</ele><time>2026-05-04T11:50:53.121Z</time></trkpt><trkpt lat="45.7131119" lon="11.803252"><ele>77.0</ele><time>2026-05-04T11:50:54.121Z</time></trkpt><trkpt lat="45.7129814" lon="11.8031599"><ele>77.0</ele><time>2026-05-04T11:50:55.12Z</time></trkpt><trkpt lat="45.712842" lon="11.8030685"><ele>77.0</ele><time>2026-05-04T11:50:56.12Z</time></trkpt><trkpt lat="45.7126932" lon="11.8029686"><ele>77.0</ele><time>2026-05-04T11:50:57.12Z</time></trkpt><trkpt lat="45.7125402" lon="11.8028618"><ele>77.0</ele><time>2026-05-04T11:50:58.12Z</time></trkpt><trkpt lat="45.7123868" lon="11.8027493"><ele>77.0</ele><time>2026-05-04T11:50:59.12Z</time></trkpt><trkpt lat="45.7122268" lon="11.8026296"><ele>77.0</ele><time>2026-05-04T11:51:00.12Z</time></trkpt><trkpt lat="45.7120637" lon="11.8025074"><ele>77.0</ele><time>2026-05-04T11:51:01.121Z</time></trkpt><trkpt lat="45.7118961" lon="11.8023896"><ele>77.0</ele><time>2026-05-04T11:51:02.121Z</time></trkpt><trkpt lat="45.7117138" lon="11.8022729"><ele>77.33333333333334</ele><time>2026-05-04T11:51:03.121Z</time></trkpt><trkpt lat="45.7115258" lon="11.8021463"><ele>77.66666666666667</ele><time>2026-05-04T11:51:04.12Z</time></trkpt><trkpt lat="45.7113294" lon="11.8020162"><ele>78.0</ele><time>2026-05-04T11:51:05.121Z</time></trkpt><trkpt lat="45.7111356" lon="11.8018857"><ele>78.0</ele><time>2026-05-04T11:51:06.12Z</time></trkpt><trkpt lat="45.7109448" lon="11.801775"><ele>78.0</ele><time>2026-05-04T11:51:07.121Z</time></trkpt><trkpt lat="45.7107645" lon="11.8016867"><ele>78.0</ele><time>2026-05-04T11:51:08.121Z</time></trkpt><trkpt lat="45.7105919" lon="11.8016118"><ele>78.0</ele><time>2026-05-04T11:51:09.12Z</time></trkpt><trkpt lat="45.7104323" lon="11.8015265"><ele>78.0</ele><time>2026-05-04T11:51:10.121Z</time></trkpt><trkpt lat="45.7102953" lon="11.8014176"><ele>78.0</ele><time>2026-05-04T11:51:11.12Z</time></trkpt><trkpt lat="45.710163" lon="11.80129"><ele>78.0</ele><time>2026-05-04T11:51:12.121Z</time></trkpt><trkpt lat="45.7100471" lon="11.8011407"><ele>78.0</ele><time>2026-05-04T11:51:13.121Z</time></trkpt><trkpt lat="45.7099516" lon="11.8009842"><ele>78.0</ele><time>2026-05-04T11:51:14.121Z</time></trkpt><trkpt lat="45.7098665" lon="11.8008322"><ele>78.0</ele><time>2026-05-04T11:51:15.12Z</time></trkpt><trkpt lat="45.7097809" lon="11.8006946"><ele>77.8</ele><time>2026-05-04T11:51:16.121Z</time></trkpt><trkpt lat="45.7096902" lon="11.8005609"><ele>77.6</ele><time>2026-05-04T11:51:17.12Z</time></trkpt><trkpt lat="45.7096116" lon="11.8004561"><ele>77.4</ele><time>2026-05-04T11:51:18.12Z</time></trkpt><trkpt lat="45.7095492" lon="11.8003788"><ele>77.2</ele><time>2026-05-04T11:51:19.12Z</time></trkpt><trkpt lat="45.7094885" lon="11.8003118"><ele>77.0</ele><time>2026-05-04T11:51:20.12Z</time></trkpt><trkpt lat="45.7094334" lon="11.8002556"><ele>76.8</ele><time>2026-05-04T11:51:21.121Z</time></trkpt><trkpt lat="45.7093799" lon="11.8002027"><ele>76.6</ele><time>2026-05-04T11:51:22.121Z</time></trkpt><trkpt lat="45.7092807" lon="11.8000874"><ele>76.39999999999999</ele><time>2026-05-04T11:51:24.12Z</time></trkpt><trkpt lat="45.7091911" lon="11.800011"><ele>76.2</ele><time>2026-05-04T11:51:26.12Z</time></trkpt><trkpt lat="45.7091201" lon="11.79991"><ele>76.0</ele><time>2026-05-04T11:51:28.12Z</time></trkpt><trkpt lat="45.7090816" lon="11.7997267"><ele>76.0</ele><time>2026-05-04T11:51:30.12Z</time></trkpt><trkpt lat="45.7090555" lon="11.7996248"><ele>76.0</ele><time>2026-05-04T11:51:31.12Z</time></trkpt><trkpt lat="45.7090056" lon="11.7995367"><ele>76.0</ele><time>2026-05-04T11:51:32.12Z</time></trkpt><trkpt lat="45.7089326" lon="11.7994818"><ele>76.0</ele><time>2026-05-04T11:51:33.121Z</time></trkpt><trkpt lat="45.708851" lon="11.79947"><ele>76.0</ele><time>2026-05-04T11:51:34.12Z</time></trkpt><trkpt lat="45.7087713" lon="11.7995104"><ele>76.0</ele><time>2026-05-04T11:51:35.12Z</time></trkpt><trkpt lat="45.7087022" lon="11.7995962"><ele>76.0</ele><time>2026-05-04T11:51:36.121Z</time></trkpt><trkpt lat="45.7086386" lon="11.7997061"><ele>76.0</ele><time>2026-05-04T11:51:37.12Z</time></trkpt><trkpt lat="45.7085765" lon="11.7998022"><ele>76.0</ele><time>2026-05-04T11:51:38.12Z</time></trkpt><trkpt lat="45.7085081" lon="11.7998942"><ele>76.0</ele><time>2026-05-04T11:51:39.12Z</time></trkpt><trkpt lat="45.7084283" lon="11.8000022"><ele>76.0</ele><time>2026-05-04T11:51:40.121Z</time></trkpt><trkpt lat="45.7083234" lon="11.8001071"><ele>76.0</ele><time>2026-05-04T11:51:41.12Z</time></trkpt><trkpt lat="45.7081983" lon="11.8001983"><ele>76.0</ele><time>2026-05-04T11:51:42.121Z</time></trkpt><trkpt lat="45.7080523" lon="11.8002657"><ele>76.0</ele><time>2026-05-04T11:51:43.12Z</time></trkpt><trkpt lat="45.7078958" lon="11.8003005"><ele>77.0</ele><time>2026-05-04T11:51:44.12Z</time></trkpt><trkpt lat="45.7077296" lon="11.8003154"><ele>78.0</ele><time>2026-05-04T11:51:45.12Z</time></trkpt><trkpt lat="45.7075634" lon="11.8003093"><ele>79.0</ele><time>2026-05-04T11:51:46.12Z</time></trkpt><trkpt lat="45.7073978" lon="11.8002888"><ele>79.0</ele><time>2026-05-04T11:51:47.12Z</time></trkpt><trkpt lat="45.7072425" lon="11.8002482"><ele>79.0</ele><time>2026-05-04T11:51:48.12Z</time></trkpt><trkpt lat="45.7071" lon="11.8001919"><ele>79.0</ele><time>2026-05-04T11:51:49.12Z</time></trkpt><trkpt lat="45.7069752" lon="11.8001293"><ele>79.0</ele><time>2026-05-04T11:51:50.121Z</time></trkpt><trkpt lat="45.70687" lon="11.8000656"><ele>79.75</ele><time>2026-05-04T11:51:51.12Z</time></trkpt><trkpt lat="45.7067618" lon="11.7999896"><ele>80.5</ele><time>2026-05-04T11:51:52.12Z</time></trkpt><trkpt lat="45.7066505" lon="11.7998992"><ele>81.25</ele><time>2026-05-04T11:51:53.12Z</time></trkpt><trkpt lat="45.7065434" lon="11.7998113"><ele>82.0</ele><time>2026-05-04T11:51:54.121Z</time></trkpt><trkpt lat="45.7064341" lon="11.7997466"><ele>82.0</ele><time>2026-05-04T11:51:55.12Z</time></trkpt><trkpt lat="45.7063195" lon="11.7997028"><ele>82.0</ele><time>2026-05-04T11:51:56.121Z</time></trkpt><trkpt lat="45.7062014" lon="11.7996821"><ele>82.0</ele><time>2026-05-04T11:51:57.12Z</time></trkpt><trkpt lat="45.7060848" lon="11.7996701"><ele>82.0</ele><time>2026-05-04T11:51:58.12Z</time></trkpt><trkpt lat="45.7059677" lon="11.7996822"><ele>80.5</ele><time>2026-05-04T11:51:59.12Z</time></trkpt><trkpt lat="45.7058504" lon="11.7997146"><ele>79.0</ele><time>2026-05-04T11:52:00.121Z</time></trkpt><trkpt lat="45.705721" lon="11.7997294"><ele>77.5</ele><time>2026-05-04T11:52:01.121Z</time></trkpt><trkpt lat="45.7055931" lon="11.7997433"><ele>76.0</ele><time>2026-05-04T11:52:02.12Z</time></trkpt><trkpt lat="45.7054691" lon="11.7997544"><ele>76.0</ele><time>2026-05-04T11:52:03.121Z</time></trkpt><trkpt lat="45.7053634" lon="11.7997666"><ele>76.0</ele><time>2026-05-04T11:52:04.12Z</time></trkpt><trkpt lat="45.7052644" lon="11.7997838"><ele>76.0</ele><time>2026-05-04T11:52:05.121Z</time></trkpt><trkpt lat="45.7051746" lon="11.7997978"><ele>76.0</ele><time>2026-05-04T11:52:06.121Z</time></trkpt><trkpt lat="45.705083" lon="11.7998008"><ele>76.0</ele><time>2026-05-04T11:52:07.121Z</time></trkpt><trkpt lat="45.7049961" lon="11.799804"><ele>76.0</ele><time>2026-05-04T11:52:08.12Z</time></trkpt><trkpt lat="45.704892" lon="11.7998477"><ele>76.0</ele><time>2026-05-04T11:52:09.12Z</time></trkpt><trkpt lat="45.7047958" lon="11.7998712"><ele>76.0</ele><time>2026-05-04T11:52:10.121Z</time></trkpt><trkpt lat="45.7047055" lon="11.7998904"><ele>76.0</ele><time>2026-05-04T11:52:11.12Z</time></trkpt><trkpt lat="45.7046161" lon="11.7998957"><ele>76.0</ele><time>2026-05-04T11:52:12.12Z</time></trkpt><trkpt lat="45.7045267" lon="11.7999132"><ele>76.0</ele><time>2026-05-04T11:52:13.12Z</time></trkpt><trkpt lat="45.7044346" lon="11.7999352"><ele>76.0</ele><time>2026-05-04T11:52:14.12Z</time></trkpt><trkpt lat="45.7043537" lon="11.799941"><ele>76.0</ele><time>2026-05-04T11:52:15.12Z</time></trkpt><trkpt lat="45.7042921" lon="11.7999079"><ele>76.0</ele><time>2026-05-04T11:52:16.12Z</time></trkpt><trkpt lat="45.7042236" lon="11.7997541"><ele>76.0</ele><time>2026-05-04T11:52:18.12Z</time></trkpt><trkpt lat="45.7042048" lon="11.7996072"><ele>75.75</ele><time>2026-05-04T11:52:19.121Z</time></trkpt><trkpt lat="45.7041922" lon="11.799426"><ele>75.5</ele><time>2026-05-04T11:52:20.12Z</time></trkpt><trkpt lat="45.7041863" lon="11.7992301"><ele>75.25</ele><time>2026-05-04T11:52:21.12Z</time></trkpt><trkpt lat="45.704176" lon="11.7990222"><ele>75.0</ele><time>2026-05-04T11:52:22.121Z</time></trkpt><trkpt lat="45.7041688" lon="11.7988011"><ele>75.0</ele><time>2026-05-04T11:52:23.12Z</time></trkpt><trkpt lat="45.704169" lon="11.7985733"><ele>75.0</ele><time>2026-05-04T11:52:24.121Z</time></trkpt><trkpt lat="45.7041728" lon="11.7983411"><ele>75.0</ele><time>2026-05-04T11:52:25.12Z</time></trkpt><trkpt lat="45.7041782" lon="11.798116"><ele>74.75</ele><time>2026-05-04T11:52:26.121Z</time></trkpt><trkpt lat="45.7041852" lon="11.7979069"><ele>74.5</ele><time>2026-05-04T11:52:27.121Z</time></trkpt><trkpt lat="45.7042036" lon="11.7977098"><ele>74.25</ele><time>2026-05-04T11:52:28.121Z</time></trkpt><trkpt lat="45.7042418" lon="11.7975305"><ele>74.0</ele><time>2026-05-04T11:52:29.12Z</time></trkpt><trkpt lat="45.7042931" lon="11.7973607"><ele>74.0</ele><time>2026-05-04T11:52:30.121Z</time></trkpt><trkpt lat="45.7043741" lon="11.7972159"><ele>74.0</ele><time>2026-05-04T11:52:31.121Z</time></trkpt><trkpt lat="45.7044532" lon="11.7970861"><ele>74.0</ele><time>2026-05-04T11:52:32.12Z</time></trkpt><trkpt lat="45.7045083" lon="11.7969578"><ele>74.0</ele><time>2026-05-04T11:52:33.12Z</time></trkpt><trkpt lat="45.7045334" lon="11.7968123"><ele>74.5</ele><time>2026-05-04T11:52:34.121Z</time></trkpt><trkpt lat="45.7045322" lon="11.7966497"><ele>75.0</ele><time>2026-05-04T11:52:35.12Z</time></trkpt><trkpt lat="45.7045103" lon="11.7964689"><ele>75.5</ele><time>2026-05-04T11:52:36.12Z</time></trkpt><trkpt lat="45.7044813" lon="11.7962739"><ele>76.0</ele><time>2026-05-04T11:52:37.12Z</time></trkpt><trkpt lat="45.7044528" lon="11.7960776"><ele>75.75</ele><time>2026-05-04T11:52:38.12Z</time></trkpt><trkpt lat="45.7044228" lon="11.795886"><ele>75.5</ele><time>2026-05-04T11:52:39.121Z</time></trkpt><trkpt lat="45.7043957" lon="11.7956867"><ele>75.25</ele><time>2026-05-04T11:52:40.12Z</time></trkpt><trkpt lat="45.7043647" lon="11.7954779"><ele>75.0</ele><time>2026-05-04T11:52:41.12Z</time></trkpt><trkpt lat="45.704333" lon="11.7952598"><ele>75.0</ele><time>2026-05-04T11:52:42.12Z</time></trkpt><trkpt lat="45.7043022" lon="11.795027"><ele>75.0</ele><time>2026-05-04T11:52:43.121Z</time></trkpt><trkpt lat="45.70427" lon="11.7947813"><ele>75.0</ele><time>2026-05-04T11:52:44.121Z</time></trkpt><trkpt lat="45.7042347" lon="11.7945316"><ele>75.0</ele><time>2026-05-04T11:52:45.12Z</time></trkpt><trkpt lat="45.7041973" lon="11.7942704"><ele>75.0</ele><time>2026-05-04T11:52:46.121Z</time></trkpt><trkpt lat="45.7041547" lon="11.7940008"><ele>75.0</ele><time>2026-05-04T11:52:47.12Z</time></trkpt><trkpt lat="45.7041138" lon="11.7937197"><ele>74.66666666666667</ele><time>2026-05-04T11:52:48.12Z</time></trkpt><trkpt lat="45.7040751" lon="11.7934277"><ele>74.33333333333334</ele><time>2026-05-04T11:52:49.121Z</time></trkpt><trkpt lat="45.7040325" lon="11.7931314"><ele>74.0</ele><time>2026-05-04T11:52:50.12Z</time></trkpt><trkpt lat="45.703992" lon="11.7928282"><ele>74.0</ele><time>2026-05-04T11:52:51.121Z</time></trkpt><trkpt lat="45.7039511" lon="11.7925249"><ele>74.0</ele><time>2026-05-04T11:52:52.12Z</time></trkpt><trkpt lat="45.7039097" lon="11.7922392"><ele>74.0</ele><time>2026-05-04T11:52:53.12Z</time></trkpt><trkpt lat="45.7038704" lon="11.7919529"><ele>74.33333333333334</ele><time>2026-05-04T11:52:54.12Z</time></trkpt><trkpt lat="45.7038276" lon="11.7916626"><ele>74.66666666666667</ele><time>2026-05-04T11:52:55.12Z</time></trkpt><trkpt lat="45.7037868" lon="11.7913818"><ele>75.0</ele><time>2026-05-04T11:52:56.12Z</time></trkpt><trkpt lat="45.703744" lon="11.7911018"><ele>75.0</ele><time>2026-05-04T11:52:57.12Z</time></trkpt><trkpt lat="45.7037037" lon="11.7908229"><ele>75.0</ele><time>2026-05-04T11:52:58.12Z</time></trkpt><trkpt lat="45.7036621" lon="11.7905485"><ele>75.0</ele><time>2026-05-04T11:52:59.12Z</time></trkpt><trkpt lat="45.7036207" lon="11.790281"><ele>75.0</ele><time>2026-05-04T11:53:00.12Z</time></trkpt><trkpt lat="45.7035755" lon="11.7900302"><ele>75.0</ele><time>2026-05-04T11:53:01.121Z</time></trkpt><trkpt lat="45.7035329" lon="11.7897883"><ele>75.0</ele><time>2026-05-04T11:53:02.12Z</time></trkpt><trkpt lat="45.7034922" lon="11.7895651"><ele>75.0</ele><time>2026-05-04T11:53:03.12Z</time></trkpt><trkpt lat="45.7034506" lon="11.7893521"><ele>75.0</ele><time>2026-05-04T11:53:04.121Z</time></trkpt><trkpt lat="45.7034076" lon="11.7891389"><ele>75.0</ele><time>2026-05-04T11:53:05.12Z</time></trkpt><trkpt lat="45.7033683" lon="11.7889207"><ele>75.0</ele><time>2026-05-04T11:53:06.12Z</time></trkpt><trkpt lat="45.7033341" lon="11.7886983"><ele>75.0</ele><time>2026-05-04T11:53:07.121Z</time></trkpt><trkpt lat="45.7033051" lon="11.7884773"><ele>75.0</ele><time>2026-05-04T11:53:08.121Z</time></trkpt><trkpt lat="45.7032794" lon="11.7882706"><ele>75.25</ele><time>2026-05-04T11:53:09.121Z</time></trkpt><trkpt lat="45.7032535" lon="11.7880738"><ele>75.5</ele><time>2026-05-04T11:53:10.121Z</time></trkpt><trkpt lat="45.7032319" lon="11.7878869"><ele>75.75</ele><time>2026-05-04T11:53:11.121Z</time></trkpt><trkpt lat="45.7032053" lon="11.7876917"><ele>76.0</ele><time>2026-05-04T11:53:12.12Z</time></trkpt><trkpt lat="45.7031802" lon="11.7874938"><ele>76.0</ele><time>2026-05-04T11:53:13.121Z</time></trkpt><trkpt lat="45.7031523" lon="11.7872873"><ele>76.0</ele><time>2026-05-04T11:53:14.121Z</time></trkpt><trkpt lat="45.7031186" lon="11.78707"><ele>76.0</ele><time>2026-05-04T11:53:15.12Z</time></trkpt><trkpt lat="45.703085" lon="11.7868368"><ele>76.0</ele><time>2026-05-04T11:53:16.12Z</time></trkpt><trkpt lat="45.7030467" lon="11.7865907"><ele>76.0</ele><time>2026-05-04T11:53:17.12Z</time></trkpt><trkpt lat="45.703009" lon="11.7863454"><ele>76.0</ele><time>2026-05-04T11:53:18.121Z</time></trkpt><trkpt lat="45.7029704" lon="11.7861177"><ele>76.5</ele><time>2026-05-04T11:53:19.12Z</time></trkpt><trkpt lat="45.7029354" lon="11.7859022"><ele>77.0</ele><time>2026-05-04T11:53:20.12Z</time></trkpt><trkpt lat="45.702908" lon="11.7857022"><ele>77.5</ele><time>2026-05-04T11:53:21.121Z</time></trkpt><trkpt lat="45.7028843" lon="11.785531"><ele>78.0</ele><time>2026-05-04T11:53:22.12Z</time></trkpt><trkpt lat="45.7028607" lon="11.7853854"><ele>78.0</ele><time>2026-05-04T11:53:23.12Z</time></trkpt><trkpt lat="45.7028336" lon="11.7852688"><ele>78.0</ele><time>2026-05-04T11:53:24.12Z</time></trkpt><trkpt lat="45.7027905" lon="11.7851767"><ele>78.0</ele><time>2026-05-04T11:53:25.12Z</time></trkpt><trkpt lat="45.7027384" lon="11.7851093"><ele>78.0</ele><time>2026-05-04T11:53:26.12Z</time></trkpt><trkpt lat="45.7026649" lon="11.7850742"><ele>78.0</ele><time>2026-05-04T11:53:27.12Z</time></trkpt><trkpt lat="45.7025709" lon="11.7850719"><ele>78.0</ele><time>2026-05-04T11:53:28.12Z</time></trkpt><trkpt lat="45.7024568" lon="11.7850979"><ele>77.0</ele><time>2026-05-04T11:53:29.12Z</time></trkpt><trkpt lat="45.7023263" lon="11.785134"><ele>76.0</ele><time>2026-05-04T11:53:30.121Z</time></trkpt><trkpt lat="45.7021811" lon="11.7851724"><ele>75.0</ele><time>2026-05-04T11:53:31.121Z</time></trkpt><trkpt lat="45.7020268" lon="11.7852197"><ele>74.0</ele><time>2026-05-04T11:53:32.12Z</time></trkpt><trkpt lat="45.7018643" lon="11.7852757"><ele>73.66666666666667</ele><time>2026-05-04T11:53:33.121Z</time></trkpt><trkpt lat="45.7016948" lon="11.785337"><ele>73.33333333333333</ele><time>2026-05-04T11:53:34.121Z</time></trkpt><trkpt lat="45.7015342" lon="11.7853908"><ele>73.0</ele><time>2026-05-04T11:53:35.12Z</time></trkpt><trkpt lat="45.7013792" lon="11.7854433"><ele>73.0</ele><time>2026-05-04T11:53:36.12Z</time></trkpt><trkpt lat="45.7012144" lon="11.7854965"><ele>73.0</ele><time>2026-05-04T11:53:37.121Z</time></trkpt><trkpt lat="45.7010397" lon="11.7855468"><ele>73.0</ele><time>2026-05-04T11:53:38.12Z</time></trkpt><trkpt lat="45.7008615" lon="11.7855863"><ele>73.0</ele><time>2026-05-04T11:53:39.12Z</time></trkpt><trkpt lat="45.700687" lon="11.7856203"><ele>73.0</ele><time>2026-05-04T11:53:40.121Z</time></trkpt><trkpt lat="45.7005216" lon="11.7856515"><ele>73.0</ele><time>2026-05-04T11:53:41.12Z</time></trkpt><trkpt lat="45.7003687" lon="11.7856873"><ele>73.25</ele><time>2026-05-04T11:53:42.12Z</time></trkpt><trkpt lat="45.7002264" lon="11.7857244"><ele>73.5</ele><time>2026-05-04T11:53:43.12Z</time></trkpt><trkpt lat="45.7000912" lon="11.7857614"><ele>73.75</ele><time>2026-05-04T11:53:44.12Z</time></trkpt><trkpt lat="45.6999666" lon="11.7857992"><ele>74.0</ele><time>2026-05-04T11:53:45.12Z</time></trkpt><trkpt lat="45.6998531" lon="11.7858314"><ele>74.0</ele><time>2026-05-04T11:53:46.12Z</time></trkpt><trkpt lat="45.6997615" lon="11.7858515"><ele>74.0</ele><time>2026-05-04T11:53:47.12Z</time></trkpt><trkpt lat="45.699694" lon="11.7858517"><ele>74.0</ele><time>2026-05-04T11:53:48.12Z</time></trkpt><trkpt lat="45.6996278" lon="11.785826"><ele>74.0</ele><time>2026-05-04T11:53:50.12Z</time></trkpt><trkpt lat="45.6995883" lon="11.7857357"><ele>74.0</ele><time>2026-05-04T11:53:52.12Z</time></trkpt><trkpt lat="45.6995669" lon="11.7855468"><ele>74.0</ele><time>2026-05-04T11:53:54.121Z</time></trkpt><trkpt lat="45.6995539" lon="11.7854246"><ele>74.0</ele><time>2026-05-04T11:53:55.121Z</time></trkpt><trkpt lat="45.6995364" lon="11.7852826"><ele>74.0</ele><time>2026-05-04T11:53:56.12Z</time></trkpt><trkpt lat="45.6995169" lon="11.7851182"><ele>74.0</ele><time>2026-05-04T11:53:57.121Z</time></trkpt><trkpt lat="45.6994958" lon="11.7849373"><ele>74.0</ele><time>2026-05-04T11:53:58.121Z</time></trkpt><trkpt lat="45.6994714" lon="11.7847472"><ele>74.0</ele><time>2026-05-04T11:53:59.121Z</time></trkpt><trkpt lat="45.6994439" lon="11.7845391"><ele>74.0</ele><time>2026-05-04T11:54:00.12Z</time></trkpt><trkpt lat="45.6994096" lon="11.7843258"><ele>74.0</ele><time>2026-05-04T11:54:01.121Z</time></trkpt><trkpt lat="45.6993724" lon="11.7841085"><ele>73.66666666666667</ele><time>2026-05-04T11:54:02.12Z</time></trkpt><trkpt lat="45.6993403" lon="11.7838949"><ele>73.33333333333333</ele><time>2026-05-04T11:54:03.12Z</time></trkpt><trkpt lat="45.6993075" lon="11.7836812"><ele>73.0</ele><time>2026-05-04T11:54:04.12Z</time></trkpt><trkpt lat="45.699276" lon="11.7834665"><ele>72.66666666666666</ele><time>2026-05-04T11:54:05.12Z</time></trkpt><trkpt lat="45.6992421" lon="11.7832526"><ele>72.33333333333333</ele><time>2026-05-04T11:54:06.12Z</time></trkpt><trkpt lat="45.6992058" lon="11.7830353"><ele>72.0</ele><time>2026-05-04T11:54:07.121Z</time></trkpt><trkpt lat="45.6991613" lon="11.7827877"><ele>72.33333333333333</ele><time>2026-05-04T11:54:08.12Z</time></trkpt><trkpt lat="45.6991069" lon="11.7825032"><ele>72.66666666666666</ele><time>2026-05-04T11:54:09.121Z</time></trkpt><trkpt lat="45.6990598" lon="11.7822038"><ele>73.0</ele><time>2026-05-04T11:54:10.12Z</time></trkpt><trkpt lat="45.6990198" lon="11.7819015"><ele>73.33333333333333</ele><time>2026-05-04T11:54:11.12Z</time></trkpt><trkpt lat="45.6989728" lon="11.7815898"><ele>73.66666666666667</ele><time>2026-05-04T11:54:12.12Z</time></trkpt><trkpt lat="45.698919" lon="11.7812803"><ele>74.0</ele><time>2026-05-04T11:54:13.12Z</time></trkpt><trkpt lat="45.6988585" lon="11.7809911"><ele>73.66666666666667</ele><time>2026-05-04T11:54:14.121Z</time></trkpt><trkpt lat="45.69879" lon="11.7807"><ele>73.33333333333333</ele><time>2026-05-04T11:54:15.12Z</time></trkpt><trkpt lat="45.6987228" lon="11.7804217"><ele>73.0</ele><time>2026-05-04T11:54:16.12Z</time></trkpt><trkpt lat="45.6986539" lon="11.7801629"><ele>73.0</ele><time>2026-05-04T11:54:17.121Z</time></trkpt><trkpt lat="45.6985844" lon="11.7799147"><ele>73.0</ele><time>2026-05-04T11:54:18.121Z</time></trkpt><trkpt lat="45.6985146" lon="11.7796727"><ele>73.0</ele><time>2026-05-04T11:54:19.12Z</time></trkpt><trkpt lat="45.6984529" lon="11.7794338"><ele>73.33333333333333</ele><time>2026-05-04T11:54:20.121Z</time></trkpt><trkpt lat="45.6983881" lon="11.7792004"><ele>73.66666666666667</ele><time>2026-05-04T11:54:21.121Z</time></trkpt><trkpt lat="45.6983256" lon="11.7789766"><ele>74.0</ele><time>2026-05-04T11:54:22.12Z</time></trkpt><trkpt lat="45.6982713" lon="11.77876"><ele>74.0</ele><time>2026-05-04T11:54:23.121Z</time></trkpt><trkpt lat="45.698224" lon="11.7785432"><ele>74.0</ele><time>2026-05-04T11:54:24.12Z</time></trkpt><trkpt lat="45.6981866" lon="11.7783116"><ele>74.0</ele><time>2026-05-04T11:54:25.121Z</time></trkpt><trkpt lat="45.6981586" lon="11.7780479"><ele>73.66666666666667</ele><time>2026-05-04T11:54:26.121Z</time></trkpt><trkpt lat="45.6981262" lon="11.7777568"><ele>73.33333333333333</ele><time>2026-05-04T11:54:27.121Z</time></trkpt><trkpt lat="45.698098" lon="11.7774426"><ele>73.0</ele><time>2026-05-04T11:54:28.12Z</time></trkpt><trkpt lat="45.6980761" lon="11.7771135"><ele>73.5</ele><time>2026-05-04T11:54:29.121Z</time></trkpt><trkpt lat="45.6980606" lon="11.7767779"><ele>74.0</ele><time>2026-05-04T11:54:30.12Z</time></trkpt><trkpt lat="45.698045" lon="11.7764395"><ele>74.0</ele><time>2026-05-04T11:54:31.12Z</time></trkpt><trkpt lat="45.6980234" lon="11.7761037"><ele>74.0</ele><time>2026-05-04T11:54:32.12Z</time></trkpt><trkpt lat="45.6980017" lon="11.7757864"><ele>74.0</ele><time>2026-05-04T11:54:33.12Z</time></trkpt><trkpt lat="45.6979816" lon="11.7754868"><ele>74.0</ele><time>2026-05-04T11:54:34.12Z</time></trkpt><trkpt lat="45.6979629" lon="11.775202"><ele>74.0</ele><time>2026-05-04T11:54:35.12Z</time></trkpt><trkpt lat="45.6979426" lon="11.7749363"><ele>74.0</ele><time>2026-05-04T11:54:36.121Z</time></trkpt><trkpt lat="45.6979248" lon="11.7746791"><ele>74.0</ele><time>2026-05-04T11:54:37.12Z</time></trkpt><trkpt lat="45.6979058" lon="11.7744274"><ele>74.0</ele><time>2026-05-04T11:54:38.121Z</time></trkpt><trkpt lat="45.6978965" lon="11.7741632"><ele>74.0</ele><time>2026-05-04T11:54:39.12Z</time></trkpt><trkpt lat="45.6978979" lon="11.773886"><ele>74.0</ele><time>2026-05-04T11:54:40.12Z</time></trkpt><trkpt lat="45.6979161" lon="11.773602"><ele>74.0</ele><time>2026-05-04T11:54:41.121Z</time></trkpt><trkpt lat="45.6979512" lon="11.7733242"><ele>74.0</ele><time>2026-05-04T11:54:42.121Z</time></trkpt><trkpt lat="45.6979911" lon="11.773069"><ele>74.0</ele><time>2026-05-04T11:54:43.12Z</time></trkpt><trkpt lat="45.6980373" lon="11.772823"><ele>74.0</ele><time>2026-05-04T11:54:44.12Z</time></trkpt><trkpt lat="45.6980789" lon="11.7725928"><ele>74.66666666666667</ele><time>2026-05-04T11:54:45.12Z</time></trkpt><trkpt lat="45.6981249" lon="11.7723732"><ele>75.33333333333333</ele><time>2026-05-04T11:54:46.12Z</time></trkpt><trkpt lat="45.6981675" lon="11.7721666"><ele>76.0</ele><time>2026-05-04T11:54:47.121Z</time></trkpt><trkpt lat="45.6982071" lon="11.7719655"><ele>76.5</ele><time>2026-05-04T11:54:48.121Z</time></trkpt><trkpt lat="45.6982435" lon="11.771785"><ele>77.0</ele><time>2026-05-04T11:54:49.121Z</time></trkpt><trkpt lat="45.6982772" lon="11.7716179"><ele>77.5</ele><time>2026-05-04T11:54:50.12Z</time></trkpt><trkpt lat="45.6983064" lon="11.7714581"><ele>78.0</ele><time>2026-05-04T11:54:51.12Z</time></trkpt><trkpt lat="45.6983343" lon="11.7713094"><ele>78.0</ele><time>2026-05-04T11:54:52.121Z</time></trkpt><trkpt lat="45.6983503" lon="11.7711708"><ele>78.0</ele><time>2026-05-04T11:54:53.12Z</time></trkpt><trkpt lat="45.6983521" lon="11.7710367"><ele>78.0</ele><time>2026-05-04T11:54:54.12Z</time></trkpt><trkpt lat="45.6983436" lon="11.7709173"><ele>78.0</ele><time>2026-05-04T11:54:55.12Z</time></trkpt><trkpt lat="45.6983228" lon="11.7708075"><ele>78.0</ele><time>2026-05-04T11:54:56.12Z</time></trkpt><trkpt lat="45.6982875" lon="11.7706891"><ele>78.0</ele><time>2026-05-04T11:54:57.12Z</time></trkpt><trkpt lat="45.6982417" lon="11.7705461"><ele>77.4</ele><time>2026-05-04T11:54:58.121Z</time></trkpt><trkpt lat="45.6981908" lon="11.770394"><ele>76.8</ele><time>2026-05-04T11:54:59.121Z</time></trkpt><trkpt lat="45.6981456" lon="11.770252"><ele>76.2</ele><time>2026-05-04T11:55:00.12Z</time></trkpt><trkpt lat="45.6981009" lon="11.7701143"><ele>75.6</ele><time>2026-05-04T11:55:01.121Z</time></trkpt><trkpt lat="45.6980567" lon="11.770001"><ele>75.0</ele><time>2026-05-04T11:55:02.121Z</time></trkpt><trkpt lat="45.6980291" lon="11.7699178"><ele>74.83333333333333</ele><time>2026-05-04T11:55:03.12Z</time></trkpt><trkpt lat="45.6979881" lon="11.7698258"><ele>74.66666666666667</ele><time>2026-05-04T11:55:05.12Z</time></trkpt><trkpt lat="45.6979552" lon="11.7697357"><ele>74.5</ele><time>2026-05-04T11:55:08.12Z</time></trkpt><trkpt lat="45.6979175" lon="11.7696489"><ele>74.33333333333334</ele><time>2026-05-04T11:55:13.121Z</time></trkpt><trkpt lat="45.6979062" lon="11.7695566"><ele>74.16666666666667</ele><time>2026-05-04T11:56:25.121Z</time></trkpt><trkpt lat="45.6978503" lon="11.7694106"><ele>74.0</ele><time>2026-05-04T11:56:27.12Z</time></trkpt><trkpt lat="45.6977676" lon="11.7692654"><ele>74.0</ele><time>2026-05-04T11:56:29.121Z</time></trkpt><trkpt lat="45.6977137" lon="11.7691957"><ele>74.0</ele><time>2026-05-04T11:56:30.12Z</time></trkpt><trkpt lat="45.6976685" lon="11.7690963"><ele>74.0</ele><time>2026-05-04T11:56:31.121Z</time></trkpt><trkpt lat="45.6976285" lon="11.7689882"><ele>74.0</ele><time>2026-05-04T11:56:32.12Z</time></trkpt><trkpt lat="45.6975917" lon="11.7688559"><ele>74.0</ele><time>2026-05-04T11:56:33.12Z</time></trkpt><trkpt lat="45.6975541" lon="11.7687238"><ele>74.0</ele><time>2026-05-04T11:56:34.121Z</time></trkpt><trkpt lat="45.6975125" lon="11.7685841"><ele>74.25</ele><time>2026-05-04T11:56:35.12Z</time></trkpt><trkpt lat="45.6974729" lon="11.7684393"><ele>74.5</ele><time>2026-05-04T11:56:36.121Z</time></trkpt><trkpt lat="45.6974339" lon="11.7682867"><ele>74.75</ele><time>2026-05-04T11:56:37.12Z</time></trkpt><trkpt lat="45.6973973" lon="11.7681287"><ele>75.0</ele><time>2026-05-04T11:56:38.12Z</time></trkpt><trkpt lat="45.697361" lon="11.7679663"><ele>75.0</ele><time>2026-05-04T11:56:39.12Z</time></trkpt><trkpt lat="45.697329" lon="11.7678019"><ele>75.0</ele><time>2026-05-04T11:56:40.12Z</time></trkpt><trkpt lat="45.6972915" lon="11.7676315"><ele>75.0</ele><time>2026-05-04T11:56:41.12Z</time></trkpt><trkpt lat="45.6972549" lon="11.7674612"><ele>75.0</ele><time>2026-05-04T11:56:42.121Z</time></trkpt><trkpt lat="45.6972182" lon="11.7672867"><ele>75.0</ele><time>2026-05-04T11:56:43.121Z</time></trkpt><trkpt lat="45.6971814" lon="11.7671081"><ele>75.0</ele><time>2026-05-04T11:56:44.121Z</time></trkpt><trkpt lat="45.6971424" lon="11.7669241"><ele>75.0</ele><time>2026-05-04T11:56:45.12Z</time></trkpt><trkpt lat="45.6971092" lon="11.7667344"><ele>75.0</ele><time>2026-05-04T11:56:46.121Z</time></trkpt><trkpt lat="45.697073" lon="11.7665417"><ele>74.75</ele><time>2026-05-04T11:56:47.121Z</time></trkpt><trkpt lat="45.6970308" lon="11.7663484"><ele>74.5</ele><time>2026-05-04T11:56:48.121Z</time></trkpt><trkpt lat="45.6969889" lon="11.766155"><ele>74.25</ele><time>2026-05-04T11:56:49.121Z</time></trkpt><trkpt lat="45.696947" lon="11.7659661"><ele>74.0</ele><time>2026-05-04T11:56:50.12Z</time></trkpt><trkpt lat="45.6969046" lon="11.7657905"><ele>74.0</ele><time>2026-05-04T11:56:51.121Z</time></trkpt><trkpt lat="45.6968705" lon="11.7656306"><ele>74.0</ele><time>2026-05-04T11:56:52.121Z</time></trkpt><trkpt lat="45.6968367" lon="11.7654824"><ele>74.0</ele><time>2026-05-04T11:56:53.121Z</time></trkpt><trkpt lat="45.6968043" lon="11.7653458"><ele>74.0</ele><time>2026-05-04T11:56:54.12Z</time></trkpt><trkpt lat="45.6967745" lon="11.7652176"><ele>74.0</ele><time>2026-05-04T11:56:55.121Z</time></trkpt><trkpt lat="45.6967452" lon="11.7650871"><ele>74.0</ele><time>2026-05-04T11:56:56.12Z</time></trkpt><trkpt lat="45.6967153" lon="11.7649541"><ele>74.0</ele><time>2026-05-04T11:56:57.12Z</time></trkpt><trkpt lat="45.6966863" lon="11.7648127"><ele>74.0</ele><time>2026-05-04T11:56:58.121Z</time></trkpt><trkpt lat="45.6966561" lon="11.7646549"><ele>74.0</ele><time>2026-05-04T11:56:59.12Z</time></trkpt><trkpt lat="45.6966252" lon="11.7644833"><ele>74.0</ele><time>2026-05-04T11:57:00.121Z</time></trkpt><trkpt lat="45.6965936" lon="11.7643045"><ele>74.0</ele><time>2026-05-04T11:57:01.12Z</time></trkpt><trkpt lat="45.6965598" lon="11.7641264"><ele>74.0</ele><time>2026-05-04T11:57:02.12Z</time></trkpt><trkpt lat="45.6965255" lon="11.7639515"><ele>74.0</ele><time>2026-05-04T11:57:03.121Z</time></trkpt><trkpt lat="45.6964937" lon="11.7637755"><ele>74.0</ele><time>2026-05-04T11:57:04.121Z</time></trkpt><trkpt lat="45.6964657" lon="11.7636069"><ele>74.0</ele><time>2026-05-04T11:57:05.121Z</time></trkpt><trkpt lat="45.6964394" lon="11.7634408"><ele>74.0</ele><time>2026-05-04T11:57:06.12Z</time></trkpt><trkpt lat="45.6964123" lon="11.7632713"><ele>74.0</ele><time>2026-05-04T11:57:07.12Z</time></trkpt><trkpt lat="45.6963851" lon="11.7631041"><ele>74.0</ele><time>2026-05-04T11:57:08.121Z</time></trkpt><trkpt lat="45.6963529" lon="11.7629312"><ele>74.0</ele><time>2026-05-04T11:57:09.12Z</time></trkpt><trkpt lat="45.6963224" lon="11.7627552"><ele>74.0</ele><time>2026-05-04T11:57:10.12Z</time></trkpt><trkpt lat="45.6962924" lon="11.7625804"><ele>74.0</ele><time>2026-05-04T11:57:11.121Z</time></trkpt><trkpt lat="45.6962637" lon="11.7624049"><ele>74.0</ele><time>2026-05-04T11:57:12.121Z</time></trkpt><trkpt lat="45.6962328" lon="11.7622343"><ele>73.8</ele><time>2026-05-04T11:57:13.121Z</time></trkpt><trkpt lat="45.6962027" lon="11.762082"><ele>73.60000000000001</ele><time>2026-05-04T11:57:14.12Z</time></trkpt><trkpt lat="45.696176" lon="11.7619456"><ele>73.4</ele><time>2026-05-04T11:57:15.12Z</time></trkpt><trkpt lat="45.6961522" lon="11.7618202"><ele>73.2</ele><time>2026-05-04T11:57:16.12Z</time></trkpt><trkpt lat="45.6961314" lon="11.7616998"><ele>73.0</ele><time>2026-05-04T11:57:17.12Z</time></trkpt><trkpt lat="45.6961101" lon="11.7615686"><ele>73.2</ele><time>2026-05-04T11:57:18.121Z</time></trkpt><trkpt lat="45.6960851" lon="11.7614212"><ele>73.4</ele><time>2026-05-04T11:57:19.121Z</time></trkpt><trkpt lat="45.696058" lon="11.7612662"><ele>73.60000000000001</ele><time>2026-05-04T11:57:20.121Z</time></trkpt><trkpt lat="45.6960292" lon="11.7611056"><ele>73.8</ele><time>2026-05-04T11:57:21.12Z</time></trkpt><trkpt lat="45.6960018" lon="11.7609454"><ele>74.0</ele><time>2026-05-04T11:57:22.12Z</time></trkpt><trkpt lat="45.6959749" lon="11.760794"><ele>74.0</ele><time>2026-05-04T11:57:23.12Z</time></trkpt><trkpt lat="45.6959494" lon="11.7606482"><ele>74.0</ele><time>2026-05-04T11:57:24.121Z</time></trkpt><trkpt lat="45.6959273" lon="11.7605117"><ele>74.0</ele><time>2026-05-04T11:57:25.12Z</time></trkpt><trkpt lat="45.695907" lon="11.760391"><ele>74.0</ele><time>2026-05-04T11:57:26.121Z</time></trkpt><trkpt lat="45.6958877" lon="11.7602886"><ele>74.0</ele><time>2026-05-04T11:57:27.121Z</time></trkpt><trkpt lat="45.6958719" lon="11.7601752"><ele>74.0</ele><time>2026-05-04T11:57:29.121Z</time></trkpt><trkpt lat="45.6958369" lon="11.7600642"><ele>74.0</ele><time>2026-05-04T11:57:38.12Z</time></trkpt><trkpt lat="45.6957921" lon="11.7599114"><ele>74.0</ele><time>2026-05-04T11:57:40.121Z</time></trkpt><trkpt lat="45.6957732" lon="11.7597947"><ele>74.0</ele><time>2026-05-04T11:57:41.12Z</time></trkpt><trkpt lat="45.6957533" lon="11.75966"><ele>74.0</ele><time>2026-05-04T11:57:42.12Z</time></trkpt><trkpt lat="45.6957293" lon="11.7594785"><ele>74.0</ele><time>2026-05-04T11:57:43.12Z</time></trkpt><trkpt lat="45.695704" lon="11.7592801"><ele>74.0</ele><time>2026-05-04T11:57:44.12Z</time></trkpt><trkpt lat="45.695679" lon="11.7590729"><ele>74.0</ele><time>2026-05-04T11:57:45.12Z</time></trkpt><trkpt lat="45.6956468" lon="11.7588714"><ele>74.0</ele><time>2026-05-04T11:57:46.12Z</time></trkpt><trkpt lat="45.6956116" lon="11.7586735"><ele>74.0</ele><time>2026-05-04T11:57:47.12Z</time></trkpt><trkpt lat="45.6955831" lon="11.7584829"><ele>74.0</ele><time>2026-05-04T11:57:48.12Z</time></trkpt><trkpt lat="45.6955619" lon="11.7582949"><ele>74.0</ele><time>2026-05-04T11:57:49.121Z</time></trkpt><trkpt lat="45.6955429" lon="11.758104"><ele>74.0</ele><time>2026-05-04T11:57:50.121Z</time></trkpt><trkpt lat="45.6955272" lon="11.7579136"><ele>74.0</ele><time>2026-05-04T11:57:51.12Z</time></trkpt><trkpt lat="45.6955069" lon="11.7577314"><ele>74.0</ele><time>2026-05-04T11:57:52.12Z</time></trkpt><trkpt lat="45.6954819" lon="11.7575539"><ele>74.0</ele><time>2026-05-04T11:57:53.12Z</time></trkpt><trkpt lat="45.6954575" lon="11.7573837"><ele>74.0</ele><time>2026-05-04T11:57:54.12Z</time></trkpt><trkpt lat="45.6954339" lon="11.7572143"><ele>74.0</ele><time>2026-05-04T11:57:55.12Z</time></trkpt><trkpt lat="45.6954063" lon="11.7570353"><ele>74.25</ele><time>2026-05-04T11:57:56.121Z</time></trkpt><trkpt lat="45.6953783" lon="11.7568469"><ele>74.5</ele><time>2026-05-04T11:57:57.12Z</time></trkpt><trkpt lat="45.6953495" lon="11.7566602"><ele>74.75</ele><time>2026-05-04T11:57:58.12Z</time></trkpt><trkpt lat="45.6953162" lon="11.7564585"><ele>75.0</ele><time>2026-05-04T11:57:59.12Z</time></trkpt><trkpt lat="45.6952797" lon="11.7562448"><ele>74.33333333333333</ele><time>2026-05-04T11:58:00.121Z</time></trkpt><trkpt lat="45.6952393" lon="11.756023"><ele>73.66666666666666</ele><time>2026-05-04T11:58:01.12Z</time></trkpt><trkpt lat="45.6951991" lon="11.7557889"><ele>73.0</ele><time>2026-05-04T11:58:02.12Z</time></trkpt><trkpt lat="45.695163" lon="11.7555437"><ele>73.0</ele><time>2026-05-04T11:58:03.121Z</time></trkpt><trkpt lat="45.6951304" lon="11.7553065"><ele>73.0</ele><time>2026-05-04T11:58:04.12Z</time></trkpt><trkpt lat="45.6951016" lon="11.7550786"><ele>73.0</ele><time>2026-05-04T11:58:05.12Z</time></trkpt><trkpt lat="45.6950769" lon="11.7548543"><ele>73.25</ele><time>2026-05-04T11:58:06.121Z</time></trkpt><trkpt lat="45.6950566" lon="11.7546429"><ele>73.5</ele><time>2026-05-04T11:58:07.121Z</time></trkpt><trkpt lat="45.6950398" lon="11.7544566"><ele>73.75</ele><time>2026-05-04T11:58:08.12Z</time></trkpt><trkpt lat="45.6950275" lon="11.7542967"><ele>74.0</ele><time>2026-05-04T11:58:09.121Z</time></trkpt><trkpt lat="45.6950266" lon="11.7541747"><ele>74.0</ele><time>2026-05-04T11:58:10.12Z</time></trkpt><trkpt lat="45.6950354" lon="11.7540753"><ele>74.0</ele><time>2026-05-04T11:58:11.12Z</time></trkpt><trkpt lat="45.6950574" lon="11.7539603"><ele>74.0</ele><time>2026-05-04T11:58:12.121Z</time></trkpt><trkpt lat="45.6950595" lon="11.7538457"><ele>74.0</ele><time>2026-05-04T11:58:13.12Z</time></trkpt><trkpt lat="45.6950241" lon="11.7537186"><ele>74.0</ele><time>2026-05-04T11:58:14.121Z</time></trkpt><trkpt lat="45.6949737" lon="11.7535835"><ele>74.0</ele><time>2026-05-04T11:58:15.12Z</time></trkpt><trkpt lat="45.6949268" lon="11.7534205"><ele>73.66666666666667</ele><time>2026-05-04T11:58:16.12Z</time></trkpt><trkpt lat="45.6948851" lon="11.7532346"><ele>73.33333333333333</ele><time>2026-05-04T11:58:17.12Z</time></trkpt><trkpt lat="45.694843" lon="11.7530244"><ele>73.0</ele><time>2026-05-04T11:58:18.121Z</time></trkpt><trkpt lat="45.6947957" lon="11.7527932"><ele>73.33333333333333</ele><time>2026-05-04T11:58:19.121Z</time></trkpt><trkpt lat="45.6947443" lon="11.7525438"><ele>73.66666666666667</ele><time>2026-05-04T11:58:20.12Z</time></trkpt><trkpt lat="45.6946948" lon="11.7522868"><ele>74.0</ele><time>2026-05-04T11:58:21.121Z</time></trkpt><trkpt lat="45.6946428" lon="11.7520189"><ele>74.0</ele><time>2026-05-04T11:58:22.121Z</time></trkpt><trkpt lat="45.6945891" lon="11.7517238"><ele>74.0</ele><time>2026-05-04T11:58:23.121Z</time></trkpt><trkpt lat="45.6945398" lon="11.7514315"><ele>74.0</ele><time>2026-05-04T11:58:24.121Z</time></trkpt><trkpt lat="45.6945002" lon="11.751161"><ele>74.0</ele><time>2026-05-04T11:58:25.12Z</time></trkpt><trkpt lat="45.6944648" lon="11.7509154"><ele>74.0</ele><time>2026-05-04T11:58:26.12Z</time></trkpt><trkpt lat="45.6944327" lon="11.7506872"><ele>74.0</ele><time>2026-05-04T11:58:27.121Z</time></trkpt><trkpt lat="45.6944039" lon="11.750474"><ele>74.0</ele><time>2026-05-04T11:58:28.121Z</time></trkpt><trkpt lat="45.6943784" lon="11.7502723"><ele>74.0</ele><time>2026-05-04T11:58:29.121Z</time></trkpt><trkpt lat="45.6943531" lon="11.7500814"><ele>74.0</ele><time>2026-05-04T11:58:30.121Z</time></trkpt><trkpt lat="45.6943292" lon="11.7498991"><ele>74.0</ele><time>2026-05-04T11:58:31.12Z</time></trkpt><trkpt lat="45.6943035" lon="11.7497243"><ele>73.5</ele><time>2026-05-04T11:58:32.121Z</time></trkpt><trkpt lat="45.6942835" lon="11.749555"><ele>73.0</ele><time>2026-05-04T11:58:33.12Z</time></trkpt><trkpt lat="45.6942605" lon="11.7493947"><ele>72.5</ele><time>2026-05-04T11:58:34.121Z</time></trkpt><trkpt lat="45.6942332" lon="11.7492304"><ele>72.0</ele><time>2026-05-04T11:58:35.12Z</time></trkpt><trkpt lat="45.694206" lon="11.7490628"><ele>72.0</ele><time>2026-05-04T11:58:36.12Z</time></trkpt><trkpt lat="45.6941772" lon="11.7488899"><ele>72.0</ele><time>2026-05-04T11:58:37.121Z</time></trkpt><trkpt lat="45.6941438" lon="11.7487117"><ele>72.0</ele><time>2026-05-04T11:58:38.121Z</time></trkpt><trkpt lat="45.6941163" lon="11.7485361"><ele>72.0</ele><time>2026-05-04T11:58:39.12Z</time></trkpt><trkpt lat="45.6940849" lon="11.7483644"><ele>72.25</ele><time>2026-05-04T11:58:40.121Z</time></trkpt><trkpt lat="45.6940517" lon="11.748191"><ele>72.5</ele><time>2026-05-04T11:58:41.12Z</time></trkpt><trkpt lat="45.6940217" lon="11.7480128"><ele>72.75</ele><time>2026-05-04T11:58:42.12Z</time></trkpt><trkpt lat="45.6939859" lon="11.7478295"><ele>73.0</ele><time>2026-05-04T11:58:43.12Z</time></trkpt><trkpt lat="45.6939466" lon="11.7476414"><ele>73.0</ele><time>2026-05-04T11:58:44.121Z</time></trkpt><trkpt lat="45.6939094" lon="11.7474465"><ele>73.0</ele><time>2026-05-04T11:58:45.121Z</time></trkpt><trkpt lat="45.6938684" lon="11.7472485"><ele>73.0</ele><time>2026-05-04T11:58:46.12Z</time></trkpt><trkpt lat="45.6938245" lon="11.7470444"><ele>73.0</ele><time>2026-05-04T11:58:47.121Z</time></trkpt><trkpt lat="45.6937824" lon="11.7468336"><ele>73.0</ele><time>2026-05-04T11:58:48.12Z</time></trkpt><trkpt lat="45.6937431" lon="11.7466216"><ele>73.0</ele><time>2026-05-04T11:58:49.12Z</time></trkpt><trkpt lat="45.6937067" lon="11.7464186"><ele>73.0</ele><time>2026-05-04T11:58:50.121Z</time></trkpt><trkpt lat="45.693671" lon="11.7462208"><ele>73.0</ele><time>2026-05-04T11:58:51.121Z</time></trkpt><trkpt lat="45.6936352" lon="11.7460306"><ele>73.0</ele><time>2026-05-04T11:58:52.12Z</time></trkpt><trkpt lat="45.6936001" lon="11.7458409"><ele>73.0</ele><time>2026-05-04T11:58:53.12Z</time></trkpt><trkpt lat="45.6935724" lon="11.7456557"><ele>73.0</ele><time>2026-05-04T11:58:54.121Z</time></trkpt><trkpt lat="45.6935503" lon="11.7454831"><ele>73.0</ele><time>2026-05-04T11:58:55.12Z</time></trkpt><trkpt lat="45.6935294" lon="11.7453169"><ele>73.5</ele><time>2026-05-04T11:58:56.121Z</time></trkpt><trkpt lat="45.6935142" lon="11.7451569"><ele>74.0</ele><time>2026-05-04T11:58:57.121Z</time></trkpt><trkpt lat="45.6935025" lon="11.7449949"><ele>74.5</ele><time>2026-05-04T11:58:58.121Z</time></trkpt><trkpt lat="45.693493" lon="11.744832"><ele>75.0</ele><time>2026-05-04T11:58:59.121Z</time></trkpt><trkpt lat="45.6934887" lon="11.7446667"><ele>75.0</ele><time>2026-05-04T11:59:00.12Z</time></trkpt><trkpt lat="45.6934815" lon="11.7444995"><ele>75.0</ele><time>2026-05-04T11:59:01.121Z</time></trkpt><trkpt lat="45.6934698" lon="11.7443352"><ele>75.0</ele><time>2026-05-04T11:59:02.12Z</time></trkpt><trkpt lat="45.6934586" lon="11.7441655"><ele>75.0</ele><time>2026-05-04T11:59:03.12Z</time></trkpt><trkpt lat="45.6934441" lon="11.7439916"><ele>75.0</ele><time>2026-05-04T11:59:04.12Z</time></trkpt><trkpt lat="45.6934299" lon="11.7438131"><ele>75.0</ele><time>2026-05-04T11:59:05.12Z</time></trkpt><trkpt lat="45.6934195" lon="11.7436339"><ele>75.0</ele><time>2026-05-04T11:59:06.121Z</time></trkpt><trkpt lat="45.6934035" lon="11.7434589"><ele>75.0</ele><time>2026-05-04T11:59:07.12Z</time></trkpt><trkpt lat="45.6933888" lon="11.7432886"><ele>75.0</ele><time>2026-05-04T11:59:08.12Z</time></trkpt><trkpt lat="45.6933659" lon="11.7431226"><ele>75.0</ele><time>2026-05-04T11:59:09.12Z</time></trkpt><trkpt lat="45.6933394" lon="11.742946"><ele>75.0</ele><time>2026-05-04T11:59:10.121Z</time></trkpt><trkpt lat="45.6933147" lon="11.7427574"><ele>75.0</ele><time>2026-05-04T11:59:11.12Z</time></trkpt><trkpt lat="45.6932906" lon="11.7425601"><ele>75.0</ele><time>2026-05-04T11:59:12.12Z</time></trkpt><trkpt lat="45.6932647" lon="11.742349"><ele>75.0</ele><time>2026-05-04T11:59:13.12Z</time></trkpt><trkpt lat="45.6932355" lon="11.7421335"><ele>75.0</ele><time>2026-05-04T11:59:14.121Z</time></trkpt><trkpt lat="45.6932018" lon="11.7419096"><ele>74.66666666666667</ele><time>2026-05-04T11:59:15.12Z</time></trkpt><trkpt lat="45.6931682" lon="11.7416774"><ele>74.33333333333334</ele><time>2026-05-04T11:59:16.12Z</time></trkpt><trkpt lat="45.6931352" lon="11.7414378"><ele>74.0</ele><time>2026-05-04T11:59:17.12Z</time></trkpt><trkpt lat="45.6931012" lon="11.7411953"><ele>74.0</ele><time>2026-05-04T11:59:18.12Z</time></trkpt><trkpt lat="45.6930675" lon="11.7409384"><ele>74.0</ele><time>2026-05-04T11:59:19.12Z</time></trkpt><trkpt lat="45.6930318" lon="11.7406822"><ele>74.0</ele><time>2026-05-04T11:59:20.12Z</time></trkpt><trkpt lat="45.6929987" lon="11.740441"><ele>74.0</ele><time>2026-05-04T11:59:21.12Z</time></trkpt><trkpt lat="45.6929638" lon="11.74022"><ele>74.0</ele><time>2026-05-04T11:59:22.12Z</time></trkpt><trkpt lat="45.6929337" lon="11.7400258"><ele>74.0</ele><time>2026-05-04T11:59:23.12Z</time></trkpt><trkpt lat="45.6929097" lon="11.7398622"><ele>74.0</ele><time>2026-05-04T11:59:24.121Z</time></trkpt><trkpt lat="45.6928961" lon="11.7397241"><ele>74.33333333333334</ele><time>2026-05-04T11:59:25.12Z</time></trkpt><trkpt lat="45.6928949" lon="11.7395963"><ele>74.66666666666667</ele><time>2026-05-04T11:59:26.12Z</time></trkpt><trkpt lat="45.6929105" lon="11.7394813"><ele>75.0</ele><time>2026-05-04T11:59:27.121Z</time></trkpt><trkpt lat="45.692951" lon="11.7393826"><ele>75.33333333333333</ele><time>2026-05-04T11:59:28.12Z</time></trkpt><trkpt lat="45.693004" lon="11.7392891"><ele>75.66666666666666</ele><time>2026-05-04T11:59:29.12Z</time></trkpt><trkpt lat="45.6930348" lon="11.7391961"><ele>76.0</ele><time>2026-05-04T11:59:30.12Z</time></trkpt><trkpt lat="45.6930364" lon="11.7391012"><ele>76.0</ele><time>2026-05-04T11:59:31.12Z</time></trkpt><trkpt lat="45.6930022" lon="11.7390033"><ele>76.0</ele><time>2026-05-04T11:59:32.121Z</time></trkpt><trkpt lat="45.6929348" lon="11.7388927"><ele>76.0</ele><time>2026-05-04T11:59:33.121Z</time></trkpt><trkpt lat="45.6928559" lon="11.7387511"><ele>76.0</ele><time>2026-05-04T11:59:34.121Z</time></trkpt><trkpt lat="45.6927825" lon="11.7385732"><ele>76.0</ele><time>2026-05-04T11:59:35.12Z</time></trkpt><trkpt lat="45.6927249" lon="11.7383655"><ele>76.0</ele><time>2026-05-04T11:59:36.12Z</time></trkpt><trkpt lat="45.6926756" lon="11.7381372"><ele>76.0</ele><time>2026-05-04T11:59:37.12Z</time></trkpt><trkpt lat="45.6926262" lon="11.7378926"><ele>75.66666666666666</ele><time>2026-05-04T11:59:38.121Z</time></trkpt><trkpt lat="45.6925739" lon="11.737643"><ele>75.33333333333333</ele><time>2026-05-04T11:59:39.121Z</time></trkpt><trkpt lat="45.6925205" lon="11.737384"><ele>75.0</ele><time>2026-05-04T11:59:40.12Z</time></trkpt><trkpt lat="45.6924687" lon="11.7371211"><ele>74.66666666666667</ele><time>2026-05-04T11:59:41.12Z</time></trkpt><trkpt lat="45.6924174" lon="11.7368501"><ele>74.33333333333334</ele><time>2026-05-04T11:59:42.12Z</time></trkpt><trkpt lat="45.6923675" lon="11.7365755"><ele>74.0</ele><time>2026-05-04T11:59:43.12Z</time></trkpt><trkpt lat="45.6923194" lon="11.7362937"><ele>74.66666666666667</ele><time>2026-05-04T11:59:44.121Z</time></trkpt><trkpt lat="45.6922748" lon="11.7360258"><ele>75.33333333333333</ele><time>2026-05-04T11:59:45.121Z</time></trkpt><trkpt lat="45.692241" lon="11.7357709"><ele>76.0</ele><time>2026-05-04T11:59:46.12Z</time></trkpt><trkpt lat="45.6922072" lon="11.7355315"><ele>76.0</ele><time>2026-05-04T11:59:47.12Z</time></trkpt><trkpt lat="45.6921787" lon="11.7353055"><ele>76.0</ele><time>2026-05-04T11:59:48.12Z</time></trkpt><trkpt lat="45.6921515" lon="11.7350913"><ele>76.0</ele><time>2026-05-04T11:59:49.12Z</time></trkpt><trkpt lat="45.6921271" lon="11.7348873"><ele>76.0</ele><time>2026-05-04T11:59:50.12Z</time></trkpt><trkpt lat="45.692108" lon="11.7346927"><ele>76.0</ele><time>2026-05-04T11:59:51.121Z</time></trkpt><trkpt lat="45.6920856" lon="11.7345083"><ele>76.0</ele><time>2026-05-04T11:59:52.12Z</time></trkpt><trkpt lat="45.6920642" lon="11.7343339"><ele>76.0</ele><time>2026-05-04T11:59:53.121Z</time></trkpt><trkpt lat="45.6920455" lon="11.7341678"><ele>76.0</ele><time>2026-05-04T11:59:54.12Z</time></trkpt><trkpt lat="45.6920312" lon="11.7340057"><ele>76.0</ele><time>2026-05-04T11:59:55.121Z</time></trkpt><trkpt lat="45.6920165" lon="11.7338565"><ele>76.0</ele><time>2026-05-04T11:59:56.12Z</time></trkpt><trkpt lat="45.6920021" lon="11.7337198"><ele>76.0</ele><time>2026-05-04T11:59:57.12Z</time></trkpt><trkpt lat="45.6919898" lon="11.7336027"><ele>76.0</ele><time>2026-05-04T11:59:58.12Z</time></trkpt><trkpt lat="45.6919782" lon="11.7335113"><ele>76.0</ele><time>2026-05-04T11:59:59.121Z</time></trkpt><trkpt lat="45.6919667" lon="11.7333896"><ele>76.0</ele><time>2026-05-04T12:00:01.12Z</time></trkpt><trkpt lat="45.6919547" lon="11.7332714"><ele>76.0</ele><time>2026-05-04T12:00:04.121Z</time></trkpt><trkpt lat="45.6919516" lon="11.7331593"><ele>76.0</ele><time>2026-05-04T12:00:38.12Z</time></trkpt><trkpt lat="45.6919264" lon="11.7329673"><ele>76.0</ele><time>2026-05-04T12:00:40.121Z</time></trkpt><trkpt lat="45.6919188" lon="11.73284"><ele>75.5</ele><time>2026-05-04T12:00:41.12Z</time></trkpt><trkpt lat="45.6919093" lon="11.7326954"><ele>75.0</ele><time>2026-05-04T12:00:42.12Z</time></trkpt><trkpt lat="45.691893" lon="11.7325393"><ele>74.5</ele><time>2026-05-04T12:00:43.12Z</time></trkpt><trkpt lat="45.6918666" lon="11.7323754"><ele>74.0</ele><time>2026-05-04T12:00:44.121Z</time></trkpt><trkpt lat="45.6918381" lon="11.7321966"><ele>74.0</ele><time>2026-05-04T12:00:45.12Z</time></trkpt><trkpt lat="45.6918011" lon="11.7320089"><ele>74.0</ele><time>2026-05-04T12:00:46.12Z</time></trkpt><trkpt lat="45.6917636" lon="11.731809"><ele>74.0</ele><time>2026-05-04T12:00:47.12Z</time></trkpt><trkpt lat="45.6917229" lon="11.7316003"><ele>74.0</ele><time>2026-05-04T12:00:48.12Z</time></trkpt><trkpt lat="45.6916809" lon="11.7313815"><ele>74.33333333333334</ele><time>2026-05-04T12:00:49.12Z</time></trkpt><trkpt lat="45.6916399" lon="11.7311565"><ele>74.66666666666667</ele><time>2026-05-04T12:00:50.121Z</time></trkpt><trkpt lat="45.6915929" lon="11.7309277"><ele>75.0</ele><time>2026-05-04T12:00:51.121Z</time></trkpt><trkpt lat="45.6915475" lon="11.7306893"><ele>75.0</ele><time>2026-05-04T12:00:52.121Z</time></trkpt><trkpt lat="45.6915009" lon="11.7304411"><ele>75.0</ele><time>2026-05-04T12:00:53.121Z</time></trkpt><trkpt lat="45.6914533" lon="11.7301747"><ele>75.0</ele><time>2026-05-04T12:00:54.12Z</time></trkpt><trkpt lat="45.6914052" lon="11.7298986"><ele>75.0</ele><time>2026-05-04T12:00:55.12Z</time></trkpt><trkpt lat="45.6913553" lon="11.7296154"><ele>75.0</ele><time>2026-05-04T12:00:56.121Z</time></trkpt><trkpt lat="45.6913075" lon="11.7293208"><ele>75.0</ele><time>2026-05-04T12:00:57.121Z</time></trkpt><trkpt lat="45.6912567" lon="11.7290197"><ele>75.0</ele><time>2026-05-04T12:00:58.121Z</time></trkpt><trkpt lat="45.691206" lon="11.7287188"><ele>75.0</ele><time>2026-05-04T12:00:59.121Z</time></trkpt><trkpt lat="45.6911571" lon="11.728414"><ele>75.0</ele><time>2026-05-04T12:01:00.12Z</time></trkpt><trkpt lat="45.6911046" lon="11.728107"><ele>74.33333333333333</ele><time>2026-05-04T12:01:01.121Z</time></trkpt><trkpt lat="45.6910525" lon="11.7278025"><ele>73.66666666666666</ele><time>2026-05-04T12:01:02.121Z</time></trkpt><trkpt lat="45.6910042" lon="11.7275138"><ele>73.0</ele><time>2026-05-04T12:01:03.12Z</time></trkpt><trkpt lat="45.690956" lon="11.7272457"><ele>73.0</ele><time>2026-05-04T12:01:04.12Z</time></trkpt><trkpt lat="45.6909117" lon="11.7269951"><ele>73.0</ele><time>2026-05-04T12:01:05.121Z</time></trkpt><trkpt lat="45.6908724" lon="11.7267561"><ele>73.0</ele><time>2026-05-04T12:01:06.12Z</time></trkpt><trkpt lat="45.6908376" lon="11.7265435"><ele>73.0</ele><time>2026-05-04T12:01:07.12Z</time></trkpt><trkpt lat="45.6908132" lon="11.7263657"><ele>73.0</ele><time>2026-05-04T12:01:08.12Z</time></trkpt><trkpt lat="45.69081" lon="11.72621"><ele>73.0</ele><time>2026-05-04T12:01:09.121Z</time></trkpt><trkpt lat="45.690825" lon="11.7260772"><ele>73.0</ele><time>2026-05-04T12:01:10.12Z</time></trkpt><trkpt lat="45.6908401" lon="11.7259515"><ele>73.0</ele><time>2026-05-04T12:01:11.12Z</time></trkpt><trkpt lat="45.6908284" lon="11.7258265"><ele>73.0</ele><time>2026-05-04T12:01:12.12Z</time></trkpt><trkpt lat="45.6907856" lon="11.7256769"><ele>73.0</ele><time>2026-05-04T12:01:13.121Z</time></trkpt><trkpt lat="45.6907485" lon="11.7254834"><ele>73.0</ele><time>2026-05-04T12:01:14.121Z</time></trkpt><trkpt lat="45.6907268" lon="11.725265"><ele>73.0</ele><time>2026-05-04T12:01:15.121Z</time></trkpt><trkpt lat="45.6907088" lon="11.7250301"><ele>73.0</ele><time>2026-05-04T12:01:16.12Z</time></trkpt><trkpt lat="45.6906927" lon="11.7247854"><ele>73.0</ele><time>2026-05-04T12:01:17.12Z</time></trkpt><trkpt lat="45.6906724" lon="11.7245301"><ele>73.0</ele><time>2026-05-04T12:01:18.12Z</time></trkpt><trkpt lat="45.6906541" lon="11.7242634"><ele>73.0</ele><time>2026-05-04T12:01:19.12Z</time></trkpt><trkpt lat="45.6906296" lon="11.7239956"><ele>73.0</ele><time>2026-05-04T12:01:20.12Z</time></trkpt><trkpt lat="45.6905947" lon="11.723719"><ele>73.0</ele><time>2026-05-04T12:01:21.12Z</time></trkpt><trkpt lat="45.6905553" lon="11.7234416"><ele>73.0</ele><time>2026-05-04T12:01:22.12Z</time></trkpt><trkpt lat="45.6905121" lon="11.7231575"><ele>73.0</ele><time>2026-05-04T12:01:23.12Z</time></trkpt><trkpt lat="45.6904646" lon="11.7228729"><ele>73.0</ele><time>2026-05-04T12:01:24.12Z</time></trkpt><trkpt lat="45.6904135" lon="11.722587"><ele>73.0</ele><time>2026-05-04T12:01:25.12Z</time></trkpt><trkpt lat="45.6903548" lon="11.7222928"><ele>73.0</ele><time>2026-05-04T12:01:26.12Z</time></trkpt><trkpt lat="45.690296" lon="11.7219969"><ele>73.0</ele><time>2026-05-04T12:01:27.12Z</time></trkpt><trkpt lat="45.6902322" lon="11.7216996"><ele>73.33333333333333</ele><time>2026-05-04T12:01:28.121Z</time></trkpt><trkpt lat="45.6901645" lon="11.721405"><ele>73.66666666666667</ele><time>2026-05-04T12:01:29.12Z</time></trkpt><trkpt lat="45.6900929" lon="11.7211077"><ele>74.0</ele><time>2026-05-04T12:01:30.121Z</time></trkpt><trkpt lat="45.6900181" lon="11.7208118"><ele>74.0</ele><time>2026-05-04T12:01:31.12Z</time></trkpt><trkpt lat="45.6899425" lon="11.7205165"><ele>74.0</ele><time>2026-05-04T12:01:32.121Z</time></trkpt><trkpt lat="45.6898702" lon="11.7202386"><ele>74.0</ele><time>2026-05-04T12:01:33.12Z</time></trkpt><trkpt lat="45.6898029" lon="11.71997"><ele>74.0</ele><time>2026-05-04T12:01:34.12Z</time></trkpt><trkpt lat="45.6897427" lon="11.7197197"><ele>74.0</ele><time>2026-05-04T12:01:35.121Z</time></trkpt><trkpt lat="45.6896897" lon="11.7194773"><ele>74.0</ele><time>2026-05-04T12:01:36.121Z</time></trkpt><trkpt lat="45.6896435" lon="11.7192266"><ele>73.0</ele><time>2026-05-04T12:01:37.12Z</time></trkpt><trkpt lat="45.6896053" lon="11.7189695"><ele>72.0</ele><time>2026-05-04T12:01:38.121Z</time></trkpt><trkpt lat="45.6895789" lon="11.7187074"><ele>71.0</ele><time>2026-05-04T12:01:39.121Z</time></trkpt><trkpt lat="45.6895629" lon="11.7184429"><ele>71.0</ele><time>2026-05-04T12:01:40.121Z</time></trkpt><trkpt lat="45.689543" lon="11.7181888"><ele>71.0</ele><time>2026-05-04T12:01:41.12Z</time></trkpt><trkpt lat="45.6895224" lon="11.7179438"><ele>71.0</ele><time>2026-05-04T12:01:42.12Z</time></trkpt><trkpt lat="45.6894996" lon="11.7177125"><ele>71.33333333333334</ele><time>2026-05-04T12:01:43.12Z</time></trkpt><trkpt lat="45.6894733" lon="11.7174891"><ele>71.66666666666667</ele><time>2026-05-04T12:01:44.121Z</time></trkpt><trkpt lat="45.6894381" lon="11.7172714"><ele>72.0</ele><time>2026-05-04T12:01:45.12Z</time></trkpt><trkpt lat="45.6893954" lon="11.7170491"><ele>71.66666666666667</ele><time>2026-05-04T12:01:46.121Z</time></trkpt><trkpt lat="45.689352" lon="11.7168242"><ele>71.33333333333334</ele><time>2026-05-04T12:01:47.121Z</time></trkpt><trkpt lat="45.6893072" lon="11.7165979"><ele>71.0</ele><time>2026-05-04T12:01:48.12Z</time></trkpt><trkpt lat="45.6892604" lon="11.716369"><ele>71.0</ele><time>2026-05-04T12:01:49.12Z</time></trkpt><trkpt lat="45.6892129" lon="11.71614"><ele>71.0</ele><time>2026-05-04T12:01:50.12Z</time></trkpt><trkpt lat="45.6891617" lon="11.7159104"><ele>71.0</ele><time>2026-05-04T12:01:51.12Z</time></trkpt><trkpt lat="45.6891103" lon="11.7156752"><ele>71.33333333333334</ele><time>2026-05-04T12:01:52.12Z</time></trkpt><trkpt lat="45.6890573" lon="11.7154347"><ele>71.66666666666667</ele><time>2026-05-04T12:01:53.12Z</time></trkpt><trkpt lat="45.6890022" lon="11.7151855"><ele>72.0</ele><time>2026-05-04T12:01:54.12Z</time></trkpt><trkpt lat="45.6889547" lon="11.7149242"><ele>72.0</ele><time>2026-05-04T12:01:55.12Z</time></trkpt><trkpt lat="45.6889187" lon="11.714652"><ele>72.0</ele><time>2026-05-04T12:01:56.12Z</time></trkpt><trkpt lat="45.6888891" lon="11.7143683"><ele>72.0</ele><time>2026-05-04T12:01:57.12Z</time></trkpt><trkpt lat="45.6888674" lon="11.7140766"><ele>72.33333333333333</ele><time>2026-05-04T12:01:58.12Z</time></trkpt><trkpt lat="45.6888581" lon="11.713769"><ele>72.66666666666666</ele><time>2026-05-04T12:01:59.121Z</time></trkpt><trkpt lat="45.6888593" lon="11.7134578"><ele>73.0</ele><time>2026-05-04T12:02:00.12Z</time></trkpt><trkpt lat="45.6888703" lon="11.713135"><ele>73.0</ele><time>2026-05-04T12:02:01.12Z</time></trkpt><trkpt lat="45.6888895" lon="11.7128056"><ele>73.0</ele><time>2026-05-04T12:02:02.12Z</time></trkpt><trkpt lat="45.6889195" lon="11.7124673"><ele>73.0</ele><time>2026-05-04T12:02:03.12Z</time></trkpt><trkpt lat="45.688956" lon="11.7121249"><ele>73.0</ele><time>2026-05-04T12:02:04.121Z</time></trkpt><trkpt lat="45.6889949" lon="11.7117752"><ele>73.0</ele><time>2026-05-04T12:02:05.12Z</time></trkpt><trkpt lat="45.6890272" lon="11.7114392"><ele>73.0</ele><time>2026-05-04T12:02:06.12Z</time></trkpt><trkpt lat="45.6890595" lon="11.7111221"><ele>72.66666666666666</ele><time>2026-05-04T12:02:07.12Z</time></trkpt><trkpt lat="45.6890902" lon="11.7108196"><ele>72.33333333333333</ele><time>2026-05-04T12:02:08.12Z</time></trkpt><trkpt lat="45.6891285" lon="11.7105213"><ele>72.0</ele><time>2026-05-04T12:02:09.12Z</time></trkpt><trkpt lat="45.6891822" lon="11.7102335"><ele>72.0</ele><time>2026-05-04T12:02:10.121Z</time></trkpt><trkpt lat="45.68925" lon="11.7099525"><ele>72.0</ele><time>2026-05-04T12:02:11.121Z</time></trkpt><trkpt lat="45.6893147" lon="11.7096755"><ele>72.0</ele><time>2026-05-04T12:02:12.121Z</time></trkpt><trkpt lat="45.6893625" lon="11.7093946"><ele>72.0</ele><time>2026-05-04T12:02:13.121Z</time></trkpt><trkpt lat="45.6893909" lon="11.7091399"><ele>72.0</ele><time>2026-05-04T12:02:14.12Z</time></trkpt><trkpt lat="45.6894093" lon="11.7089243"><ele>72.0</ele><time>2026-05-04T12:02:15.121Z</time></trkpt><trkpt lat="45.689424" lon="11.708745"><ele>72.0</ele><time>2026-05-04T12:02:16.12Z</time></trkpt><trkpt lat="45.689437" lon="11.7085727"><ele>72.0</ele><time>2026-05-04T12:02:17.12Z</time></trkpt><trkpt lat="45.6894538" lon="11.7083846"><ele>72.0</ele><time>2026-05-04T12:02:18.121Z</time></trkpt><trkpt lat="45.6894662" lon="11.7081883"><ele>72.0</ele><time>2026-05-04T12:02:19.12Z</time></trkpt><trkpt lat="45.6894731" lon="11.7079778"><ele>72.0</ele><time>2026-05-04T12:02:20.121Z</time></trkpt><trkpt lat="45.6894839" lon="11.707754"><ele>72.0</ele><time>2026-05-04T12:02:21.12Z</time></trkpt><trkpt lat="45.6894947" lon="11.7075271"><ele>72.0</ele><time>2026-05-04T12:02:22.121Z</time></trkpt><trkpt lat="45.6895053" lon="11.7073147"><ele>72.0</ele><time>2026-05-04T12:02:23.12Z</time></trkpt><trkpt lat="45.6895147" lon="11.7071103"><ele>72.0</ele><time>2026-05-04T12:02:24.121Z</time></trkpt><trkpt lat="45.689524" lon="11.7069176"><ele>72.0</ele><time>2026-05-04T12:02:25.12Z</time></trkpt><trkpt lat="45.6895305" lon="11.7067378"><ele>72.0</ele><time>2026-05-04T12:02:26.12Z</time></trkpt><trkpt lat="45.6895376" lon="11.7065733"><ele>72.0</ele><time>2026-05-04T12:02:27.12Z</time></trkpt><trkpt lat="45.6895415" lon="11.7064404"><ele>72.0</ele><time>2026-05-04T12:02:28.12Z</time></trkpt><trkpt lat="45.6895472" lon="11.7063372"><ele>72.0</ele><time>2026-05-04T12:02:29.12Z</time></trkpt><trkpt lat="45.6895564" lon="11.7061955"><ele>72.0</ele><time>2026-05-04T12:02:31.12Z</time></trkpt><trkpt lat="45.6895705" lon="11.7060864"><ele>72.0</ele><time>2026-05-04T12:02:33.12Z</time></trkpt><trkpt lat="45.689578" lon="11.7059914"><ele>72.0</ele><time>2026-05-04T12:02:35.12Z</time></trkpt><trkpt lat="45.689566" lon="11.7058347"><ele>72.0</ele><time>2026-05-04T12:02:38.12Z</time></trkpt><trkpt lat="45.689557" lon="11.7057285"><ele>72.0</ele><time>2026-05-04T12:02:39.12Z</time></trkpt><trkpt lat="45.6895535" lon="11.7056"><ele>72.0</ele><time>2026-05-04T12:02:40.12Z</time></trkpt><trkpt lat="45.6895575" lon="11.7054519"><ele>72.0</ele><time>2026-05-04T12:02:41.121Z</time></trkpt><trkpt lat="45.6895652" lon="11.705279"><ele>72.0</ele><time>2026-05-04T12:02:42.12Z</time></trkpt><trkpt lat="45.6895758" lon="11.7050915"><ele>72.0</ele><time>2026-05-04T12:02:43.12Z</time></trkpt><trkpt lat="45.6895874" lon="11.7048783"><ele>72.0</ele><time>2026-05-04T12:02:44.121Z</time></trkpt><trkpt lat="45.6896013" lon="11.7046349"><ele>72.0</ele><time>2026-05-04T12:02:45.097Z</time></trkpt><trkpt lat="45.6896249" lon="11.7043635"><ele>71.66666666666667</ele><time>2026-05-04T12:02:46.098Z</time></trkpt><trkpt lat="45.6896474" lon="11.7040766"><ele>71.33333333333334</ele><time>2026-05-04T12:02:47.121Z</time></trkpt><trkpt lat="45.6896726" lon="11.7037823"><ele>71.0</ele><time>2026-05-04T12:02:48.098Z</time></trkpt><trkpt lat="45.6896984" lon="11.7034977"><ele>71.0</ele><time>2026-05-04T12:02:49.119Z</time></trkpt><trkpt lat="45.6897214" lon="11.7032211"><ele>71.0</ele><time>2026-05-04T12:02:50.12Z</time></trkpt><trkpt lat="45.6897313" lon="11.7029402"><ele>71.0</ele><time>2026-05-04T12:02:51.121Z</time></trkpt><trkpt lat="45.6897348" lon="11.7026485"><ele>71.0</ele><time>2026-05-04T12:02:52.12Z</time></trkpt><trkpt lat="45.6897274" lon="11.7023506"><ele>71.0</ele><time>2026-05-04T12:02:53.121Z</time></trkpt><trkpt lat="45.6897174" lon="11.7020452"><ele>71.0</ele><time>2026-05-04T12:02:54.121Z</time></trkpt><trkpt lat="45.6896991" lon="11.7017348"><ele>71.0</ele><time>2026-05-04T12:02:55.12Z</time></trkpt><trkpt lat="45.6896768" lon="11.7014396"><ele>71.0</ele><time>2026-05-04T12:02:56.12Z</time></trkpt><trkpt lat="45.6896588" lon="11.7011654"><ele>71.0</ele><time>2026-05-04T12:02:57.121Z</time></trkpt><trkpt lat="45.6896424" lon="11.7009025"><ele>71.0</ele><time>2026-05-04T12:02:58.121Z</time></trkpt><trkpt lat="45.6896278" lon="11.7006686"><ele>71.0</ele><time>2026-05-04T12:02:59.12Z</time></trkpt><trkpt lat="45.6896147" lon="11.7004631"><ele>71.0</ele><time>2026-05-04T12:03:00.12Z</time></trkpt><trkpt lat="45.6896043" lon="11.7002901"><ele>71.0</ele><time>2026-05-04T12:03:01.12Z</time></trkpt><trkpt lat="45.6895958" lon="11.7001404"><ele>71.0</ele><time>2026-05-04T12:03:02.12Z</time></trkpt><trkpt lat="45.6895912" lon="11.700021"><ele>71.0</ele><time>2026-05-04T12:03:03.121Z</time></trkpt><trkpt lat="45.6896134" lon="11.6998841"><ele>71.0</ele><time>2026-05-04T12:03:05.121Z</time></trkpt><trkpt lat="45.689664" lon="11.6997997"><ele>71.0</ele><time>2026-05-04T12:03:07.121Z</time></trkpt><trkpt lat="45.6897875" lon="11.6997033"><ele>71.0</ele><time>2026-05-04T12:03:09.12Z</time></trkpt><trkpt lat="45.6898755" lon="11.699642"><ele>71.0</ele><time>2026-05-04T12:03:10.12Z</time></trkpt><trkpt lat="45.6899736" lon="11.6995693"><ele>71.0</ele><time>2026-05-04T12:03:11.12Z</time></trkpt><trkpt lat="45.6900793" lon="11.699488"><ele>71.0</ele><time>2026-05-04T12:03:12.12Z</time></trkpt><trkpt lat="45.6901754" lon="11.6994194"><ele>71.0</ele><time>2026-05-04T12:03:13.121Z</time></trkpt><trkpt lat="45.6902532" lon="11.6993697"><ele>71.0</ele><time>2026-05-04T12:03:14.121Z</time></trkpt><trkpt lat="45.6903151" lon="11.699331"><ele>71.0</ele><time>2026-05-04T12:03:15.12Z</time></trkpt><trkpt lat="45.6903591" lon="11.699266"><ele>71.0</ele><time>2026-05-04T12:03:17.12Z</time></trkpt><trkpt lat="45.6903243" lon="11.6991864"><ele>71.0</ele><time>2026-05-04T12:03:19.121Z</time></trkpt><trkpt lat="45.6902775" lon="11.6991167"><ele>71.0</ele><time>2026-05-04T12:03:20.12Z</time></trkpt><trkpt lat="45.690229" lon="11.6990292"><ele>71.0</ele><time>2026-05-04T12:03:21.12Z</time></trkpt><trkpt lat="45.6901884" lon="11.6989394"><ele>71.0</ele><time>2026-05-04T12:03:22.121Z</time></trkpt><trkpt lat="45.6901393" lon="11.698851"><ele>71.0</ele><time>2026-05-04T12:03:23.121Z</time></trkpt><trkpt lat="45.6900858" lon="11.6987586"><ele>71.2</ele><time>2026-05-04T12:03:24.12Z</time></trkpt><trkpt lat="45.6900276" lon="11.6986602"><ele>71.39999999999999</ele><time>2026-05-04T12:03:25.12Z</time></trkpt><trkpt lat="45.6899702" lon="11.6985635"><ele>71.6</ele><time>2026-05-04T12:03:26.121Z</time></trkpt><trkpt lat="45.6899098" lon="11.6984793"><ele>71.8</ele><time>2026-05-04T12:03:27.12Z</time></trkpt><trkpt lat="45.6898396" lon="11.6984031"><ele>72.0</ele><time>2026-05-04T12:03:28.12Z</time></trkpt><trkpt lat="45.6897593" lon="11.6983211"><ele>71.6</ele><time>2026-05-04T12:03:29.121Z</time></trkpt><trkpt lat="45.689667" lon="11.6982357"><ele>71.2</ele><time>2026-05-04T12:03:30.121Z</time></trkpt><trkpt lat="45.6895832" lon="11.6981474"><ele>70.8</ele><time>2026-05-04T12:03:31.12Z</time></trkpt><trkpt lat="45.6895038" lon="11.6980496"><ele>70.4</ele><time>2026-05-04T12:03:32.121Z</time></trkpt><trkpt lat="45.689425" lon="11.6979429"><ele>70.0</ele><time>2026-05-04T12:03:33.12Z</time></trkpt><trkpt lat="45.6893449" lon="11.6978314"><ele>69.4</ele><time>2026-05-04T12:03:34.121Z</time></trkpt><trkpt lat="45.6892698" lon="11.6977146"><ele>68.8</ele><time>2026-05-04T12:03:35.12Z</time></trkpt><trkpt lat="45.689199" lon="11.697613"><ele>68.2</ele><time>2026-05-04T12:03:36.121Z</time></trkpt><trkpt lat="45.6891395" lon="11.6975148"><ele>67.6</ele><time>2026-05-04T12:03:37.12Z</time></trkpt><trkpt lat="45.6890894" lon="11.6974175"><ele>67.0</ele><time>2026-05-04T12:03:38.12Z</time></trkpt><trkpt lat="45.6890388" lon="11.6973073"><ele>67.0</ele><time>2026-05-04T12:03:39.121Z</time></trkpt><trkpt lat="45.6889929" lon="11.6971824"><ele>67.0</ele><time>2026-05-04T12:03:40.12Z</time></trkpt><trkpt lat="45.6889496" lon="11.6970508"><ele>67.0</ele><time>2026-05-04T12:03:41.12Z</time></trkpt><trkpt lat="45.6889092" lon="11.6969217"><ele>67.0</ele><time>2026-05-04T12:03:42.12Z</time></trkpt><trkpt lat="45.6888691" lon="11.6967983"><ele>67.0</ele><time>2026-05-04T12:03:43.121Z</time></trkpt><trkpt lat="45.6888269" lon="11.6966789"><ele>66.6</ele><time>2026-05-04T12:03:44.12Z</time></trkpt><trkpt lat="45.6887797" lon="11.6965804"><ele>66.2</ele><time>2026-05-04T12:03:45.12Z</time></trkpt><trkpt lat="45.6887304" lon="11.6964749"><ele>65.8</ele><time>2026-05-04T12:03:46.121Z</time></trkpt><trkpt lat="45.6886874" lon="11.696365"><ele>65.4</ele><time>2026-05-04T12:03:47.121Z</time></trkpt><trkpt lat="45.6886454" lon="11.6962438"><ele>65.0</ele><time>2026-05-04T12:03:48.12Z</time></trkpt><trkpt lat="45.6886076" lon="11.6961189"><ele>65.6</ele><time>2026-05-04T12:03:49.121Z</time></trkpt><trkpt lat="45.6885746" lon="11.6959952"><ele>66.2</ele><time>2026-05-04T12:03:50.121Z</time></trkpt><trkpt lat="45.6885367" lon="11.6958697"><ele>66.8</ele><time>2026-05-04T12:03:51.121Z</time></trkpt><trkpt lat="45.6884974" lon="11.6957344"><ele>67.4</ele><time>2026-05-04T12:03:52.12Z</time></trkpt><trkpt lat="45.6884522" lon="11.6956003"><ele>68.0</ele><time>2026-05-04T12:03:53.121Z</time></trkpt><trkpt lat="45.6884032" lon="11.6954634"><ele>68.0</ele><time>2026-05-04T12:03:54.12Z</time></trkpt><trkpt lat="45.6883546" lon="11.6953214"><ele>68.0</ele><time>2026-05-04T12:03:55.121Z</time></trkpt><trkpt lat="45.6883107" lon="11.695184"><ele>68.0</ele><time>2026-05-04T12:03:56.121Z</time></trkpt><trkpt lat="45.6882619" lon="11.695054"><ele>68.0</ele><time>2026-05-04T12:03:57.12Z</time></trkpt><trkpt lat="45.6882167" lon="11.6949366"><ele>68.0</ele><time>2026-05-04T12:03:58.12Z</time></trkpt><trkpt lat="45.6881729" lon="11.6948211"><ele>67.66666666666667</ele><time>2026-05-04T12:03:59.12Z</time></trkpt><trkpt lat="45.6881361" lon="11.6947073"><ele>67.33333333333334</ele><time>2026-05-04T12:04:00.12Z</time></trkpt><trkpt lat="45.6880963" lon="11.6945991"><ele>67.0</ele><time>2026-05-04T12:04:01.121Z</time></trkpt><trkpt lat="45.6880568" lon="11.6945033"><ele>66.66666666666667</ele><time>2026-05-04T12:04:02.121Z</time></trkpt><trkpt lat="45.6880198" lon="11.6944029"><ele>66.33333333333333</ele><time>2026-05-04T12:04:03.12Z</time></trkpt><trkpt lat="45.6879834" lon="11.6942975"><ele>66.0</ele><time>2026-05-04T12:04:04.121Z</time></trkpt><trkpt lat="45.6879434" lon="11.6941973"><ele>66.0</ele><time>2026-05-04T12:04:05.12Z</time></trkpt><trkpt lat="45.6879031" lon="11.6940816"><ele>66.0</ele><time>2026-05-04T12:04:06.12Z</time></trkpt><trkpt lat="45.6878615" lon="11.693954"><ele>66.0</ele><time>2026-05-04T12:04:07.121Z</time></trkpt><trkpt lat="45.6878185" lon="11.6938198"><ele>66.0</ele><time>2026-05-04T12:04:08.12Z</time></trkpt><trkpt lat="45.687782" lon="11.6936946"><ele>66.0</ele><time>2026-05-04T12:04:09.121Z</time></trkpt><trkpt lat="45.6877462" lon="11.6935806"><ele>66.0</ele><time>2026-05-04T12:04:10.121Z</time></trkpt><trkpt lat="45.6877133" lon="11.6934851"><ele>66.0</ele><time>2026-05-04T12:04:11.12Z</time></trkpt><trkpt lat="45.6876844" lon="11.6933992"><ele>66.0</ele><time>2026-05-04T12:04:12.121Z</time></trkpt><trkpt lat="45.6876416" lon="11.6932708"><ele>66.0</ele><time>2026-05-04T12:04:14.121Z</time></trkpt><trkpt lat="45.6875966" lon="11.6931609"><ele>66.0</ele><time>2026-05-04T12:04:16.121Z</time></trkpt><trkpt lat="45.6875654" lon="11.6930557"><ele>66.0</ele><time>2026-05-04T12:04:18.12Z</time></trkpt><trkpt lat="45.6875451" lon="11.692965"><ele>66.0</ele><time>2026-05-04T12:04:20.12Z</time></trkpt><trkpt lat="45.6874872" lon="11.6928703"><ele>66.0</ele><time>2026-05-04T12:04:23.12Z</time></trkpt><trkpt lat="45.687399" lon="11.6928508"><ele>66.0</ele><time>2026-05-04T12:04:26.12Z</time></trkpt><trkpt lat="45.6872918" lon="11.6929179"><ele>66.0</ele><time>2026-05-04T12:04:28.12Z</time></trkpt><trkpt lat="45.687175" lon="11.6929917"><ele>66.0</ele><time>2026-05-04T12:04:30.12Z</time></trkpt><trkpt lat="45.6870986" lon="11.6930155"><ele>66.0</ele><time>2026-05-04T12:04:31.121Z</time></trkpt><trkpt lat="45.6870114" lon="11.6930412"><ele>66.0</ele><time>2026-05-04T12:04:32.12Z</time></trkpt><trkpt lat="45.6869176" lon="11.6930622"><ele>66.0</ele><time>2026-05-04T12:04:33.121Z</time></trkpt><trkpt lat="45.6868365" lon="11.6930792"><ele>66.0</ele><time>2026-05-04T12:04:34.121Z</time></trkpt><trkpt lat="45.6867686" lon="11.6930855"><ele>66.0</ele><time>2026-05-04T12:04:35.121Z</time></trkpt><trkpt lat="45.6866852" lon="11.693095"><ele>66.0</ele><time>2026-05-04T12:04:37.12Z</time></trkpt><trkpt lat="45.6867765" lon="11.6931071"><ele>66.0</ele><time>2026-05-04T12:05:25.12Z</time></trkpt><trkpt lat="45.6868417" lon="11.6930945"><ele>66.0</ele><time>2026-05-04T12:05:26.121Z</time></trkpt><trkpt lat="45.686914" lon="11.6930712"><ele>66.0</ele><time>2026-05-04T12:05:27.121Z</time></trkpt><trkpt lat="45.6869814" lon="11.6930634"><ele>66.0</ele><time>2026-05-04T12:05:28.121Z</time></trkpt><trkpt lat="45.6870497" lon="11.693051"><ele>66.0</ele><time>2026-05-04T12:05:29.121Z</time></trkpt><trkpt lat="45.6871131" lon="11.6930312"><ele>66.0</ele><time>2026-05-04T12:05:30.12Z</time></trkpt><trkpt lat="45.6871758" lon="11.6930078"><ele>66.0</ele><time>2026-05-04T12:05:31.12Z</time></trkpt><trkpt lat="45.6872809" lon="11.6929467"><ele>66.0</ele><time>2026-05-04T12:05:33.121Z</time></trkpt><trkpt lat="45.6873567" lon="11.6928748"><ele>66.0</ele><time>2026-05-04T12:05:35.12Z</time></trkpt><trkpt lat="45.6873958" lon="11.6927991"><ele>66.0</ele><time>2026-05-04T12:05:37.12Z</time></trkpt><trkpt lat="45.6874243" lon="11.692707"><ele>66.0</ele><time>2026-05-04T12:05:41.12Z</time></trkpt><trkpt lat="45.6873532" lon="11.6926414"><ele>66.0</ele><time>2026-05-04T12:05:45.12Z</time></trkpt><trkpt lat="45.6872898" lon="11.6926182"><ele>66.0</ele><time>2026-05-04T12:05:49.12Z</time></trkpt><trkpt lat="45.6872228" lon="11.6925613"><ele>66.16666666666667</ele><time>2026-05-04T12:05:52.12Z</time></trkpt><trkpt lat="45.6871575" lon="11.6925539"><ele>66.33333333333333</ele><time>2026-05-04T12:05:53.121Z</time></trkpt><trkpt lat="45.6870965" lon="11.6925296"><ele>66.5</ele><time>2026-05-04T12:05:54.121Z</time></trkpt><trkpt lat="45.6870198" lon="11.6925041"><ele>66.66666666666666</ele><time>2026-05-04T12:05:55.121Z</time></trkpt><trkpt lat="45.6869357" lon="11.6924742"><ele>66.83333333333333</ele><time>2026-05-04T12:05:56.12Z</time></trkpt><trkpt lat="45.6868476" lon="11.6924434"><ele>67.0</ele><time>2026-05-04T12:05:57.12Z</time></trkpt><trkpt lat="45.686759" lon="11.6924065"><ele>67.0</ele><time>2026-05-04T12:05:58.12Z</time></trkpt><trkpt lat="45.6866671" lon="11.6923759"><ele>67.0</ele><time>2026-05-04T12:05:59.12Z</time></trkpt><trkpt lat="45.6865857" lon="11.6923457"><ele>67.0</ele><time>2026-05-04T12:06:00.12Z</time></trkpt><trkpt lat="45.6865009" lon="11.6923124"><ele>67.0</ele><time>2026-05-04T12:06:01.12Z</time></trkpt><trkpt lat="45.686407" lon="11.6922824"><ele>67.0</ele><time>2026-05-04T12:06:02.12Z</time></trkpt><trkpt lat="45.686322" lon="11.6922439"><ele>67.0</ele><time>2026-05-04T12:06:03.121Z</time></trkpt><trkpt lat="45.6862305" lon="11.6921959"><ele>67.0</ele><time>2026-05-04T12:06:04.12Z</time></trkpt><trkpt lat="45.6861273" lon="11.6921489"><ele>67.0</ele><time>2026-05-04T12:06:05.12Z</time></trkpt><trkpt lat="45.686042" lon="11.6921184"><ele>67.0</ele><time>2026-05-04T12:06:06.121Z</time></trkpt><trkpt lat="45.6859775" lon="11.6920781"><ele>67.0</ele><time>2026-05-04T12:06:07.12Z</time></trkpt><trkpt lat="45.6858881" lon="11.6920521"><ele>66.8</ele><time>2026-05-04T12:06:09.121Z</time></trkpt><trkpt lat="45.6858247" lon="11.6920744"><ele>66.6</ele><time>2026-05-04T12:06:14.121Z</time></trkpt><trkpt lat="45.6857527" lon="11.6921863"><ele>66.39999999999999</ele><time>2026-05-04T12:06:17.12Z</time></trkpt><trkpt lat="45.6856651" lon="11.6923199"><ele>66.2</ele><time>2026-05-04T12:06:19.12Z</time></trkpt><trkpt lat="45.6856155" lon="11.6923849"><ele>66.0</ele><time>2026-05-04T12:06:20.121Z</time></trkpt><trkpt lat="45.6855299" lon="11.6924809"><ele>66.0</ele><time>2026-05-04T12:06:22.12Z</time></trkpt><trkpt lat="45.6854714" lon="11.6925305"><ele>66.0</ele><time>2026-05-04T12:06:24.121Z</time></trkpt><trkpt lat="45.6854126" lon="11.6925837"><ele>66.0</ele><time>2026-05-04T12:06:30.12Z</time></trkpt><trkpt lat="45.6853126" lon="11.6926823"><ele>66.0</ele><time>2026-05-04T12:06:32.121Z</time></trkpt><trkpt lat="45.6852471" lon="11.6927381"><ele>66.0</ele><time>2026-05-04T12:06:33.12Z</time></trkpt><trkpt lat="45.6851751" lon="11.6927946"><ele>66.0</ele><time>2026-05-04T12:06:34.12Z</time></trkpt><trkpt lat="45.6851031" lon="11.6928374"><ele>65.0</ele><time>2026-05-04T12:06:35.121Z</time></trkpt><trkpt lat="45.6850281" lon="11.6928659"><ele>64.0</ele><time>2026-05-04T12:06:36.121Z</time></trkpt><trkpt lat="45.6849562" lon="11.6928937"><ele>63.0</ele><time>2026-05-04T12:06:37.12Z</time></trkpt><trkpt lat="45.6848828" lon="11.69291"><ele>62.0</ele><time>2026-05-04T12:06:38.121Z</time></trkpt><trkpt lat="45.6848063" lon="11.692929"><ele>61.0</ele><time>2026-05-04T12:06:39.121Z</time></trkpt><trkpt lat="45.6847281" lon="11.6929484"><ele>60.0</ele><time>2026-05-04T12:06:40.12Z</time></trkpt><trkpt lat="45.6846551" lon="11.6929645"><ele>60.0</ele><time>2026-05-04T12:06:41.12Z</time></trkpt><trkpt lat="45.6845802" lon="11.6929799"><ele>60.0</ele><time>2026-05-04T12:06:42.121Z</time></trkpt><trkpt lat="45.6845053" lon="11.6929889"><ele>60.0</ele><time>2026-05-04T12:06:43.12Z</time></trkpt><trkpt lat="45.6844318" lon="11.6929886"><ele>60.0</ele><time>2026-05-04T12:06:44.12Z</time></trkpt><trkpt lat="45.6843624" lon="11.6929932"><ele>60.0</ele><time>2026-05-04T12:06:45.12Z</time></trkpt><trkpt lat="45.684289" lon="11.6929893"><ele>60.0</ele><time>2026-05-04T12:06:46.121Z</time></trkpt><trkpt lat="45.6842201" lon="11.6929897"><ele>60.0</ele><time>2026-05-04T12:06:47.121Z</time></trkpt><trkpt lat="45.6841549" lon="11.6929835"><ele>60.25</ele><time>2026-05-04T12:06:48.121Z</time></trkpt><trkpt lat="45.6840327" lon="11.6929626"><ele>60.5</ele><time>2026-05-04T12:06:50.12Z</time></trkpt><trkpt lat="45.6839136" lon="11.6929319"><ele>60.75</ele><time>2026-05-04T12:06:52.12Z</time></trkpt><trkpt lat="45.6838058" lon="11.6928872"><ele>61.0</ele><time>2026-05-04T12:06:54.121Z</time></trkpt><trkpt lat="45.6836882" lon="11.692827"><ele>60.99999999999999</ele><time>2026-05-04T12:06:56.121Z</time></trkpt><trkpt lat="45.683624" lon="11.6927859"><ele>61.0</ele><time>2026-05-04T12:06:57.12Z</time></trkpt><trkpt lat="45.6835612" lon="11.6927406"><ele>60.99999999999999</ele><time>2026-05-04T12:06:58.12Z</time></trkpt><trkpt lat="45.6834969" lon="11.692696"><ele>60.99999999999999</ele><time>2026-05-04T12:06:59.12Z</time></trkpt><trkpt lat="45.6834313" lon="11.6926508"><ele>61.0</ele><time>2026-05-04T12:07:00.121Z</time></trkpt><trkpt lat="45.6833663" lon="11.6926035"><ele>60.99999999999999</ele><time>2026-05-04T12:07:01.12Z</time></trkpt><trkpt lat="45.6833035" lon="11.6925561"><ele>60.99999999999999</ele><time>2026-05-04T12:07:02.12Z</time></trkpt><trkpt lat="45.6832407" lon="11.692502"><ele>61.49999999999999</ele><time>2026-05-04T12:07:03.121Z</time></trkpt><trkpt lat="45.6831743" lon="11.6924536"><ele>62.0</ele><time>2026-05-04T12:07:04.12Z</time></trkpt><trkpt lat="45.6831057" lon="11.6924074"><ele>62.5</ele><time>2026-05-04T12:07:05.121Z</time></trkpt><trkpt lat="45.6830348" lon="11.6923538"><ele>63.0</ele><time>2026-05-04T12:07:06.12Z</time></trkpt><trkpt lat="45.6829656" lon="11.6923085"><ele>63.49999999999999</ele><time>2026-05-04T12:07:07.12Z</time></trkpt><trkpt lat="45.6828981" lon="11.6922611"><ele>64.0</ele><time>2026-05-04T12:07:08.12Z</time></trkpt><trkpt lat="45.682828" lon="11.6922146"><ele>63.83333333333333</ele><time>2026-05-04T12:07:09.121Z</time></trkpt><trkpt lat="45.6827601" lon="11.6921641"><ele>63.666666666666664</ele><time>2026-05-04T12:07:10.121Z</time></trkpt><trkpt lat="45.6826916" lon="11.6921136"><ele>63.5</ele><time>2026-05-04T12:07:11.12Z</time></trkpt><trkpt lat="45.6826235" lon="11.6920665"><ele>63.33333333333333</ele><time>2026-05-04T12:07:12.12Z</time></trkpt><trkpt lat="45.6825537" lon="11.6920172"><ele>63.166666666666664</ele><time>2026-05-04T12:07:13.12Z</time></trkpt><trkpt lat="45.6824866" lon="11.6919678"><ele>63.0</ele><time>2026-05-04T12:07:14.121Z</time></trkpt><trkpt lat="45.682417" lon="11.6919196"><ele>63.0</ele><time>2026-05-04T12:07:15.12Z</time></trkpt><trkpt lat="45.682346" lon="11.6918699"><ele>63.0</ele><time>2026-05-04T12:07:16.121Z</time></trkpt><trkpt lat="45.6822767" lon="11.6918227"><ele>63.0</ele><time>2026-05-04T12:07:17.12Z</time></trkpt><trkpt lat="45.6822091" lon="11.6917696"><ele>63.0</ele><time>2026-05-04T12:07:18.12Z</time></trkpt><trkpt lat="45.6821421" lon="11.6917185"><ele>63.0</ele><time>2026-05-04T12:07:19.121Z</time></trkpt><trkpt lat="45.6820763" lon="11.6916715"><ele>63.0</ele><time>2026-05-04T12:07:20.121Z</time></trkpt><trkpt lat="45.6820068" lon="11.6916284"><ele>63.0</ele><time>2026-05-04T12:07:21.12Z</time></trkpt><trkpt lat="45.681939" lon="11.6915822"><ele>63.0</ele><time>2026-05-04T12:07:22.12Z</time></trkpt><trkpt lat="45.6818669" lon="11.6915327"><ele>63.0</ele><time>2026-05-04T12:07:23.12Z</time></trkpt><trkpt lat="45.6817942" lon="11.6914822"><ele>63.0</ele><time>2026-05-04T12:07:24.12Z</time></trkpt><trkpt lat="45.6817217" lon="11.6914337"><ele>63.0</ele><time>2026-05-04T12:07:25.12Z</time></trkpt><trkpt lat="45.6816505" lon="11.6913889"><ele>63.0</ele><time>2026-05-04T12:07:26.121Z</time></trkpt><trkpt lat="45.681588" lon="11.6913468"><ele>62.8</ele><time>2026-05-04T12:07:27.121Z</time></trkpt><trkpt lat="45.6815309" lon="11.6913034"><ele>62.599999999999994</ele><time>2026-05-04T12:07:28.121Z</time></trkpt><trkpt lat="45.6814174" lon="11.6912233"><ele>62.400000000000006</ele><time>2026-05-04T12:07:30.12Z</time></trkpt><trkpt lat="45.6813163" lon="11.6911668"><ele>62.2</ele><time>2026-05-04T12:07:32.12Z</time></trkpt><trkpt lat="45.6812499" lon="11.6911082"><ele>62.0</ele><time>2026-05-04T12:07:34.12Z</time></trkpt><trkpt lat="45.6811843" lon="11.6910564"><ele>62.0</ele><time>2026-05-04T12:07:36.121Z</time></trkpt><trkpt lat="45.6811186" lon="11.6910087"><ele>62.0</ele><time>2026-05-04T12:07:38.12Z</time></trkpt><trkpt lat="45.6810371" lon="11.690972"><ele>62.0</ele><time>2026-05-04T12:07:40.12Z</time></trkpt><trkpt lat="45.6809466" lon="11.6909951"><ele>62.0</ele><time>2026-05-04T12:07:42.12Z</time></trkpt><trkpt lat="45.6808424" lon="11.6910203"><ele>62.0</ele><time>2026-05-04T12:07:44.12Z</time></trkpt><trkpt lat="45.6807424" lon="11.691005"><ele>62.2</ele><time>2026-05-04T12:07:46.12Z</time></trkpt><trkpt lat="45.6806219" lon="11.6909818"><ele>62.400000000000006</ele><time>2026-05-04T12:07:48.12Z</time></trkpt><trkpt lat="45.6804902" lon="11.6909676"><ele>62.599999999999994</ele><time>2026-05-04T12:07:50.121Z</time></trkpt><trkpt lat="45.6804164" lon="11.6909531"><ele>62.8</ele><time>2026-05-04T12:07:51.12Z</time></trkpt><trkpt lat="45.6803419" lon="11.6909368"><ele>63.0</ele><time>2026-05-04T12:07:52.121Z</time></trkpt><trkpt lat="45.6802739" lon="11.6909274"><ele>62.666666666666664</ele><time>2026-05-04T12:07:53.12Z</time></trkpt><trkpt lat="45.6802042" lon="11.6909233"><ele>62.33333333333333</ele><time>2026-05-04T12:07:54.121Z</time></trkpt><trkpt lat="45.6801337" lon="11.6909048"><ele>62.0</ele><time>2026-05-04T12:07:55.121Z</time></trkpt><trkpt lat="45.6800654" lon="11.6908882"><ele>61.666666666666664</ele><time>2026-05-04T12:07:56.12Z</time></trkpt><trkpt lat="45.6799459" lon="11.690872"><ele>61.33333333333333</ele><time>2026-05-04T12:07:58.12Z</time></trkpt><trkpt lat="45.679864" lon="11.6908532"><ele>61.0</ele><time>2026-05-04T12:08:01.12Z</time></trkpt><trkpt lat="45.6798002" lon="11.6908376"><ele>60.99999999999999</ele><time>2026-05-04T12:08:05.12Z</time></trkpt><trkpt lat="45.6797694" lon="11.6907297"><ele>61.0</ele><time>2026-05-04T12:08:09.12Z</time></trkpt><trkpt lat="45.6797393" lon="11.6906237"><ele>61.0</ele><time>2026-05-04T12:08:12.12Z</time></trkpt><trkpt lat="45.6797276" lon="11.6905219"><ele>61.0</ele><time>2026-05-04T12:08:15.12Z</time></trkpt><trkpt lat="45.6797016" lon="11.6904291"><ele>60.99999999999999</ele><time>2026-05-04T12:08:20.121Z</time></trkpt><trkpt lat="45.6795913" lon="11.6904217"><ele>61.0</ele><time>2026-05-04T12:08:24.121Z</time></trkpt><trkpt lat="45.6795227" lon="11.6904036"><ele>61.0</ele><time>2026-05-04T12:08:25.12Z</time></trkpt><trkpt lat="45.6794386" lon="11.6903766"><ele>60.99999999999999</ele><time>2026-05-04T12:08:26.121Z</time></trkpt><trkpt lat="45.6793474" lon="11.6903395"><ele>60.99999999999999</ele><time>2026-05-04T12:08:27.12Z</time></trkpt><trkpt lat="45.6792492" lon="11.6903042"><ele>61.0</ele><time>2026-05-04T12:08:28.12Z</time></trkpt><trkpt lat="45.6791396" lon="11.6902604"><ele>61.0</ele><time>2026-05-04T12:08:29.121Z</time></trkpt><trkpt lat="45.6790273" lon="11.690213"><ele>60.599999999999994</ele><time>2026-05-04T12:08:30.12Z</time></trkpt><trkpt lat="45.6789188" lon="11.6901651"><ele>60.199999999999996</ele><time>2026-05-04T12:08:31.121Z</time></trkpt><trkpt lat="45.6788176" lon="11.6901283"><ele>59.800000000000004</ele><time>2026-05-04T12:08:32.12Z</time></trkpt><trkpt lat="45.6787255" lon="11.6901047"><ele>59.400000000000006</ele><time>2026-05-04T12:08:33.12Z</time></trkpt><trkpt lat="45.6786455" lon="11.6900986"><ele>59.0</ele><time>2026-05-04T12:08:34.12Z</time></trkpt><trkpt lat="45.6785701" lon="11.6901045"><ele>59.00000000000001</ele><time>2026-05-04T12:08:35.121Z</time></trkpt><trkpt lat="45.6784988" lon="11.6901266"><ele>59.0</ele><time>2026-05-04T12:08:36.121Z</time></trkpt><trkpt lat="45.6784254" lon="11.6901664"><ele>59.0</ele><time>2026-05-04T12:08:37.12Z</time></trkpt><trkpt lat="45.6783455" lon="11.6902199"><ele>59.0</ele><time>2026-05-04T12:08:38.12Z</time></trkpt><trkpt lat="45.6782491" lon="11.690285"><ele>59.00000000000001</ele><time>2026-05-04T12:08:39.121Z</time></trkpt><trkpt lat="45.678162" lon="11.6903351"><ele>59.0</ele><time>2026-05-04T12:08:40.12Z</time></trkpt><trkpt lat="45.6780877" lon="11.69038"><ele>59.16666666666667</ele><time>2026-05-04T12:08:41.12Z</time></trkpt><trkpt lat="45.6780259" lon="11.6904144"><ele>59.333333333333336</ele><time>2026-05-04T12:08:42.12Z</time></trkpt><trkpt lat="45.6779331" lon="11.690455"><ele>59.5</ele><time>2026-05-04T12:08:44.121Z</time></trkpt><trkpt lat="45.6778554" lon="11.6904609"><ele>59.66666666666667</ele><time>2026-05-04T12:08:48.121Z</time></trkpt><trkpt lat="45.6777552" lon="11.6904754"><ele>59.833333333333336</ele><time>2026-05-04T12:08:50.12Z</time></trkpt><trkpt lat="45.6776731" lon="11.6904629"><ele>60.0</ele><time>2026-05-04T12:08:51.12Z</time></trkpt><trkpt lat="45.6775869" lon="11.6904363"><ele>60.0</ele><time>2026-05-04T12:08:52.121Z</time></trkpt><trkpt lat="45.6775114" lon="11.6904113"><ele>60.0</ele><time>2026-05-04T12:08:53.12Z</time></trkpt><trkpt lat="45.6774118" lon="11.6903758"><ele>60.0</ele><time>2026-05-04T12:08:55.12Z</time></trkpt><trkpt lat="45.6773366" lon="11.6903285"><ele>60.0</ele><time>2026-05-04T12:08:58.12Z</time></trkpt><trkpt lat="45.6772887" lon="11.6902468"><ele>60.0</ele><time>2026-05-04T12:09:01.121Z</time></trkpt><trkpt lat="45.6772495" lon="11.6901367"><ele>60.0</ele><time>2026-05-04T12:09:03.121Z</time></trkpt><trkpt lat="45.6772279" lon="11.690049"><ele>60.0</ele><time>2026-05-04T12:09:04.12Z</time></trkpt><trkpt lat="45.6772056" lon="11.6899569"><ele>60.0</ele><time>2026-05-04T12:09:05.12Z</time></trkpt><trkpt lat="45.6771847" lon="11.6898712"><ele>60.0</ele><time>2026-05-04T12:09:06.12Z</time></trkpt><trkpt lat="45.6771628" lon="11.6897732"><ele>60.0</ele><time>2026-05-04T12:09:07.12Z</time></trkpt><trkpt lat="45.6771451" lon="11.689666"><ele>60.0</ele><time>2026-05-04T12:09:08.121Z</time></trkpt><trkpt lat="45.6771237" lon="11.6895543"><ele>60.0</ele><time>2026-05-04T12:09:09.121Z</time></trkpt><trkpt lat="45.6770964" lon="11.6894289"><ele>59.4</ele><time>2026-05-04T12:09:10.121Z</time></trkpt><trkpt lat="45.6770714" lon="11.6893134"><ele>58.8</ele><time>2026-05-04T12:09:11.12Z</time></trkpt><trkpt lat="45.677049" lon="11.6891892"><ele>58.2</ele><time>2026-05-04T12:09:12.121Z</time></trkpt><trkpt lat="45.6770282" lon="11.6890649"><ele>57.6</ele><time>2026-05-04T12:09:13.121Z</time></trkpt><trkpt lat="45.6770025" lon="11.6889366"><ele>57.0</ele><time>2026-05-04T12:09:14.12Z</time></trkpt><trkpt lat="45.6769766" lon="11.6888008"><ele>57.0</ele><time>2026-05-04T12:09:15.12Z</time></trkpt><trkpt lat="45.6769522" lon="11.6886632"><ele>57.0</ele><time>2026-05-04T12:09:16.121Z</time></trkpt><trkpt lat="45.676924" lon="11.6885221"><ele>57.0</ele><time>2026-05-04T12:09:17.121Z</time></trkpt><trkpt lat="45.6768966" lon="11.6883783"><ele>57.0</ele><time>2026-05-04T12:09:18.12Z</time></trkpt><trkpt lat="45.6768642" lon="11.688226"><ele>57.0</ele><time>2026-05-04T12:09:19.121Z</time></trkpt><trkpt lat="45.6768224" lon="11.6880538"><ele>56.0</ele><time>2026-05-04T12:09:20.12Z</time></trkpt><trkpt lat="45.6767787" lon="11.6878412"><ele>55.0</ele><time>2026-05-04T12:09:21.12Z</time></trkpt><trkpt lat="45.6767305" lon="11.6876034"><ele>54.0</ele><time>2026-05-04T12:09:22.12Z</time></trkpt><trkpt lat="45.6766865" lon="11.6873496"><ele>54.0</ele><time>2026-05-04T12:09:23.12Z</time></trkpt><trkpt lat="45.6766446" lon="11.6870916"><ele>54.0</ele><time>2026-05-04T12:09:24.121Z</time></trkpt><trkpt lat="45.6766022" lon="11.6868297"><ele>54.0</ele><time>2026-05-04T12:09:25.12Z</time></trkpt><trkpt lat="45.6765543" lon="11.6865702"><ele>54.66666666666667</ele><time>2026-05-04T12:09:26.12Z</time></trkpt><trkpt lat="45.6765045" lon="11.6863091"><ele>55.333333333333336</ele><time>2026-05-04T12:09:27.12Z</time></trkpt><trkpt lat="45.6764579" lon="11.6860519"><ele>56.0</ele><time>2026-05-04T12:09:28.121Z</time></trkpt><trkpt lat="45.6764116" lon="11.6858043"><ele>57.0</ele><time>2026-05-04T12:09:29.12Z</time></trkpt><trkpt lat="45.6763666" lon="11.6855749"><ele>58.0</ele><time>2026-05-04T12:09:30.12Z</time></trkpt><trkpt lat="45.6763208" lon="11.6853483"><ele>59.0</ele><time>2026-05-04T12:09:31.12Z</time></trkpt><trkpt lat="45.6762783" lon="11.6851148"><ele>60.0</ele><time>2026-05-04T12:09:32.12Z</time></trkpt><trkpt lat="45.6762401" lon="11.6848755"><ele>61.0</ele><time>2026-05-04T12:09:33.12Z</time></trkpt><trkpt lat="45.6761995" lon="11.6846318"><ele>62.0</ele><time>2026-05-04T12:09:34.121Z</time></trkpt><trkpt lat="45.6761609" lon="11.684383"><ele>62.0</ele><time>2026-05-04T12:09:35.121Z</time></trkpt><trkpt lat="45.6761237" lon="11.6841223"><ele>62.0</ele><time>2026-05-04T12:09:36.12Z</time></trkpt><trkpt lat="45.6760914" lon="11.683865"><ele>62.0</ele><time>2026-05-04T12:09:37.12Z</time></trkpt><trkpt lat="45.6760699" lon="11.6836218"><ele>62.0</ele><time>2026-05-04T12:09:38.12Z</time></trkpt><trkpt lat="45.6760498" lon="11.6833935"><ele>62.0</ele><time>2026-05-04T12:09:39.12Z</time></trkpt><trkpt lat="45.6760301" lon="11.6831771"><ele>62.0</ele><time>2026-05-04T12:09:40.121Z</time></trkpt><trkpt lat="45.6760183" lon="11.6829751"><ele>62.0</ele><time>2026-05-04T12:09:41.12Z</time></trkpt><trkpt lat="45.6760171" lon="11.6828068"><ele>62.0</ele><time>2026-05-04T12:09:42.121Z</time></trkpt><trkpt lat="45.6760216" lon="11.6826799"><ele>62.0</ele><time>2026-05-04T12:09:43.121Z</time></trkpt><trkpt lat="45.6760436" lon="11.6825489"><ele>62.0</ele><time>2026-05-04T12:09:44.12Z</time></trkpt><trkpt lat="45.6760586" lon="11.6824357"><ele>62.0</ele><time>2026-05-04T12:09:45.12Z</time></trkpt><trkpt lat="45.6760208" lon="11.6822908"><ele>62.0</ele><time>2026-05-04T12:09:47.121Z</time></trkpt><trkpt lat="45.675963" lon="11.6822504"><ele>62.0</ele><time>2026-05-04T12:09:48.121Z</time></trkpt><trkpt lat="45.6758721" lon="11.6822354"><ele>62.0</ele><time>2026-05-04T12:09:49.12Z</time></trkpt><trkpt lat="45.6757568" lon="11.6822317"><ele>62.0</ele><time>2026-05-04T12:09:50.121Z</time></trkpt><trkpt lat="45.6756305" lon="11.6822307"><ele>62.0</ele><time>2026-05-04T12:09:51.12Z</time></trkpt><trkpt lat="45.6754885" lon="11.6822381"><ele>62.0</ele><time>2026-05-04T12:09:52.12Z</time></trkpt><trkpt lat="45.6753347" lon="11.682242"><ele>62.0</ele><time>2026-05-04T12:09:53.12Z</time></trkpt><trkpt lat="45.6751737" lon="11.6822434"><ele>62.0</ele><time>2026-05-04T12:09:54.121Z</time></trkpt><trkpt lat="45.6750074" lon="11.6822463"><ele>62.333333333333336</ele><time>2026-05-04T12:09:55.12Z</time></trkpt><trkpt lat="45.6748378" lon="11.6822569"><ele>62.66666666666667</ele><time>2026-05-04T12:09:56.121Z</time></trkpt><trkpt lat="45.6746631" lon="11.6822642"><ele>63.0</ele><time>2026-05-04T12:09:57.12Z</time></trkpt><trkpt lat="45.6744863" lon="11.6822717"><ele>62.66666666666667</ele><time>2026-05-04T12:09:58.12Z</time></trkpt><trkpt lat="45.6742998" lon="11.6822816"><ele>62.333333333333336</ele><time>2026-05-04T12:09:59.121Z</time></trkpt><trkpt lat="45.6741099" lon="11.6822914"><ele>62.0</ele><time>2026-05-04T12:10:00.12Z</time></trkpt><trkpt lat="45.6739107" lon="11.6823023"><ele>62.0</ele><time>2026-05-04T12:10:01.12Z</time></trkpt><trkpt lat="45.6737054" lon="11.6823241"><ele>62.0</ele><time>2026-05-04T12:10:02.12Z</time></trkpt><trkpt lat="45.673491" lon="11.6823493"><ele>62.0</ele><time>2026-05-04T12:10:03.121Z</time></trkpt><trkpt lat="45.6732738" lon="11.6823769"><ele>61.0</ele><time>2026-05-04T12:10:04.12Z</time></trkpt><trkpt lat="45.6730497" lon="11.6824087"><ele>60.0</ele><time>2026-05-04T12:10:05.121Z</time></trkpt><trkpt lat="45.67282" lon="11.6824415"><ele>59.5</ele><time>2026-05-04T12:10:06.121Z</time></trkpt><trkpt lat="45.6725837" lon="11.6824806"><ele>59.0</ele><time>2026-05-04T12:10:07.12Z</time></trkpt><trkpt lat="45.6723465" lon="11.6825229"><ele>59.0</ele><time>2026-05-04T12:10:08.121Z</time></trkpt><trkpt lat="45.672107" lon="11.6825732"><ele>59.0</ele><time>2026-05-04T12:10:09.12Z</time></trkpt><trkpt lat="45.6718683" lon="11.6826311"><ele>60.0</ele><time>2026-05-04T12:10:10.121Z</time></trkpt><trkpt lat="45.6716286" lon="11.6826905"><ele>61.0</ele><time>2026-05-04T12:10:11.12Z</time></trkpt><trkpt lat="45.6713891" lon="11.6827551"><ele>61.0</ele><time>2026-05-04T12:10:12.12Z</time></trkpt><trkpt lat="45.6711468" lon="11.6828276"><ele>61.0</ele><time>2026-05-04T12:10:13.121Z</time></trkpt><trkpt lat="45.6709093" lon="11.6829004"><ele>61.0</ele><time>2026-05-04T12:10:14.12Z</time></trkpt><trkpt lat="45.6706747" lon="11.6829763"><ele>61.0</ele><time>2026-05-04T12:10:15.12Z</time></trkpt><trkpt lat="45.6704521" lon="11.6830449"><ele>60.33333333333333</ele><time>2026-05-04T12:10:16.121Z</time></trkpt><trkpt lat="45.6702394" lon="11.6831021"><ele>59.66666666666667</ele><time>2026-05-04T12:10:17.12Z</time></trkpt><trkpt lat="45.6700365" lon="11.6831371"><ele>59.0</ele><time>2026-05-04T12:10:18.12Z</time></trkpt><trkpt lat="45.6698441" lon="11.68315"><ele>59.0</ele><time>2026-05-04T12:10:19.12Z</time></trkpt><trkpt lat="45.6696598" lon="11.6831592"><ele>59.0</ele><time>2026-05-04T12:10:20.12Z</time></trkpt><trkpt lat="45.6694848" lon="11.683162"><ele>59.0</ele><time>2026-05-04T12:10:21.12Z</time></trkpt><trkpt lat="45.6693181" lon="11.6831588"><ele>58.66666666666667</ele><time>2026-05-04T12:10:22.12Z</time></trkpt><trkpt lat="45.6691561" lon="11.683154"><ele>58.33333333333333</ele><time>2026-05-04T12:10:23.121Z</time></trkpt><trkpt lat="45.6689956" lon="11.6831497"><ele>58.0</ele><time>2026-05-04T12:10:24.12Z</time></trkpt><trkpt lat="45.668838" lon="11.6831443"><ele>58.0</ele><time>2026-05-04T12:10:25.12Z</time></trkpt><trkpt lat="45.6686844" lon="11.6831362"><ele>58.0</ele><time>2026-05-04T12:10:26.12Z</time></trkpt><trkpt lat="45.6685416" lon="11.6831314"><ele>58.0</ele><time>2026-05-04T12:10:27.12Z</time></trkpt><trkpt lat="45.668408" lon="11.683126"><ele>58.0</ele><time>2026-05-04T12:10:28.121Z</time></trkpt><trkpt lat="45.6682878" lon="11.6831207"><ele>58.2</ele><time>2026-05-04T12:10:29.12Z</time></trkpt><trkpt lat="45.6681715" lon="11.6831117"><ele>58.4</ele><time>2026-05-04T12:10:30.121Z</time></trkpt><trkpt lat="45.668066" lon="11.6831042"><ele>58.60000000000001</ele><time>2026-05-04T12:10:31.12Z</time></trkpt><trkpt lat="45.6679571" lon="11.6830974"><ele>58.800000000000004</ele><time>2026-05-04T12:10:32.12Z</time></trkpt><trkpt lat="45.6678397" lon="11.6830924"><ele>59.0</ele><time>2026-05-04T12:10:33.12Z</time></trkpt><trkpt lat="45.6677149" lon="11.6830868"><ele>59.0</ele><time>2026-05-04T12:10:34.12Z</time></trkpt><trkpt lat="45.6675719" lon="11.6830802"><ele>59.0</ele><time>2026-05-04T12:10:35.12Z</time></trkpt><trkpt lat="45.6674224" lon="11.6830678"><ele>59.0</ele><time>2026-05-04T12:10:36.12Z</time></trkpt><trkpt lat="45.6672638" lon="11.6830625"><ele>59.0</ele><time>2026-05-04T12:10:37.12Z</time></trkpt><trkpt lat="45.6671078" lon="11.6830547"><ele>59.0</ele><time>2026-05-04T12:10:38.12Z</time></trkpt><trkpt lat="45.6669606" lon="11.6830464"><ele>59.0</ele><time>2026-05-04T12:10:39.12Z</time></trkpt><trkpt lat="45.666819" lon="11.6830389"><ele>59.0</ele><time>2026-05-04T12:10:40.12Z</time></trkpt><trkpt lat="45.666684" lon="11.683028"><ele>58.75</ele><time>2026-05-04T12:10:41.12Z</time></trkpt><trkpt lat="45.6665525" lon="11.6830207"><ele>58.5</ele><time>2026-05-04T12:10:42.121Z</time></trkpt><trkpt lat="45.6664209" lon="11.6830121"><ele>58.25</ele><time>2026-05-04T12:10:43.121Z</time></trkpt><trkpt lat="45.6662919" lon="11.6830088"><ele>58.0</ele><time>2026-05-04T12:10:44.121Z</time></trkpt><trkpt lat="45.6661635" lon="11.6830054"><ele>57.75</ele><time>2026-05-04T12:10:45.121Z</time></trkpt><trkpt lat="45.6660335" lon="11.6830017"><ele>57.5</ele><time>2026-05-04T12:10:46.121Z</time></trkpt><trkpt lat="45.6659053" lon="11.6830021"><ele>57.25</ele><time>2026-05-04T12:10:47.12Z</time></trkpt><trkpt lat="45.6657838" lon="11.6829965"><ele>57.0</ele><time>2026-05-04T12:10:48.12Z</time></trkpt><trkpt lat="45.6656675" lon="11.6829901"><ele>57.0</ele><time>2026-05-04T12:10:49.12Z</time></trkpt><trkpt lat="45.6655513" lon="11.682983"><ele>57.0</ele><time>2026-05-04T12:10:50.12Z</time></trkpt><trkpt lat="45.665446" lon="11.6829842"><ele>57.0</ele><time>2026-05-04T12:10:51.121Z</time></trkpt><trkpt lat="45.6653435" lon="11.6829814"><ele>57.0</ele><time>2026-05-04T12:10:52.12Z</time></trkpt><trkpt lat="45.6652516" lon="11.6829778"><ele>57.0</ele><time>2026-05-04T12:10:53.12Z</time></trkpt><trkpt lat="45.6651638" lon="11.6829699"><ele>56.857142857142854</ele><time>2026-05-04T12:10:54.121Z</time></trkpt><trkpt lat="45.6650857" lon="11.6829638"><ele>56.71428571428571</ele><time>2026-05-04T12:10:55.12Z</time></trkpt><trkpt lat="45.6650112" lon="11.6829562"><ele>56.57142857142857</ele><time>2026-05-04T12:10:56.121Z</time></trkpt><trkpt lat="45.6649374" lon="11.6829513"><ele>56.42857142857143</ele><time>2026-05-04T12:10:57.12Z</time></trkpt><trkpt lat="45.6648595" lon="11.6829491"><ele>56.285714285714285</ele><time>2026-05-04T12:10:58.121Z</time></trkpt><trkpt lat="45.6647882" lon="11.6829405"><ele>56.14285714285714</ele><time>2026-05-04T12:10:59.121Z</time></trkpt><trkpt lat="45.6647253" lon="11.6829113"><ele>56.0</ele><time>2026-05-04T12:11:00.12Z</time></trkpt><trkpt lat="45.6646627" lon="11.6827532"><ele>55.75</ele><time>2026-05-04T12:11:02.12Z</time></trkpt><trkpt lat="45.6646566" lon="11.682625"><ele>55.5</ele><time>2026-05-04T12:11:03.121Z</time></trkpt><trkpt lat="45.664655" lon="11.6824623"><ele>55.25</ele><time>2026-05-04T12:11:04.121Z</time></trkpt><trkpt lat="45.6646564" lon="11.6822789"><ele>55.0</ele><time>2026-05-04T12:11:05.12Z</time></trkpt><trkpt lat="45.6646608" lon="11.6820741"><ele>55.666666666666664</ele><time>2026-05-04T12:11:06.12Z</time></trkpt><trkpt lat="45.6646594" lon="11.681857"><ele>56.33333333333333</ele><time>2026-05-04T12:11:07.12Z</time></trkpt><trkpt lat="45.6646625" lon="11.6816286"><ele>57.0</ele><time>2026-05-04T12:11:08.12Z</time></trkpt><trkpt lat="45.664677" lon="11.6813897"><ele>57.0</ele><time>2026-05-04T12:11:09.12Z</time></trkpt><trkpt lat="45.664711" lon="11.6811381"><ele>57.0</ele><time>2026-05-04T12:11:10.12Z</time></trkpt><trkpt lat="45.6647583" lon="11.6808838"><ele>57.0</ele><time>2026-05-04T12:11:11.121Z</time></trkpt><trkpt lat="45.6648176" lon="11.6806256"><ele>57.33333333333333</ele><time>2026-05-04T12:11:12.121Z</time></trkpt><trkpt lat="45.6648727" lon="11.6803677"><ele>57.666666666666664</ele><time>2026-05-04T12:11:13.12Z</time></trkpt><trkpt lat="45.6649136" lon="11.6801219"><ele>58.0</ele><time>2026-05-04T12:11:14.12Z</time></trkpt><trkpt lat="45.6649361" lon="11.6798858"><ele>58.0</ele><time>2026-05-04T12:11:15.12Z</time></trkpt><trkpt lat="45.6649297" lon="11.6796492"><ele>58.0</ele><time>2026-05-04T12:11:16.12Z</time></trkpt><trkpt lat="45.6648997" lon="11.6793987"><ele>58.0</ele><time>2026-05-04T12:11:17.12Z</time></trkpt><trkpt lat="45.6648631" lon="11.6791393"><ele>57.666666666666664</ele><time>2026-05-04T12:11:18.12Z</time></trkpt><trkpt lat="45.6648163" lon="11.6788776"><ele>57.33333333333333</ele><time>2026-05-04T12:11:19.121Z</time></trkpt><trkpt lat="45.6647668" lon="11.678604"><ele>57.0</ele><time>2026-05-04T12:11:20.12Z</time></trkpt><trkpt lat="45.6647134" lon="11.6783265"><ele>57.0</ele><time>2026-05-04T12:11:21.121Z</time></trkpt><trkpt lat="45.6646638" lon="11.6780486"><ele>57.0</ele><time>2026-05-04T12:11:22.12Z</time></trkpt><trkpt lat="45.6646154" lon="11.6777657"><ele>57.0</ele><time>2026-05-04T12:11:23.121Z</time></trkpt><trkpt lat="45.6645666" lon="11.6774766"><ele>57.0</ele><time>2026-05-04T12:11:24.121Z</time></trkpt><trkpt lat="45.6645138" lon="11.6771891"><ele>57.0</ele><time>2026-05-04T12:11:25.121Z</time></trkpt><trkpt lat="45.6644555" lon="11.6768978"><ele>57.0</ele><time>2026-05-04T12:11:26.121Z</time></trkpt><trkpt lat="45.6643931" lon="11.6765968"><ele>57.5</ele><time>2026-05-04T12:11:27.121Z</time></trkpt><trkpt lat="45.6643276" lon="11.676286"><ele>58.0</ele><time>2026-05-04T12:11:28.121Z</time></trkpt><trkpt lat="45.6642558" lon="11.6759775"><ele>58.0</ele><time>2026-05-04T12:11:29.121Z</time></trkpt><trkpt lat="45.6641863" lon="11.6756642"><ele>58.0</ele><time>2026-05-04T12:11:30.121Z</time></trkpt><trkpt lat="45.6641127" lon="11.6753472"><ele>58.0</ele><time>2026-05-04T12:11:31.121Z</time></trkpt><trkpt lat="45.6640401" lon="11.6750314"><ele>58.0</ele><time>2026-05-04T12:11:32.12Z</time></trkpt><trkpt lat="45.6639697" lon="11.6747221"><ele>58.33333333333333</ele><time>2026-05-04T12:11:33.12Z</time></trkpt><trkpt lat="45.6638979" lon="11.6744257"><ele>58.66666666666667</ele><time>2026-05-04T12:11:34.121Z</time></trkpt><trkpt lat="45.6638337" lon="11.674151"><ele>59.0</ele><time>2026-05-04T12:11:35.12Z</time></trkpt><trkpt lat="45.6637717" lon="11.6738718"><ele>59.333333333333336</ele><time>2026-05-04T12:11:36.121Z</time></trkpt><trkpt lat="45.6637112" lon="11.6735943"><ele>59.66666666666667</ele><time>2026-05-04T12:11:37.12Z</time></trkpt><trkpt lat="45.6636543" lon="11.6733071"><ele>60.0</ele><time>2026-05-04T12:11:38.12Z</time></trkpt><trkpt lat="45.6636074" lon="11.6730153"><ele>59.0</ele><time>2026-05-04T12:11:39.12Z</time></trkpt><trkpt lat="45.6635713" lon="11.6727129"><ele>58.0</ele><time>2026-05-04T12:11:40.121Z</time></trkpt><trkpt lat="45.6635416" lon="11.6724149"><ele>57.0</ele><time>2026-05-04T12:11:41.12Z</time></trkpt><trkpt lat="45.6635142" lon="11.6721353"><ele>56.66666666666667</ele><time>2026-05-04T12:11:42.121Z</time></trkpt><trkpt lat="45.6634922" lon="11.6718731"><ele>56.333333333333336</ele><time>2026-05-04T12:11:43.12Z</time></trkpt><trkpt lat="45.6634735" lon="11.6716245"><ele>56.0</ele><time>2026-05-04T12:11:44.12Z</time></trkpt><trkpt lat="45.6634553" lon="11.6713846"><ele>56.0</ele><time>2026-05-04T12:11:45.121Z</time></trkpt><trkpt lat="45.6634365" lon="11.6711444"><ele>56.0</ele><time>2026-05-04T12:11:46.121Z</time></trkpt><trkpt lat="45.6634149" lon="11.6708973"><ele>56.0</ele><time>2026-05-04T12:11:47.12Z</time></trkpt><trkpt lat="45.6633936" lon="11.6706466"><ele>56.0</ele><time>2026-05-04T12:11:48.12Z</time></trkpt><trkpt lat="45.6633794" lon="11.670405"><ele>56.0</ele><time>2026-05-04T12:11:49.121Z</time></trkpt><trkpt lat="45.6633747" lon="11.6701791"><ele>56.0</ele><time>2026-05-04T12:11:50.121Z</time></trkpt><trkpt lat="45.6633839" lon="11.6699681"><ele>56.66666666666667</ele><time>2026-05-04T12:11:51.12Z</time></trkpt><trkpt lat="45.6634019" lon="11.6697613"><ele>57.33333333333333</ele><time>2026-05-04T12:11:52.12Z</time></trkpt><trkpt lat="45.6634305" lon="11.6695449"><ele>58.0</ele><time>2026-05-04T12:11:53.121Z</time></trkpt><trkpt lat="45.6634653" lon="11.6693168"><ele>58.0</ele><time>2026-05-04T12:11:54.12Z</time></trkpt><trkpt lat="45.6635006" lon="11.669077"><ele>58.0</ele><time>2026-05-04T12:11:55.121Z</time></trkpt><trkpt lat="45.6635346" lon="11.668833"><ele>58.0</ele><time>2026-05-04T12:11:56.12Z</time></trkpt><trkpt lat="45.6635702" lon="11.6685761"><ele>58.33333333333333</ele><time>2026-05-04T12:11:57.12Z</time></trkpt><trkpt lat="45.6636111" lon="11.6683131"><ele>58.66666666666667</ele><time>2026-05-04T12:11:58.12Z</time></trkpt><trkpt lat="45.6636565" lon="11.6680455"><ele>59.0</ele><time>2026-05-04T12:11:59.12Z</time></trkpt><trkpt lat="45.663704" lon="11.6677793"><ele>59.333333333333336</ele><time>2026-05-04T12:12:00.121Z</time></trkpt><trkpt lat="45.6637543" lon="11.6675116"><ele>59.66666666666667</ele><time>2026-05-04T12:12:01.121Z</time></trkpt><trkpt lat="45.6637979" lon="11.6672525"><ele>60.0</ele><time>2026-05-04T12:12:02.121Z</time></trkpt><trkpt lat="45.6638286" lon="11.6670026"><ele>59.66666666666667</ele><time>2026-05-04T12:12:03.12Z</time></trkpt><trkpt lat="45.6638458" lon="11.666755"><ele>59.333333333333336</ele><time>2026-05-04T12:12:04.12Z</time></trkpt><trkpt lat="45.6638501" lon="11.666508"><ele>59.0</ele><time>2026-05-04T12:12:05.12Z</time></trkpt><trkpt lat="45.6638543" lon="11.666268"><ele>59.0</ele><time>2026-05-04T12:12:06.12Z</time></trkpt><trkpt lat="45.6638681" lon="11.6660429"><ele>59.0</ele><time>2026-05-04T12:12:07.12Z</time></trkpt><trkpt lat="45.6638814" lon="11.6658356"><ele>59.0</ele><time>2026-05-04T12:12:08.12Z</time></trkpt><trkpt lat="45.6638953" lon="11.6656491"><ele>59.0</ele><time>2026-05-04T12:12:09.12Z</time></trkpt><trkpt lat="45.6639068" lon="11.6654948"><ele>59.00000000000001</ele><time>2026-05-04T12:12:10.12Z</time></trkpt><trkpt lat="45.6639143" lon="11.6653692"><ele>59.0</ele><time>2026-05-04T12:12:11.12Z</time></trkpt><trkpt lat="45.6639245" lon="11.6652724"><ele>59.0</ele><time>2026-05-04T12:12:12.12Z</time></trkpt><trkpt lat="45.663925" lon="11.6651695"><ele>59.0</ele><time>2026-05-04T12:12:14.121Z</time></trkpt><trkpt lat="45.6638827" lon="11.6650722"><ele>59.00000000000001</ele><time>2026-05-04T12:12:19.12Z</time></trkpt><trkpt lat="45.6637511" lon="11.6650699"><ele>59.0</ele><time>2026-05-04T12:12:21.121Z</time></trkpt><trkpt lat="45.6636564" lon="11.6650679"><ele>59.0</ele><time>2026-05-04T12:12:22.121Z</time></trkpt><trkpt lat="45.663543" lon="11.6650654"><ele>59.0</ele><time>2026-05-04T12:12:23.121Z</time></trkpt><trkpt lat="45.6634193" lon="11.6650618"><ele>59.0</ele><time>2026-05-04T12:12:24.12Z</time></trkpt><trkpt lat="45.6632927" lon="11.6650609"><ele>59.0</ele><time>2026-05-04T12:12:25.121Z</time></trkpt><trkpt lat="45.6631618" lon="11.6650617"><ele>59.0</ele><time>2026-05-04T12:12:26.12Z</time></trkpt><trkpt lat="45.6630354" lon="11.6650663"><ele>59.00000000000001</ele><time>2026-05-04T12:12:27.12Z</time></trkpt><trkpt lat="45.6629248" lon="11.6650655"><ele>59.00000000000001</ele><time>2026-05-04T12:12:28.121Z</time></trkpt><trkpt lat="45.6628276" lon="11.665064"><ele>59.0</ele><time>2026-05-04T12:12:29.12Z</time></trkpt><trkpt lat="45.6627381" lon="11.6650614"><ele>59.0</ele><time>2026-05-04T12:12:30.12Z</time></trkpt><trkpt lat="45.6626555" lon="11.665058"><ele>59.00000000000001</ele><time>2026-05-04T12:12:31.12Z</time></trkpt><trkpt lat="45.6625798" lon="11.6650474"><ele>59.0</ele><time>2026-05-04T12:12:32.12Z</time></trkpt><trkpt lat="45.6625097" lon="11.6650405"><ele>59.0</ele><time>2026-05-04T12:12:33.12Z</time></trkpt><trkpt lat="45.6624432" lon="11.6650381"><ele>59.0</ele><time>2026-05-04T12:12:34.121Z</time></trkpt><trkpt lat="45.6623355" lon="11.6650182"><ele>59.00000000000001</ele><time>2026-05-04T12:12:36.121Z</time></trkpt><trkpt lat="45.6622568" lon="11.6649851"><ele>59.0</ele><time>2026-05-04T12:12:38.121Z</time></trkpt><trkpt lat="45.66218" lon="11.6649143"><ele>59.0</ele><time>2026-05-04T12:12:40.12Z</time></trkpt><trkpt lat="45.6621136" lon="11.6648109"><ele>59.00000000000001</ele><time>2026-05-04T12:12:42.12Z</time></trkpt><trkpt lat="45.6620646" lon="11.6646304"><ele>59.00000000000001</ele><time>2026-05-04T12:12:44.12Z</time></trkpt><trkpt lat="45.6620479" lon="11.6645042"><ele>59.0</ele><time>2026-05-04T12:12:45.12Z</time></trkpt><trkpt lat="45.662039" lon="11.664354"><ele>59.0</ele><time>2026-05-04T12:12:46.121Z</time></trkpt><trkpt lat="45.6620349" lon="11.6641766"><ele>58.333333333333336</ele><time>2026-05-04T12:12:47.12Z</time></trkpt><trkpt lat="45.6620322" lon="11.6639628"><ele>57.66666666666667</ele><time>2026-05-04T12:12:48.12Z</time></trkpt><trkpt lat="45.6620283" lon="11.6637057"><ele>57.0</ele><time>2026-05-04T12:12:49.12Z</time></trkpt><trkpt lat="45.6620242" lon="11.6634238"><ele>56.66666666666667</ele><time>2026-05-04T12:12:50.12Z</time></trkpt><trkpt lat="45.6620177" lon="11.6631141"><ele>56.333333333333336</ele><time>2026-05-04T12:12:51.12Z</time></trkpt><trkpt lat="45.6620096" lon="11.6627963"><ele>56.0</ele><time>2026-05-04T12:12:52.12Z</time></trkpt><trkpt lat="45.6619974" lon="11.6624682"><ele>56.0</ele><time>2026-05-04T12:12:53.121Z</time></trkpt><trkpt lat="45.6619833" lon="11.6621299"><ele>56.0</ele><time>2026-05-04T12:12:54.121Z</time></trkpt><trkpt lat="45.6619677" lon="11.6617832"><ele>57.5</ele><time>2026-05-04T12:12:55.12Z</time></trkpt><trkpt lat="45.6619467" lon="11.6614246"><ele>59.0</ele><time>2026-05-04T12:12:56.121Z</time></trkpt><trkpt lat="45.6619255" lon="11.661049"><ele>59.0</ele><time>2026-05-04T12:12:57.12Z</time></trkpt><trkpt lat="45.6619053" lon="11.6606661"><ele>59.0</ele><time>2026-05-04T12:12:58.121Z</time></trkpt><trkpt lat="45.6618866" lon="11.6602776"><ele>58.5</ele><time>2026-05-04T12:12:59.121Z</time></trkpt><trkpt lat="45.6618686" lon="11.6599109"><ele>58.0</ele><time>2026-05-04T12:13:00.121Z</time></trkpt><trkpt lat="45.6618554" lon="11.6595654"><ele>58.5</ele><time>2026-05-04T12:13:01.12Z</time></trkpt><trkpt lat="45.6618447" lon="11.6592272"><ele>59.0</ele><time>2026-05-04T12:13:02.12Z</time></trkpt><trkpt lat="45.6618332" lon="11.6588909"><ele>59.0</ele><time>2026-05-04T12:13:03.12Z</time></trkpt><trkpt lat="45.6618205" lon="11.6585575"><ele>59.0</ele><time>2026-05-04T12:13:04.12Z</time></trkpt><trkpt lat="45.6618084" lon="11.6582314"><ele>59.0</ele><time>2026-05-04T12:13:05.12Z</time></trkpt><trkpt lat="45.6617955" lon="11.657899"><ele>59.0</ele><time>2026-05-04T12:13:06.121Z</time></trkpt><trkpt lat="45.6617782" lon="11.6575668"><ele>59.0</ele><time>2026-05-04T12:13:07.121Z</time></trkpt><trkpt lat="45.6617603" lon="11.657225"><ele>59.0</ele><time>2026-05-04T12:13:08.121Z</time></trkpt><trkpt lat="45.6617418" lon="11.6568776"><ele>59.0</ele><time>2026-05-04T12:13:09.121Z</time></trkpt><trkpt lat="45.6617276" lon="11.6565288"><ele>59.0</ele><time>2026-05-04T12:13:10.121Z</time></trkpt><trkpt lat="45.6617104" lon="11.6561772"><ele>59.0</ele><time>2026-05-04T12:13:11.121Z</time></trkpt><trkpt lat="45.6616935" lon="11.6558265"><ele>59.0</ele><time>2026-05-04T12:13:12.12Z</time></trkpt><trkpt lat="45.6616795" lon="11.6554929"><ele>59.0</ele><time>2026-05-04T12:13:13.12Z</time></trkpt><trkpt lat="45.6616668" lon="11.6551861"><ele>59.0</ele><time>2026-05-04T12:13:14.12Z</time></trkpt><trkpt lat="45.6616536" lon="11.6548855"><ele>59.0</ele><time>2026-05-04T12:13:15.12Z</time></trkpt><trkpt lat="45.6616411" lon="11.6545883"><ele>58.333333333333336</ele><time>2026-05-04T12:13:16.12Z</time></trkpt><trkpt lat="45.6616296" lon="11.6542905"><ele>57.66666666666667</ele><time>2026-05-04T12:13:17.12Z</time></trkpt><trkpt lat="45.6616172" lon="11.6539916"><ele>57.0</ele><time>2026-05-04T12:13:18.121Z</time></trkpt><trkpt lat="45.6616048" lon="11.6536789"><ele>57.0</ele><time>2026-05-04T12:13:19.12Z</time></trkpt><trkpt lat="45.6615902" lon="11.6533577"><ele>57.0</ele><time>2026-05-04T12:13:20.121Z</time></trkpt><trkpt lat="45.6615715" lon="11.653035"><ele>57.66666666666667</ele><time>2026-05-04T12:13:21.12Z</time></trkpt><trkpt lat="45.6615596" lon="11.6527261"><ele>58.333333333333336</ele><time>2026-05-04T12:13:22.121Z</time></trkpt><trkpt lat="45.6615461" lon="11.6524335"><ele>59.0</ele><time>2026-05-04T12:13:23.12Z</time></trkpt><trkpt lat="45.6615333" lon="11.6521544"><ele>59.0</ele><time>2026-05-04T12:13:24.121Z</time></trkpt><trkpt lat="45.6615206" lon="11.6518775"><ele>59.0</ele><time>2026-05-04T12:13:25.12Z</time></trkpt><trkpt lat="45.6615081" lon="11.6516152"><ele>59.0</ele><time>2026-05-04T12:13:26.121Z</time></trkpt><trkpt lat="45.6614933" lon="11.6513641"><ele>59.0</ele><time>2026-05-04T12:13:27.12Z</time></trkpt><trkpt lat="45.6614833" lon="11.6511261"><ele>59.0</ele><time>2026-05-04T12:13:28.12Z</time></trkpt><trkpt lat="45.6614719" lon="11.6509103"><ele>59.0</ele><time>2026-05-04T12:13:29.12Z</time></trkpt><trkpt lat="45.6614663" lon="11.6507274"><ele>59.0</ele><time>2026-05-04T12:13:30.12Z</time></trkpt><trkpt lat="45.6614598" lon="11.650576"><ele>59.00000000000001</ele><time>2026-05-04T12:13:31.12Z</time></trkpt><trkpt lat="45.66146" lon="11.6504511"><ele>59.0</ele><time>2026-05-04T12:13:32.12Z</time></trkpt><trkpt lat="45.6614551" lon="11.6503593"><ele>59.0</ele><time>2026-05-04T12:13:33.121Z</time></trkpt><trkpt lat="45.6614151" lon="11.6502703"><ele>59.0</ele><time>2026-05-04T12:13:35.121Z</time></trkpt><trkpt lat="45.6613374" lon="11.6502496"><ele>59.00000000000001</ele><time>2026-05-04T12:13:37.121Z</time></trkpt><trkpt lat="45.6612035" lon="11.6502505"><ele>59.0</ele><time>2026-05-04T12:13:39.121Z</time></trkpt><trkpt lat="45.6611208" lon="11.6502575"><ele>58.400000000000006</ele><time>2026-05-04T12:13:40.121Z</time></trkpt><trkpt lat="45.6610267" lon="11.650262"><ele>57.800000000000004</ele><time>2026-05-04T12:13:41.121Z</time></trkpt><trkpt lat="45.6609245" lon="11.6502669"><ele>57.199999999999996</ele><time>2026-05-04T12:13:42.12Z</time></trkpt><trkpt lat="45.6608172" lon="11.6502682"><ele>56.599999999999994</ele><time>2026-05-04T12:13:43.121Z</time></trkpt><trkpt lat="45.6607084" lon="11.650274"><ele>56.0</ele><time>2026-05-04T12:13:44.121Z</time></trkpt><trkpt lat="45.6605998" lon="11.6502857"><ele>56.0</ele><time>2026-05-04T12:13:45.121Z</time></trkpt><trkpt lat="45.6604888" lon="11.6502882"><ele>56.0</ele><time>2026-05-04T12:13:46.12Z</time></trkpt><trkpt lat="45.6603727" lon="11.6502949"><ele>56.0</ele><time>2026-05-04T12:13:47.121Z</time></trkpt><trkpt lat="45.6602595" lon="11.6502964"><ele>56.0</ele><time>2026-05-04T12:13:48.12Z</time></trkpt><trkpt lat="45.6601397" lon="11.6503066"><ele>56.0</ele><time>2026-05-04T12:13:49.12Z</time></trkpt><trkpt lat="45.6600274" lon="11.6503152"><ele>56.0</ele><time>2026-05-04T12:13:50.121Z</time></trkpt><trkpt lat="45.6599145" lon="11.6503241"><ele>56.0</ele><time>2026-05-04T12:13:51.12Z</time></trkpt><trkpt lat="45.6597988" lon="11.6503238"><ele>56.0</ele><time>2026-05-04T12:13:52.12Z</time></trkpt><trkpt lat="45.6596815" lon="11.6503284"><ele>56.0</ele><time>2026-05-04T12:13:53.12Z</time></trkpt><trkpt lat="45.6595695" lon="11.6503331"><ele>55.99999999999999</ele><time>2026-05-04T12:13:54.12Z</time></trkpt><trkpt lat="45.6594621" lon="11.6503461"><ele>55.99999999999999</ele><time>2026-05-04T12:13:55.12Z</time></trkpt><trkpt lat="45.6593505" lon="11.6503611"><ele>56.0</ele><time>2026-05-04T12:13:56.121Z</time></trkpt><trkpt lat="45.6592404" lon="11.6503628"><ele>56.0</ele><time>2026-05-04T12:13:57.12Z</time></trkpt><trkpt lat="45.6591227" lon="11.6503697"><ele>55.5</ele><time>2026-05-04T12:13:58.121Z</time></trkpt><trkpt lat="45.6590006" lon="11.6503773"><ele>55.0</ele><time>2026-05-04T12:13:59.121Z</time></trkpt><trkpt lat="45.6588759" lon="11.6503847"><ele>54.5</ele><time>2026-05-04T12:14:00.121Z</time></trkpt><trkpt lat="45.6587563" lon="11.6503926"><ele>54.0</ele><time>2026-05-04T12:14:01.12Z</time></trkpt><trkpt lat="45.6586462" lon="11.6504044"><ele>54.2</ele><time>2026-05-04T12:14:02.121Z</time></trkpt><trkpt lat="45.6585413" lon="11.6504183"><ele>54.400000000000006</ele><time>2026-05-04T12:14:03.121Z</time></trkpt><trkpt lat="45.658434" lon="11.6504373"><ele>54.6</ele><time>2026-05-04T12:14:04.12Z</time></trkpt><trkpt lat="45.6583256" lon="11.6504477"><ele>54.8</ele><time>2026-05-04T12:14:05.12Z</time></trkpt><trkpt lat="45.6582143" lon="11.6504575"><ele>55.0</ele><time>2026-05-04T12:14:06.121Z</time></trkpt><trkpt lat="45.6581137" lon="11.6504651"><ele>55.0</ele><time>2026-05-04T12:14:07.121Z</time></trkpt><trkpt lat="45.6580132" lon="11.6504685"><ele>55.0</ele><time>2026-05-04T12:14:08.12Z</time></trkpt><trkpt lat="45.6579136" lon="11.6504668"><ele>55.0</ele><time>2026-05-04T12:14:09.121Z</time></trkpt><trkpt lat="45.6578213" lon="11.650466"><ele>55.0</ele><time>2026-05-04T12:14:10.12Z</time></trkpt><trkpt lat="45.6577239" lon="11.6504813"><ele>55.0</ele><time>2026-05-04T12:14:11.12Z</time></trkpt><trkpt lat="45.6576287" lon="11.6504871"><ele>55.2</ele><time>2026-05-04T12:14:12.12Z</time></trkpt><trkpt lat="45.6575296" lon="11.650491"><ele>55.4</ele><time>2026-05-04T12:14:13.12Z</time></trkpt><trkpt lat="45.657427" lon="11.6505023"><ele>55.599999999999994</ele><time>2026-05-04T12:14:14.121Z</time></trkpt><trkpt lat="45.6573245" lon="11.6505153"><ele>55.8</ele><time>2026-05-04T12:14:15.12Z</time></trkpt><trkpt lat="45.6572314" lon="11.6505261"><ele>56.0</ele><time>2026-05-04T12:14:16.12Z</time></trkpt><trkpt lat="45.657146" lon="11.6505329"><ele>56.0</ele><time>2026-05-04T12:14:17.12Z</time></trkpt><trkpt lat="45.657057" lon="11.6505329"><ele>55.99999999999999</ele><time>2026-05-04T12:14:18.121Z</time></trkpt><trkpt lat="45.6569581" lon="11.6505433"><ele>55.99999999999999</ele><time>2026-05-04T12:14:19.12Z</time></trkpt><trkpt lat="45.6568617" lon="11.650551"><ele>56.0</ele><time>2026-05-04T12:14:20.121Z</time></trkpt><trkpt lat="45.6567683" lon="11.650557"><ele>56.0</ele><time>2026-05-04T12:14:21.12Z</time></trkpt><trkpt lat="45.6566781" lon="11.6505578"><ele>55.8</ele><time>2026-05-04T12:14:22.12Z</time></trkpt><trkpt lat="45.6565748" lon="11.6505628"><ele>55.599999999999994</ele><time>2026-05-04T12:14:23.12Z</time></trkpt><trkpt lat="45.6564724" lon="11.6505671"><ele>55.4</ele><time>2026-05-04T12:14:24.12Z</time></trkpt><trkpt lat="45.6563671" lon="11.6505783"><ele>55.2</ele><time>2026-05-04T12:14:25.12Z</time></trkpt><trkpt lat="45.6562665" lon="11.650589"><ele>55.0</ele><time>2026-05-04T12:14:26.121Z</time></trkpt><trkpt lat="45.6561648" lon="11.6505925"><ele>55.0</ele><time>2026-05-04T12:14:27.121Z</time></trkpt><trkpt lat="45.6560722" lon="11.6505982"><ele>55.0</ele><time>2026-05-04T12:14:28.12Z</time></trkpt><trkpt lat="45.655974" lon="11.6506065"><ele>55.0</ele><time>2026-05-04T12:14:29.12Z</time></trkpt><trkpt lat="45.6558832" lon="11.650618"><ele>55.0</ele><time>2026-05-04T12:14:30.12Z</time></trkpt><trkpt lat="45.6557883" lon="11.6506192"><ele>55.0</ele><time>2026-05-04T12:14:31.12Z</time></trkpt><trkpt lat="45.6556811" lon="11.65062"><ele>55.0</ele><time>2026-05-04T12:14:32.12Z</time></trkpt><trkpt lat="45.6555684" lon="11.650624"><ele>55.0</ele><time>2026-05-04T12:14:33.12Z</time></trkpt><trkpt lat="45.6554568" lon="11.6506296"><ele>55.0</ele><time>2026-05-04T12:14:34.12Z</time></trkpt><trkpt lat="45.6553426" lon="11.6506372"><ele>55.0</ele><time>2026-05-04T12:14:35.121Z</time></trkpt><trkpt lat="45.6552331" lon="11.6506477"><ele>55.0</ele><time>2026-05-04T12:14:36.12Z</time></trkpt><trkpt lat="45.6551316" lon="11.6506556"><ele>54.666666666666664</ele><time>2026-05-04T12:14:37.121Z</time></trkpt><trkpt lat="45.6550426" lon="11.6506633"><ele>54.33333333333333</ele><time>2026-05-04T12:14:38.121Z</time></trkpt><trkpt lat="45.6549648" lon="11.6506674"><ele>54.0</ele><time>2026-05-04T12:14:39.121Z</time></trkpt><trkpt lat="45.6549007" lon="11.6506726"><ele>53.66666666666667</ele><time>2026-05-04T12:14:40.12Z</time></trkpt><trkpt lat="45.6548007" lon="11.6506777"><ele>53.333333333333336</ele><time>2026-05-04T12:14:42.12Z</time></trkpt><trkpt lat="45.6547107" lon="11.6506855"><ele>53.0</ele><time>2026-05-04T12:14:44.12Z</time></trkpt><trkpt lat="45.6546003" lon="11.6506972"><ele>53.00000000000001</ele><time>2026-05-04T12:14:46.121Z</time></trkpt><trkpt lat="45.6545361" lon="11.6506997"><ele>53.0</ele><time>2026-05-04T12:14:47.12Z</time></trkpt><trkpt lat="45.6544593" lon="11.6507043"><ele>53.0</ele><time>2026-05-04T12:14:48.121Z</time></trkpt><trkpt lat="45.6543738" lon="11.6507138"><ele>53.0</ele><time>2026-05-04T12:14:49.12Z</time></trkpt><trkpt lat="45.6542849" lon="11.6507193"><ele>53.00000000000001</ele><time>2026-05-04T12:14:50.12Z</time></trkpt><trkpt lat="45.6541898" lon="11.650729"><ele>53.0</ele><time>2026-05-04T12:14:51.121Z</time></trkpt><trkpt lat="45.6540885" lon="11.6507391"><ele>53.2</ele><time>2026-05-04T12:14:52.121Z</time></trkpt><trkpt lat="45.6539801" lon="11.6507462"><ele>53.4</ele><time>2026-05-04T12:14:53.121Z</time></trkpt><trkpt lat="45.653874" lon="11.6507559"><ele>53.60000000000001</ele><time>2026-05-04T12:14:54.121Z</time></trkpt><trkpt lat="45.6537665" lon="11.650764"><ele>53.800000000000004</ele><time>2026-05-04T12:14:55.121Z</time></trkpt><trkpt lat="45.6536608" lon="11.6507695"><ele>54.0</ele><time>2026-05-04T12:14:56.121Z</time></trkpt><trkpt lat="45.6535597" lon="11.6507757"><ele>54.0</ele><time>2026-05-04T12:14:57.12Z</time></trkpt><trkpt lat="45.6534641" lon="11.6507794"><ele>54.0</ele><time>2026-05-04T12:14:58.121Z</time></trkpt><trkpt lat="45.6533757" lon="11.6507816"><ele>54.0</ele><time>2026-05-04T12:14:59.12Z</time></trkpt><trkpt lat="45.6532913" lon="11.6507841"><ele>54.0</ele><time>2026-05-04T12:15:00.121Z</time></trkpt><trkpt lat="45.6532205" lon="11.650791"><ele>54.0</ele><time>2026-05-04T12:15:01.12Z</time></trkpt><trkpt lat="45.6531429" lon="11.6507951"><ele>54.0</ele><time>2026-05-04T12:15:02.121Z</time></trkpt><trkpt lat="45.6530461" lon="11.6508044"><ele>54.0</ele><time>2026-05-04T12:15:03.12Z</time></trkpt><trkpt lat="45.652928" lon="11.6508134"><ele>54.0</ele><time>2026-05-04T12:15:04.121Z</time></trkpt><trkpt lat="45.6528025" lon="11.6508166"><ele>54.0</ele><time>2026-05-04T12:15:05.12Z</time></trkpt><trkpt lat="45.6526798" lon="11.6508251"><ele>54.0</ele><time>2026-05-04T12:15:06.121Z</time></trkpt><trkpt lat="45.6525627" lon="11.6508368"><ele>54.400000000000006</ele><time>2026-05-04T12:15:07.12Z</time></trkpt><trkpt lat="45.6524473" lon="11.650852"><ele>54.800000000000004</ele><time>2026-05-04T12:15:08.12Z</time></trkpt><trkpt lat="45.652344" lon="11.6508604"><ele>55.199999999999996</ele><time>2026-05-04T12:15:09.12Z</time></trkpt><trkpt lat="45.6522453" lon="11.6508739"><ele>55.599999999999994</ele><time>2026-05-04T12:15:10.12Z</time></trkpt><trkpt lat="45.652153" lon="11.650882"><ele>56.0</ele><time>2026-05-04T12:15:11.121Z</time></trkpt><trkpt lat="45.6520726" lon="11.6508842"><ele>56.00000000000001</ele><time>2026-05-04T12:15:12.12Z</time></trkpt><trkpt lat="45.6519827" lon="11.6508881"><ele>56.0</ele><time>2026-05-04T12:15:13.12Z</time></trkpt><trkpt lat="45.651892" lon="11.6508979"><ele>56.0</ele><time>2026-05-04T12:15:14.12Z</time></trkpt><trkpt lat="45.6518067" lon="11.650903"><ele>56.0</ele><time>2026-05-04T12:15:15.12Z</time></trkpt><trkpt lat="45.6517375" lon="11.6509076"><ele>56.00000000000001</ele><time>2026-05-04T12:15:16.121Z</time></trkpt><trkpt lat="45.6516661" lon="11.6509087"><ele>56.0</ele><time>2026-05-04T12:15:17.121Z</time></trkpt><trkpt lat="45.6515487" lon="11.6509116"><ele>55.8</ele><time>2026-05-04T12:15:19.12Z</time></trkpt><trkpt lat="45.6514482" lon="11.6509218"><ele>55.599999999999994</ele><time>2026-05-04T12:15:21.12Z</time></trkpt><trkpt lat="45.6513425" lon="11.6509296"><ele>55.4</ele><time>2026-05-04T12:15:23.12Z</time></trkpt><trkpt lat="45.6512516" lon="11.6509404"><ele>55.2</ele><time>2026-05-04T12:15:25.12Z</time></trkpt><trkpt lat="45.651197" lon="11.6508853"><ele>55.0</ele><time>2026-05-04T12:15:27.12Z</time></trkpt><trkpt lat="45.651201" lon="11.6507133"><ele>55.0</ele><time>2026-05-04T12:15:29.12Z</time></trkpt><trkpt lat="45.6512114" lon="11.6505839"><ele>55.0</ele><time>2026-05-04T12:15:30.12Z</time></trkpt><trkpt lat="45.6512156" lon="11.6504341"><ele>55.0</ele><time>2026-05-04T12:15:31.121Z</time></trkpt><trkpt lat="45.6512068" lon="11.6502568"><ele>55.0</ele><time>2026-05-04T12:15:32.121Z</time></trkpt><trkpt lat="45.6511871" lon="11.6500633"><ele>55.33333333333333</ele><time>2026-05-04T12:15:33.12Z</time></trkpt><trkpt lat="45.6511579" lon="11.6498586"><ele>55.66666666666667</ele><time>2026-05-04T12:15:34.121Z</time></trkpt><trkpt lat="45.6511123" lon="11.6496442"><ele>56.0</ele><time>2026-05-04T12:15:35.121Z</time></trkpt><trkpt lat="45.6510478" lon="11.6494248"><ele>55.0</ele><time>2026-05-04T12:15:36.12Z</time></trkpt><trkpt lat="45.6509701" lon="11.6492001"><ele>54.0</ele><time>2026-05-04T12:15:37.12Z</time></trkpt><trkpt lat="45.6508758" lon="11.6489722"><ele>53.0</ele><time>2026-05-04T12:15:38.12Z</time></trkpt><trkpt lat="45.650772" lon="11.6487401"><ele>53.0</ele><time>2026-05-04T12:15:39.12Z</time></trkpt><trkpt lat="45.6506676" lon="11.648508"><ele>53.0</ele><time>2026-05-04T12:15:40.121Z</time></trkpt><trkpt lat="45.6505857" lon="11.6483222"><ele>53.0</ele><time>2026-05-04T12:15:41.121Z</time></trkpt><trkpt lat="45.6505283" lon="11.6481785"><ele>53.0</ele><time>2026-05-04T12:15:42.121Z</time></trkpt><trkpt lat="45.6504849" lon="11.6480898"><ele>53.0</ele><time>2026-05-04T12:15:43.12Z</time></trkpt><trkpt lat="45.6504257" lon="11.6480342"><ele>53.0</ele><time>2026-05-04T12:15:46.121Z</time></trkpt><trkpt lat="45.6503954" lon="11.6481319"><ele>53.0</ele><time>2026-05-04T12:15:50.121Z</time></trkpt><trkpt lat="45.6503288" lon="11.6481797"><ele>53.0</ele><time>2026-05-04T12:15:52.121Z</time></trkpt><trkpt lat="45.6502611" lon="11.648176"><ele>53.0</ele><time>2026-05-04T12:15:53.121Z</time></trkpt><trkpt lat="45.6501839" lon="11.6481631"><ele>53.0</ele><time>2026-05-04T12:15:54.12Z</time></trkpt><trkpt lat="45.6501093" lon="11.6481484"><ele>53.4</ele><time>2026-05-04T12:15:55.121Z</time></trkpt><trkpt lat="45.6500382" lon="11.6481379"><ele>53.8</ele><time>2026-05-04T12:15:56.12Z</time></trkpt><trkpt lat="45.649973" lon="11.6481322"><ele>54.2</ele><time>2026-05-04T12:15:57.121Z</time></trkpt><trkpt lat="45.6499084" lon="11.6481303"><ele>54.6</ele><time>2026-05-04T12:15:58.121Z</time></trkpt><trkpt lat="45.6497683" lon="11.6481289"><ele>55.0</ele><time>2026-05-04T12:16:00.12Z</time></trkpt><trkpt lat="45.6496466" lon="11.648133"><ele>54.99999999999999</ele><time>2026-05-04T12:16:02.12Z</time></trkpt><trkpt lat="45.6495786" lon="11.6481304"><ele>55.0</ele><time>2026-05-04T12:16:03.12Z</time></trkpt><trkpt lat="45.6495029" lon="11.6481198"><ele>55.0</ele><time>2026-05-04T12:16:04.12Z</time></trkpt><trkpt lat="45.6494081" lon="11.6481034"><ele>55.0</ele><time>2026-05-04T12:16:05.12Z</time></trkpt><trkpt lat="45.6493153" lon="11.6480866"><ele>54.99999999999999</ele><time>2026-05-04T12:16:06.12Z</time></trkpt><trkpt lat="45.649203" lon="11.6480765"><ele>55.0</ele><time>2026-05-04T12:16:07.12Z</time></trkpt><trkpt lat="45.6490989" lon="11.6480632"><ele>54.4</ele><time>2026-05-04T12:16:08.12Z</time></trkpt><trkpt lat="45.6489916" lon="11.6480509"><ele>53.8</ele><time>2026-05-04T12:16:09.121Z</time></trkpt><trkpt lat="45.6488829" lon="11.6480342"><ele>53.2</ele><time>2026-05-04T12:16:10.12Z</time></trkpt><trkpt lat="45.6487726" lon="11.6480126"><ele>52.6</ele><time>2026-05-04T12:16:11.12Z</time></trkpt><trkpt lat="45.6486546" lon="11.6479982"><ele>52.0</ele><time>2026-05-04T12:16:12.12Z</time></trkpt><trkpt lat="45.6485343" lon="11.6479847"><ele>51.5</ele><time>2026-05-04T12:16:13.12Z</time></trkpt><trkpt lat="45.6484104" lon="11.6479686"><ele>51.0</ele><time>2026-05-04T12:16:14.12Z</time></trkpt><trkpt lat="45.648282" lon="11.6479513"><ele>50.5</ele><time>2026-05-04T12:16:15.12Z</time></trkpt><trkpt lat="45.6481553" lon="11.64794"><ele>50.0</ele><time>2026-05-04T12:16:16.12Z</time></trkpt><trkpt lat="45.6480274" lon="11.6479264"><ele>50.0</ele><time>2026-05-04T12:16:17.12Z</time></trkpt><trkpt lat="45.6479008" lon="11.6479159"><ele>50.0</ele><time>2026-05-04T12:16:18.12Z</time></trkpt><trkpt lat="45.6477757" lon="11.6479039"><ele>50.0</ele><time>2026-05-04T12:16:19.121Z</time></trkpt><trkpt lat="45.6476488" lon="11.6478918"><ele>50.0</ele><time>2026-05-04T12:16:20.12Z</time></trkpt><trkpt lat="45.6475163" lon="11.6478832"><ele>50.0</ele><time>2026-05-04T12:16:21.12Z</time></trkpt><trkpt lat="45.6473839" lon="11.6478703"><ele>50.0</ele><time>2026-05-04T12:16:22.121Z</time></trkpt><trkpt lat="45.6472528" lon="11.6478588"><ele>50.0</ele><time>2026-05-04T12:16:23.121Z</time></trkpt><trkpt lat="45.6471198" lon="11.6478459"><ele>50.0</ele><time>2026-05-04T12:16:24.12Z</time></trkpt><trkpt lat="45.6469902" lon="11.6478218"><ele>50.0</ele><time>2026-05-04T12:16:25.121Z</time></trkpt><trkpt lat="45.6468587" lon="11.6478047"><ele>50.0</ele><time>2026-05-04T12:16:26.12Z</time></trkpt><trkpt lat="45.646733" lon="11.647777"><ele>50.0</ele><time>2026-05-04T12:16:27.12Z</time></trkpt><trkpt lat="45.646607" lon="11.6477501"><ele>50.0</ele><time>2026-05-04T12:16:28.121Z</time></trkpt><trkpt lat="45.6464807" lon="11.6477303"><ele>50.0</ele><time>2026-05-04T12:16:29.121Z</time></trkpt><trkpt lat="45.6463605" lon="11.6477152"><ele>50.0</ele><time>2026-05-04T12:16:30.12Z</time></trkpt><trkpt lat="45.6462422" lon="11.6477001"><ele>50.0</ele><time>2026-05-04T12:16:31.12Z</time></trkpt><trkpt lat="45.6461215" lon="11.6476856"><ele>50.0</ele><time>2026-05-04T12:16:32.12Z</time></trkpt><trkpt lat="45.6459988" lon="11.6476709"><ele>50.25</ele><time>2026-05-04T12:16:33.12Z</time></trkpt><trkpt lat="45.6458722" lon="11.6476607"><ele>50.5</ele><time>2026-05-04T12:16:34.12Z</time></trkpt><trkpt lat="45.645746" lon="11.6476443"><ele>50.75</ele><time>2026-05-04T12:16:35.121Z</time></trkpt><trkpt lat="45.6456226" lon="11.6476341"><ele>51.0</ele><time>2026-05-04T12:16:36.12Z</time></trkpt><trkpt lat="45.6454997" lon="11.6476225"><ele>51.0</ele><time>2026-05-04T12:16:37.12Z</time></trkpt><trkpt lat="45.6453815" lon="11.6476132"><ele>51.0</ele><time>2026-05-04T12:16:38.12Z</time></trkpt><trkpt lat="45.6452632" lon="11.647599"><ele>51.0</ele><time>2026-05-04T12:16:39.121Z</time></trkpt><trkpt lat="45.6451413" lon="11.6475835"><ele>51.0</ele><time>2026-05-04T12:16:40.12Z</time></trkpt><trkpt lat="45.6450151" lon="11.6475707"><ele>50.75</ele><time>2026-05-04T12:16:41.12Z</time></trkpt><trkpt lat="45.6448892" lon="11.6475541"><ele>50.5</ele><time>2026-05-04T12:16:42.12Z</time></trkpt><trkpt lat="45.6447658" lon="11.6475363"><ele>50.25</ele><time>2026-05-04T12:16:43.12Z</time></trkpt><trkpt lat="45.6446405" lon="11.647525"><ele>50.0</ele><time>2026-05-04T12:16:44.12Z</time></trkpt><trkpt lat="45.6445159" lon="11.6475036"><ele>50.0</ele><time>2026-05-04T12:16:45.121Z</time></trkpt><trkpt lat="45.6443879" lon="11.6474846"><ele>50.0</ele><time>2026-05-04T12:16:46.12Z</time></trkpt><trkpt lat="45.6442613" lon="11.6474622"><ele>50.0</ele><time>2026-05-04T12:16:47.12Z</time></trkpt><trkpt lat="45.6441294" lon="11.6474411"><ele>50.0</ele><time>2026-05-04T12:16:48.12Z</time></trkpt><trkpt lat="45.6439901" lon="11.6474209"><ele>50.0</ele><time>2026-05-04T12:16:49.12Z</time></trkpt><trkpt lat="45.6438515" lon="11.6474043"><ele>50.0</ele><time>2026-05-04T12:16:50.12Z</time></trkpt><trkpt lat="45.6437247" lon="11.6473917"><ele>50.0</ele><time>2026-05-04T12:16:51.121Z</time></trkpt><trkpt lat="45.6436078" lon="11.6473817"><ele>50.0</ele><time>2026-05-04T12:16:52.12Z</time></trkpt><trkpt lat="45.6434983" lon="11.6473695"><ele>49.75</ele><time>2026-05-04T12:16:53.12Z</time></trkpt><trkpt lat="45.6433882" lon="11.6473594"><ele>49.5</ele><time>2026-05-04T12:16:54.121Z</time></trkpt><trkpt lat="45.6432745" lon="11.6473448"><ele>49.25</ele><time>2026-05-04T12:16:55.121Z</time></trkpt><trkpt lat="45.6431587" lon="11.6473307"><ele>49.0</ele><time>2026-05-04T12:16:56.12Z</time></trkpt><trkpt lat="45.6430429" lon="11.6473156"><ele>49.0</ele><time>2026-05-04T12:16:57.121Z</time></trkpt><trkpt lat="45.6429275" lon="11.6472987"><ele>49.0</ele><time>2026-05-04T12:16:58.12Z</time></trkpt><trkpt lat="45.6428095" lon="11.647286"><ele>49.0</ele><time>2026-05-04T12:16:59.121Z</time></trkpt><trkpt lat="45.6426871" lon="11.6472706"><ele>49.0</ele><time>2026-05-04T12:17:00.12Z</time></trkpt><trkpt lat="45.6425611" lon="11.6472527"><ele>49.25</ele><time>2026-05-04T12:17:01.12Z</time></trkpt><trkpt lat="45.6424328" lon="11.6472327"><ele>49.5</ele><time>2026-05-04T12:17:02.121Z</time></trkpt><trkpt lat="45.6423011" lon="11.647217"><ele>49.75</ele><time>2026-05-04T12:17:03.121Z</time></trkpt><trkpt lat="45.6421702" lon="11.6472007"><ele>50.0</ele><time>2026-05-04T12:17:04.12Z</time></trkpt><trkpt lat="45.6420385" lon="11.6471832"><ele>49.75</ele><time>2026-05-04T12:17:05.121Z</time></trkpt><trkpt lat="45.6419059" lon="11.6471651"><ele>49.5</ele><time>2026-05-04T12:17:06.121Z</time></trkpt><trkpt lat="45.6417811" lon="11.6471528"><ele>49.25</ele><time>2026-05-04T12:17:07.121Z</time></trkpt><trkpt lat="45.6416621" lon="11.6471404"><ele>49.0</ele><time>2026-05-04T12:17:08.12Z</time></trkpt><trkpt lat="45.6415451" lon="11.647125"><ele>49.0</ele><time>2026-05-04T12:17:09.121Z</time></trkpt><trkpt lat="45.6414329" lon="11.6471076"><ele>49.0</ele><time>2026-05-04T12:17:10.12Z</time></trkpt><trkpt lat="45.6413233" lon="11.6470931"><ele>49.0</ele><time>2026-05-04T12:17:11.12Z</time></trkpt><trkpt lat="45.6412185" lon="11.6470865"><ele>49.0</ele><time>2026-05-04T12:17:12.121Z</time></trkpt><trkpt lat="45.6411214" lon="11.6470715"><ele>49.0</ele><time>2026-05-04T12:17:13.12Z</time></trkpt><trkpt lat="45.6410225" lon="11.6470604"><ele>48.83333333333333</ele><time>2026-05-04T12:17:14.12Z</time></trkpt><trkpt lat="45.6409328" lon="11.6470513"><ele>48.666666666666664</ele><time>2026-05-04T12:17:15.12Z</time></trkpt><trkpt lat="45.6408491" lon="11.6470411"><ele>48.5</ele><time>2026-05-04T12:17:16.12Z</time></trkpt><trkpt lat="45.6407657" lon="11.6470315"><ele>48.33333333333333</ele><time>2026-05-04T12:17:17.121Z</time></trkpt><trkpt lat="45.6406754" lon="11.6470219"><ele>48.166666666666664</ele><time>2026-05-04T12:17:18.121Z</time></trkpt><trkpt lat="45.6405805" lon="11.6470138"><ele>48.0</ele><time>2026-05-04T12:17:19.12Z</time></trkpt><trkpt lat="45.6404776" lon="11.646999"><ele>48.0</ele><time>2026-05-04T12:17:20.121Z</time></trkpt><trkpt lat="45.6403688" lon="11.6469849"><ele>48.0</ele><time>2026-05-04T12:17:21.121Z</time></trkpt><trkpt lat="45.6402565" lon="11.6469729"><ele>48.0</ele><time>2026-05-04T12:17:22.12Z</time></trkpt><trkpt lat="45.6401413" lon="11.6469556"><ele>48.0</ele><time>2026-05-04T12:17:23.12Z</time></trkpt><trkpt lat="45.6400302" lon="11.6469394"><ele>48.0</ele><time>2026-05-04T12:17:24.121Z</time></trkpt><trkpt lat="45.639919" lon="11.646924"><ele>48.5</ele><time>2026-05-04T12:17:25.12Z</time></trkpt><trkpt lat="45.6398116" lon="11.6469104"><ele>49.0</ele><time>2026-05-04T12:17:26.12Z</time></trkpt><trkpt lat="45.639697" lon="11.6468956"><ele>49.5</ele><time>2026-05-04T12:17:27.12Z</time></trkpt><trkpt lat="45.6395792" lon="11.6468807"><ele>50.0</ele><time>2026-05-04T12:17:28.12Z</time></trkpt><trkpt lat="45.6394579" lon="11.6468686"><ele>50.0</ele><time>2026-05-04T12:17:29.121Z</time></trkpt><trkpt lat="45.6393362" lon="11.6468577"><ele>50.0</ele><time>2026-05-04T12:17:30.12Z</time></trkpt><trkpt lat="45.6392197" lon="11.6468456"><ele>50.0</ele><time>2026-05-04T12:17:31.121Z</time></trkpt><trkpt lat="45.6391033" lon="11.6468322"><ele>50.0</ele><time>2026-05-04T12:17:32.12Z</time></trkpt><trkpt lat="45.6389875" lon="11.6468219"><ele>50.0</ele><time>2026-05-04T12:17:33.12Z</time></trkpt><trkpt lat="45.6388776" lon="11.6468098"><ele>50.0</ele><time>2026-05-04T12:17:34.121Z</time></trkpt><trkpt lat="45.6387644" lon="11.6467981"><ele>50.0</ele><time>2026-05-04T12:17:35.12Z</time></trkpt><trkpt lat="45.6386526" lon="11.6467848"><ele>50.0</ele><time>2026-05-04T12:17:36.12Z</time></trkpt><trkpt lat="45.6385431" lon="11.6467681"><ele>50.0</ele><time>2026-05-04T12:17:37.12Z</time></trkpt><trkpt lat="45.6384299" lon="11.646752"><ele>49.5</ele><time>2026-05-04T12:17:38.12Z</time></trkpt><trkpt lat="45.6383111" lon="11.6467374"><ele>49.0</ele><time>2026-05-04T12:17:39.121Z</time></trkpt><trkpt lat="45.6381982" lon="11.6467283"><ele>48.5</ele><time>2026-05-04T12:17:40.121Z</time></trkpt><trkpt lat="45.6380837" lon="11.6467149"><ele>48.0</ele><time>2026-05-04T12:17:41.12Z</time></trkpt><trkpt lat="45.6379737" lon="11.646699"><ele>48.0</ele><time>2026-05-04T12:17:42.12Z</time></trkpt><trkpt lat="45.6378713" lon="11.6466853"><ele>48.0</ele><time>2026-05-04T12:17:43.121Z</time></trkpt><trkpt lat="45.6377732" lon="11.6466714"><ele>48.0</ele><time>2026-05-04T12:17:44.12Z</time></trkpt><trkpt lat="45.637679" lon="11.64666"><ele>48.0</ele><time>2026-05-04T12:17:45.12Z</time></trkpt><trkpt lat="45.637588" lon="11.6466464"><ele>48.0</ele><time>2026-05-04T12:17:46.12Z</time></trkpt><trkpt lat="45.6374898" lon="11.6466379"><ele>48.2</ele><time>2026-05-04T12:17:47.12Z</time></trkpt><trkpt lat="45.6373959" lon="11.6466234"><ele>48.4</ele><time>2026-05-04T12:17:48.121Z</time></trkpt><trkpt lat="45.6373009" lon="11.6466075"><ele>48.6</ele><time>2026-05-04T12:17:49.12Z</time></trkpt><trkpt lat="45.6372001" lon="11.646594"><ele>48.800000000000004</ele><time>2026-05-04T12:17:50.121Z</time></trkpt><trkpt lat="45.6370821" lon="11.6465837"><ele>49.0</ele><time>2026-05-04T12:17:51.12Z</time></trkpt><trkpt lat="45.6369474" lon="11.6465704"><ele>48.25</ele><time>2026-05-04T12:17:52.12Z</time></trkpt><trkpt lat="45.6368071" lon="11.6465557"><ele>47.5</ele><time>2026-05-04T12:17:53.12Z</time></trkpt><trkpt lat="45.6366639" lon="11.6465365"><ele>46.75</ele><time>2026-05-04T12:17:54.121Z</time></trkpt><trkpt lat="45.6365214" lon="11.6465183"><ele>46.0</ele><time>2026-05-04T12:17:55.12Z</time></trkpt><trkpt lat="45.6363804" lon="11.6465"><ele>46.0</ele><time>2026-05-04T12:17:56.12Z</time></trkpt><trkpt lat="45.6362384" lon="11.6464851"><ele>46.0</ele><time>2026-05-04T12:17:57.12Z</time></trkpt><trkpt lat="45.6360985" lon="11.6464696"><ele>46.0</ele><time>2026-05-04T12:17:58.12Z</time></trkpt><trkpt lat="45.635964" lon="11.6464552"><ele>46.0</ele><time>2026-05-04T12:17:59.121Z</time></trkpt><trkpt lat="45.6358351" lon="11.6464394"><ele>46.25</ele><time>2026-05-04T12:18:00.12Z</time></trkpt><trkpt lat="45.6357053" lon="11.6464182"><ele>46.5</ele><time>2026-05-04T12:18:01.12Z</time></trkpt><trkpt lat="45.6355738" lon="11.6463983"><ele>46.75</ele><time>2026-05-04T12:18:02.12Z</time></trkpt><trkpt lat="45.6354405" lon="11.6463833"><ele>47.0</ele><time>2026-05-04T12:18:03.121Z</time></trkpt><trkpt lat="45.6353066" lon="11.6463649"><ele>46.75</ele><time>2026-05-04T12:18:04.121Z</time></trkpt><trkpt lat="45.63517" lon="11.6463505"><ele>46.5</ele><time>2026-05-04T12:18:05.12Z</time></trkpt><trkpt lat="45.6350431" lon="11.6463319"><ele>46.25</ele><time>2026-05-04T12:18:06.121Z</time></trkpt><trkpt lat="45.6349269" lon="11.6463152"><ele>46.0</ele><time>2026-05-04T12:18:07.121Z</time></trkpt><trkpt lat="45.6348166" lon="11.6463036"><ele>46.0</ele><time>2026-05-04T12:18:08.121Z</time></trkpt><trkpt lat="45.6347049" lon="11.6462887"><ele>46.0</ele><time>2026-05-04T12:18:09.12Z</time></trkpt><trkpt lat="45.6345827" lon="11.6462746"><ele>46.0</ele><time>2026-05-04T12:18:10.12Z</time></trkpt><trkpt lat="45.6344457" lon="11.6462559"><ele>46.0</ele><time>2026-05-04T12:18:11.121Z</time></trkpt><trkpt lat="45.6342962" lon="11.6462411"><ele>46.66666666666667</ele><time>2026-05-04T12:18:12.121Z</time></trkpt><trkpt lat="45.6341336" lon="11.6462194"><ele>47.333333333333336</ele><time>2026-05-04T12:18:13.12Z</time></trkpt><trkpt lat="45.6339604" lon="11.6461985"><ele>48.0</ele><time>2026-05-04T12:18:14.12Z</time></trkpt><trkpt lat="45.633788" lon="11.6461797"><ele>48.33333333333333</ele><time>2026-05-04T12:18:15.121Z</time></trkpt><trkpt lat="45.6336121" lon="11.6461567"><ele>48.666666666666664</ele><time>2026-05-04T12:18:16.12Z</time></trkpt><trkpt lat="45.633435" lon="11.6461364"><ele>49.0</ele><time>2026-05-04T12:18:17.12Z</time></trkpt><trkpt lat="45.6332592" lon="11.646115"><ele>48.5</ele><time>2026-05-04T12:18:18.121Z</time></trkpt><trkpt lat="45.6330954" lon="11.6460951"><ele>48.0</ele><time>2026-05-04T12:18:19.121Z</time></trkpt><trkpt lat="45.6329489" lon="11.6460825"><ele>47.5</ele><time>2026-05-04T12:18:20.121Z</time></trkpt><trkpt lat="45.6328246" lon="11.6460699"><ele>47.0</ele><time>2026-05-04T12:18:21.12Z</time></trkpt><trkpt lat="45.6327091" lon="11.6460542"><ele>47.0</ele><time>2026-05-04T12:18:22.12Z</time></trkpt><trkpt lat="45.6326044" lon="11.6460436"><ele>47.0</ele><time>2026-05-04T12:18:23.121Z</time></trkpt><trkpt lat="45.6325204" lon="11.6460355"><ele>47.0</ele><time>2026-05-04T12:18:24.121Z</time></trkpt><trkpt lat="45.6324541" lon="11.6460342"><ele>47.0</ele><time>2026-05-04T12:18:25.121Z</time></trkpt><trkpt lat="45.6323627" lon="11.6460236"><ele>47.0</ele><time>2026-05-04T12:18:27.121Z</time></trkpt><trkpt lat="45.6323031" lon="11.6459276"><ele>47.0</ele><time>2026-05-04T12:18:31.121Z</time></trkpt><trkpt lat="45.6323107" lon="11.6458021"><ele>47.0</ele><time>2026-05-04T12:18:33.121Z</time></trkpt><trkpt lat="45.6323165" lon="11.6456218"><ele>47.0</ele><time>2026-05-04T12:18:35.121Z</time></trkpt><trkpt lat="45.6323215" lon="11.6455231"><ele>47.0</ele><time>2026-05-04T12:18:36.121Z</time></trkpt><trkpt lat="45.6323292" lon="11.6454133"><ele>47.0</ele><time>2026-05-04T12:18:37.121Z</time></trkpt><trkpt lat="45.6323343" lon="11.6452962"><ele>47.0</ele><time>2026-05-04T12:18:38.12Z</time></trkpt><trkpt lat="45.6323398" lon="11.6451651"><ele>47.0</ele><time>2026-05-04T12:18:39.12Z</time></trkpt><trkpt lat="45.632346" lon="11.6450279"><ele>47.0</ele><time>2026-05-04T12:18:40.12Z</time></trkpt><trkpt lat="45.6323565" lon="11.6448779"><ele>47.0</ele><time>2026-05-04T12:18:41.12Z</time></trkpt><trkpt lat="45.6323651" lon="11.6447327"><ele>47.0</ele><time>2026-05-04T12:18:42.121Z</time></trkpt><trkpt lat="45.6323753" lon="11.6445869"><ele>47.0</ele><time>2026-05-04T12:18:43.12Z</time></trkpt><trkpt lat="45.6323844" lon="11.6444374"><ele>47.0</ele><time>2026-05-04T12:18:44.12Z</time></trkpt><trkpt lat="45.6323948" lon="11.6442797"><ele>47.0</ele><time>2026-05-04T12:18:45.12Z</time></trkpt><trkpt lat="45.6324045" lon="11.6441153"><ele>47.0</ele><time>2026-05-04T12:18:46.12Z</time></trkpt><trkpt lat="45.6324152" lon="11.6439383"><ele>47.0</ele><time>2026-05-04T12:18:47.12Z</time></trkpt><trkpt lat="45.6324264" lon="11.6437442"><ele>47.0</ele><time>2026-05-04T12:18:48.121Z</time></trkpt><trkpt lat="45.6324399" lon="11.6435288"><ele>47.0</ele><time>2026-05-04T12:18:49.12Z</time></trkpt><trkpt lat="45.6324552" lon="11.6432952"><ele>47.0</ele><time>2026-05-04T12:18:50.12Z</time></trkpt><trkpt lat="45.63247" lon="11.6430596"><ele>47.0</ele><time>2026-05-04T12:18:51.12Z</time></trkpt><trkpt lat="45.6324847" lon="11.642821"><ele>46.666666666666664</ele><time>2026-05-04T12:18:52.12Z</time></trkpt><trkpt lat="45.6325021" lon="11.6425795"><ele>46.333333333333336</ele><time>2026-05-04T12:18:53.12Z</time></trkpt><trkpt lat="45.6325221" lon="11.6423387"><ele>46.0</ele><time>2026-05-04T12:18:54.12Z</time></trkpt><trkpt lat="45.6325372" lon="11.6420934"><ele>46.66666666666667</ele><time>2026-05-04T12:18:55.121Z</time></trkpt><trkpt lat="45.6325465" lon="11.6418464"><ele>47.333333333333336</ele><time>2026-05-04T12:18:56.12Z</time></trkpt><trkpt lat="45.6325547" lon="11.6415965"><ele>48.0</ele><time>2026-05-04T12:18:57.121Z</time></trkpt><trkpt lat="45.6325627" lon="11.6413467"><ele>48.33333333333333</ele><time>2026-05-04T12:18:58.121Z</time></trkpt><trkpt lat="45.6325723" lon="11.6411095"><ele>48.666666666666664</ele><time>2026-05-04T12:18:59.12Z</time></trkpt><trkpt lat="45.6325837" lon="11.6408918"><ele>49.0</ele><time>2026-05-04T12:19:00.12Z</time></trkpt><trkpt lat="45.632595" lon="11.6406978"><ele>49.0</ele><time>2026-05-04T12:19:01.12Z</time></trkpt><trkpt lat="45.6326054" lon="11.6405184"><ele>49.0</ele><time>2026-05-04T12:19:02.121Z</time></trkpt><trkpt lat="45.6326146" lon="11.6403478"><ele>49.0</ele><time>2026-05-04T12:19:03.121Z</time></trkpt><trkpt lat="45.6326217" lon="11.6401873"><ele>49.0</ele><time>2026-05-04T12:19:04.12Z</time></trkpt><trkpt lat="45.6326296" lon="11.6400372"><ele>48.800000000000004</ele><time>2026-05-04T12:19:05.121Z</time></trkpt><trkpt lat="45.6326397" lon="11.6398942"><ele>48.6</ele><time>2026-05-04T12:19:06.12Z</time></trkpt><trkpt lat="45.6326479" lon="11.6397802"><ele>48.4</ele><time>2026-05-04T12:19:07.12Z</time></trkpt><trkpt lat="45.6326185" lon="11.6396609"><ele>48.2</ele><time>2026-05-04T12:19:09.121Z</time></trkpt><trkpt lat="45.6325294" lon="11.6396435"><ele>48.0</ele><time>2026-05-04T12:19:11.12Z</time></trkpt><trkpt lat="45.6324352" lon="11.6396512"><ele>48.0</ele><time>2026-05-04T12:19:12.121Z</time></trkpt><trkpt lat="45.6323282" lon="11.6396538"><ele>48.0</ele><time>2026-05-04T12:19:13.12Z</time></trkpt><trkpt lat="45.6322124" lon="11.6396583"><ele>48.0</ele><time>2026-05-04T12:19:14.12Z</time></trkpt><trkpt lat="45.6320861" lon="11.6396678"><ele>48.0</ele><time>2026-05-04T12:19:15.121Z</time></trkpt><trkpt lat="45.6319541" lon="11.6396814"><ele>47.5</ele><time>2026-05-04T12:19:16.12Z</time></trkpt><trkpt lat="45.6318204" lon="11.639693"><ele>47.0</ele><time>2026-05-04T12:19:17.121Z</time></trkpt><trkpt lat="45.6316941" lon="11.6397018"><ele>46.5</ele><time>2026-05-04T12:19:18.121Z</time></trkpt><trkpt lat="45.6315766" lon="11.6397127"><ele>46.0</ele><time>2026-05-04T12:19:19.12Z</time></trkpt><trkpt lat="45.6314703" lon="11.6397198"><ele>46.0</ele><time>2026-05-04T12:19:20.12Z</time></trkpt><trkpt lat="45.6313739" lon="11.639719"><ele>46.0</ele><time>2026-05-04T12:19:21.12Z</time></trkpt><trkpt lat="45.6312873" lon="11.6397155"><ele>46.0</ele><time>2026-05-04T12:19:22.121Z</time></trkpt><trkpt lat="45.6312095" lon="11.6397121"><ele>46.0</ele><time>2026-05-04T12:19:23.12Z</time></trkpt><trkpt lat="45.6311396" lon="11.6397135"><ele>46.0</ele><time>2026-05-04T12:19:24.12Z</time></trkpt><trkpt lat="45.6310363" lon="11.639775"><ele>46.0</ele><time>2026-05-04T12:19:26.12Z</time></trkpt><trkpt lat="45.6309751" lon="11.6399051"><ele>46.0</ele><time>2026-05-04T12:19:28.121Z</time></trkpt><trkpt lat="45.6309637" lon="11.6400005"><ele>46.0</ele><time>2026-05-04T12:19:29.12Z</time></trkpt><trkpt lat="45.6309588" lon="11.640104"><ele>46.0</ele><time>2026-05-04T12:19:30.12Z</time></trkpt><trkpt lat="45.6309532" lon="11.6402141"><ele>46.0</ele><time>2026-05-04T12:19:31.12Z</time></trkpt><trkpt lat="45.6309442" lon="11.6403185"><ele>46.0</ele><time>2026-05-04T12:19:32.121Z</time></trkpt><trkpt lat="45.6309316" lon="11.6404161"><ele>46.0</ele><time>2026-05-04T12:19:33.12Z</time></trkpt><trkpt lat="45.630868" lon="11.6405485"><ele>46.0</ele><time>2026-05-04T12:19:35.12Z</time></trkpt><trkpt lat="45.6307845" lon="11.6405727"><ele>46.0</ele><time>2026-05-04T12:19:37.12Z</time></trkpt><trkpt lat="45.6306984" lon="11.6405502"><ele>46.0</ele><time>2026-05-04T12:19:39.12Z</time></trkpt><trkpt lat="45.6306185" lon="11.6405833"><ele>46.0</ele><time>2026-05-04T12:19:42.12Z</time></trkpt><trkpt lat="45.6305784" lon="11.6406935"><ele>46.0</ele><time>2026-05-04T12:19:45.12Z</time></trkpt><trkpt lat="45.6305548" lon="11.6408042"><ele>46.0</ele><time>2026-05-04T12:19:47.121Z</time></trkpt><trkpt lat="45.6305267" lon="11.6409251"><ele>46.0</ele><time>2026-05-04T12:19:49.121Z</time></trkpt><trkpt lat="45.6304814" lon="11.6410814"><ele>46.0</ele><time>2026-05-04T12:19:51.12Z</time></trkpt><trkpt lat="45.6304583" lon="11.6411696"><ele>46.0</ele><time>2026-05-04T12:19:52.12Z</time></trkpt><trkpt lat="45.630432" lon="11.6412681"><ele>46.0</ele><time>2026-05-04T12:19:53.121Z</time></trkpt><trkpt lat="45.6304034" lon="11.6413778"><ele>46.0</ele><time>2026-05-04T12:19:54.121Z</time></trkpt><trkpt lat="45.630374" lon="11.6414929"><ele>46.0</ele><time>2026-05-04T12:19:55.12Z</time></trkpt><trkpt lat="45.630346" lon="11.6416076"><ele>46.0</ele><time>2026-05-04T12:19:56.121Z</time></trkpt><trkpt lat="45.6303224" lon="11.6417118"><ele>46.0</ele><time>2026-05-04T12:19:57.12Z</time></trkpt><trkpt lat="45.6303" lon="11.6418032"><ele>46.0</ele><time>2026-05-04T12:19:58.12Z</time></trkpt><trkpt lat="45.630277" lon="11.6418961"><ele>46.0</ele><time>2026-05-04T12:19:59.12Z</time></trkpt><trkpt lat="45.6302559" lon="11.6419936"><ele>46.0</ele><time>2026-05-04T12:20:00.121Z</time></trkpt><trkpt lat="45.6302341" lon="11.6420907"><ele>46.0</ele><time>2026-05-04T12:20:01.121Z</time></trkpt><trkpt lat="45.6302117" lon="11.6421901"><ele>46.0</ele><time>2026-05-04T12:20:02.12Z</time></trkpt><trkpt lat="45.6301877" lon="11.6422889"><ele>46.0</ele><time>2026-05-04T12:20:03.12Z</time></trkpt><trkpt lat="45.6301654" lon="11.6423861"><ele>46.0</ele><time>2026-05-04T12:20:04.121Z</time></trkpt><trkpt lat="45.6301428" lon="11.6424861"><ele>46.0</ele><time>2026-05-04T12:20:05.121Z</time></trkpt><trkpt lat="45.6301202" lon="11.6425829"><ele>46.0</ele><time>2026-05-04T12:20:06.12Z</time></trkpt><trkpt lat="45.6300963" lon="11.6426789"><ele>46.0</ele><time>2026-05-04T12:20:07.12Z</time></trkpt><trkpt lat="45.6300715" lon="11.6427755"><ele>46.0</ele><time>2026-05-04T12:20:08.12Z</time></trkpt><trkpt lat="45.6300499" lon="11.6428762"><ele>46.0</ele><time>2026-05-04T12:20:09.12Z</time></trkpt><trkpt lat="45.6300266" lon="11.6429763"><ele>46.0</ele><time>2026-05-04T12:20:10.12Z</time></trkpt><trkpt lat="45.630004" lon="11.643077"><ele>46.0</ele><time>2026-05-04T12:20:11.12Z</time></trkpt><trkpt lat="45.6299821" lon="11.6431767"><ele>46.0</ele><time>2026-05-04T12:20:12.121Z</time></trkpt><trkpt lat="45.6299575" lon="11.6432773"><ele>46.0</ele><time>2026-05-04T12:20:13.12Z</time></trkpt><trkpt lat="45.629936" lon="11.643378"><ele>46.0</ele><time>2026-05-04T12:20:14.12Z</time></trkpt><trkpt lat="45.6299117" lon="11.6434774"><ele>46.0</ele><time>2026-05-04T12:20:15.121Z</time></trkpt><trkpt lat="45.6298909" lon="11.6435749"><ele>46.0</ele><time>2026-05-04T12:20:16.121Z</time></trkpt><trkpt lat="45.6298686" lon="11.6436712"><ele>46.0</ele><time>2026-05-04T12:20:17.12Z</time></trkpt><trkpt lat="45.6298468" lon="11.643767"><ele>46.0</ele><time>2026-05-04T12:20:18.12Z</time></trkpt><trkpt lat="45.6298224" lon="11.6438629"><ele>46.0</ele><time>2026-05-04T12:20:19.12Z</time></trkpt><trkpt lat="45.6297976" lon="11.6439589"><ele>46.0</ele><time>2026-05-04T12:20:20.121Z</time></trkpt><trkpt lat="45.6297692" lon="11.6440564"><ele>46.0</ele><time>2026-05-04T12:20:21.12Z</time></trkpt><trkpt lat="45.6297482" lon="11.6441567"><ele>46.0</ele><time>2026-05-04T12:20:22.12Z</time></trkpt><trkpt lat="45.6297272" lon="11.6442562"><ele>46.0</ele><time>2026-05-04T12:20:23.12Z</time></trkpt><trkpt lat="45.6297072" lon="11.6443596"><ele>46.0</ele><time>2026-05-04T12:20:24.121Z</time></trkpt><trkpt lat="45.6296858" lon="11.6444629"><ele>46.0</ele><time>2026-05-04T12:20:25.12Z</time></trkpt><trkpt lat="45.6296618" lon="11.6445701"><ele>46.0</ele><time>2026-05-04T12:20:26.12Z</time></trkpt><trkpt lat="45.629636" lon="11.6446779"><ele>46.0</ele><time>2026-05-04T12:20:27.12Z</time></trkpt><trkpt lat="45.6296119" lon="11.6447886"><ele>46.0</ele><time>2026-05-04T12:20:28.12Z</time></trkpt><trkpt lat="45.629589" lon="11.64489"><ele>46.0</ele><time>2026-05-04T12:20:29.121Z</time></trkpt><trkpt lat="45.6295457" lon="11.6450332"><ele>46.16666666666667</ele><time>2026-05-04T12:20:31.12Z</time></trkpt><trkpt lat="45.6295084" lon="11.6451263"><ele>46.333333333333336</ele><time>2026-05-04T12:20:33.12Z</time></trkpt><trkpt lat="45.6295675" lon="11.645008"><ele>46.5</ele><time>2026-05-04T12:20:41.121Z</time></trkpt><trkpt lat="45.629583" lon="11.6448998"><ele>46.666666666666664</ele><time>2026-05-04T12:20:42.12Z</time></trkpt><trkpt lat="45.6296074" lon="11.6447765"><ele>46.83333333333333</ele><time>2026-05-04T12:20:43.121Z</time></trkpt><trkpt lat="45.6296361" lon="11.6446409"><ele>47.0</ele><time>2026-05-04T12:20:44.12Z</time></trkpt><trkpt lat="45.6296683" lon="11.644492"><ele>46.75</ele><time>2026-05-04T12:20:45.121Z</time></trkpt><trkpt lat="45.6296987" lon="11.6443432"><ele>46.5</ele><time>2026-05-04T12:20:46.121Z</time></trkpt><trkpt lat="45.6297312" lon="11.6441856"><ele>46.25</ele><time>2026-05-04T12:20:47.121Z</time></trkpt><trkpt lat="45.6297653" lon="11.6440235"><ele>46.0</ele><time>2026-05-04T12:20:48.12Z</time></trkpt><trkpt lat="45.6297985" lon="11.6438629"><ele>46.0</ele><time>2026-05-04T12:20:49.12Z</time></trkpt><trkpt lat="45.6298364" lon="11.6436973"><ele>46.0</ele><time>2026-05-04T12:20:50.12Z</time></trkpt><trkpt lat="45.6298755" lon="11.6435282"><ele>46.0</ele><time>2026-05-04T12:20:51.121Z</time></trkpt><trkpt lat="45.6299143" lon="11.6433607"><ele>46.0</ele><time>2026-05-04T12:20:52.121Z</time></trkpt><trkpt lat="45.6299573" lon="11.6431818"><ele>46.0</ele><time>2026-05-04T12:20:53.12Z</time></trkpt><trkpt lat="45.6299988" lon="11.6430022"><ele>46.0</ele><time>2026-05-04T12:20:54.12Z</time></trkpt><trkpt lat="45.6300413" lon="11.6428213"><ele>46.0</ele><time>2026-05-04T12:20:55.121Z</time></trkpt><trkpt lat="45.6300876" lon="11.6426327"><ele>46.0</ele><time>2026-05-04T12:20:56.12Z</time></trkpt><trkpt lat="45.630131" lon="11.6424519"><ele>46.0</ele><time>2026-05-04T12:20:57.12Z</time></trkpt><trkpt lat="45.6301696" lon="11.6422853"><ele>46.0</ele><time>2026-05-04T12:20:58.12Z</time></trkpt><trkpt lat="45.6302056" lon="11.642127"><ele>46.0</ele><time>2026-05-04T12:20:59.12Z</time></trkpt><trkpt lat="45.6302408" lon="11.64197"><ele>46.0</ele><time>2026-05-04T12:21:00.12Z</time></trkpt><trkpt lat="45.6302744" lon="11.6418123"><ele>46.0</ele><time>2026-05-04T12:21:01.12Z</time></trkpt><trkpt lat="45.6303114" lon="11.6416483"><ele>46.0</ele><time>2026-05-04T12:21:02.12Z</time></trkpt><trkpt lat="45.6303508" lon="11.6414815"><ele>46.0</ele><time>2026-05-04T12:21:03.121Z</time></trkpt><trkpt lat="45.6303957" lon="11.6413091"><ele>46.0</ele><time>2026-05-04T12:21:04.121Z</time></trkpt><trkpt lat="45.6304379" lon="11.6411461"><ele>46.0</ele><time>2026-05-04T12:21:05.121Z</time></trkpt><trkpt lat="45.6304826" lon="11.6409885"><ele>46.0</ele><time>2026-05-04T12:21:06.12Z</time></trkpt><trkpt lat="45.6305274" lon="11.6408422"><ele>46.0</ele><time>2026-05-04T12:21:07.121Z</time></trkpt><trkpt lat="45.6305614" lon="11.640711"><ele>46.0</ele><time>2026-05-04T12:21:08.12Z</time></trkpt><trkpt lat="45.6305992" lon="11.6406114"><ele>46.0</ele><time>2026-05-04T12:21:09.121Z</time></trkpt><trkpt lat="45.6307029" lon="11.6405381"><ele>46.0</ele><time>2026-05-04T12:21:11.121Z</time></trkpt><trkpt lat="45.6308166" lon="11.6405677"><ele>46.0</ele><time>2026-05-04T12:21:13.12Z</time></trkpt><trkpt lat="45.6309017" lon="11.6404902"><ele>46.0</ele><time>2026-05-04T12:21:15.12Z</time></trkpt><trkpt lat="45.6309246" lon="11.6403976"><ele>46.0</ele><time>2026-05-04T12:21:16.12Z</time></trkpt><trkpt lat="45.6309422" lon="11.6402576"><ele>46.0</ele><time>2026-05-04T12:21:17.12Z</time></trkpt><trkpt lat="45.6309518" lon="11.640109"><ele>46.0</ele><time>2026-05-04T12:21:18.12Z</time></trkpt><trkpt lat="45.6309631" lon="11.6399718"><ele>46.0</ele><time>2026-05-04T12:21:19.121Z</time></trkpt><trkpt lat="45.6309876" lon="11.6398545"><ele>46.0</ele><time>2026-05-04T12:21:20.121Z</time></trkpt><trkpt lat="45.6310314" lon="11.6397751"><ele>46.0</ele><time>2026-05-04T12:21:21.121Z</time></trkpt><trkpt lat="45.6310924" lon="11.6397335"><ele>46.0</ele><time>2026-05-04T12:21:22.12Z</time></trkpt><trkpt lat="45.6311756" lon="11.6397188"><ele>46.0</ele><time>2026-05-04T12:21:23.121Z</time></trkpt><trkpt lat="45.6312829" lon="11.6397175"><ele>46.0</ele><time>2026-05-04T12:21:24.121Z</time></trkpt><trkpt lat="45.6314076" lon="11.6397164"><ele>46.0</ele><time>2026-05-04T12:21:25.12Z</time></trkpt><trkpt lat="45.6315431" lon="11.6397085"><ele>46.0</ele><time>2026-05-04T12:21:26.121Z</time></trkpt><trkpt lat="45.631693" lon="11.6397006"><ele>46.0</ele><time>2026-05-04T12:21:27.121Z</time></trkpt><trkpt lat="45.6318457" lon="11.6396936"><ele>46.5</ele><time>2026-05-04T12:21:28.121Z</time></trkpt><trkpt lat="45.6320031" lon="11.6396892"><ele>47.0</ele><time>2026-05-04T12:21:29.121Z</time></trkpt><trkpt lat="45.6321547" lon="11.6396791"><ele>47.5</ele><time>2026-05-04T12:21:30.12Z</time></trkpt><trkpt lat="45.6322897" lon="11.6396708"><ele>48.0</ele><time>2026-05-04T12:21:31.12Z</time></trkpt><trkpt lat="45.6324092" lon="11.639666"><ele>48.0</ele><time>2026-05-04T12:21:32.12Z</time></trkpt><trkpt lat="45.6325013" lon="11.6396622"><ele>48.0</ele><time>2026-05-04T12:21:33.12Z</time></trkpt><trkpt lat="45.6325688" lon="11.6396622"><ele>48.0</ele><time>2026-05-04T12:21:34.121Z</time></trkpt><trkpt lat="45.6326356" lon="11.6396471"><ele>48.0</ele><time>2026-05-04T12:21:50.121Z</time></trkpt><trkpt lat="45.632688" lon="11.6395595"><ele>48.0</ele><time>2026-05-04T12:21:53.121Z</time></trkpt><trkpt lat="45.6326992" lon="11.6394383"><ele>48.0</ele><time>2026-05-04T12:21:54.12Z</time></trkpt><trkpt lat="45.6327089" lon="11.6392913"><ele>47.75</ele><time>2026-05-04T12:21:55.121Z</time></trkpt><trkpt lat="45.6327182" lon="11.6391222"><ele>47.5</ele><time>2026-05-04T12:21:56.12Z</time></trkpt><trkpt lat="45.6327309" lon="11.6389383"><ele>47.25</ele><time>2026-05-04T12:21:57.12Z</time></trkpt><trkpt lat="45.6327447" lon="11.6387394"><ele>47.0</ele><time>2026-05-04T12:21:58.12Z</time></trkpt><trkpt lat="45.63276" lon="11.6385352"><ele>47.0</ele><time>2026-05-04T12:21:59.121Z</time></trkpt><trkpt lat="45.6327914" lon="11.6380933"><ele>47.0</ele><time>2026-05-04T12:22:01.12Z</time></trkpt><trkpt lat="45.6328072" lon="11.6378595"><ele>47.33333333333333</ele><time>2026-05-04T12:22:02.12Z</time></trkpt><trkpt lat="45.6328251" lon="11.6376202"><ele>47.666666666666664</ele><time>2026-05-04T12:22:03.121Z</time></trkpt><trkpt lat="45.6328453" lon="11.6373756"><ele>48.0</ele><time>2026-05-04T12:22:04.12Z</time></trkpt><trkpt lat="45.6328659" lon="11.637125"><ele>47.666666666666664</ele><time>2026-05-04T12:22:05.12Z</time></trkpt><trkpt lat="45.6328872" lon="11.6368806"><ele>47.33333333333333</ele><time>2026-05-04T12:22:06.12Z</time></trkpt><trkpt lat="45.6329077" lon="11.6366453"><ele>47.0</ele><time>2026-05-04T12:22:07.12Z</time></trkpt><trkpt lat="45.6329279" lon="11.6364185"><ele>47.0</ele><time>2026-05-04T12:22:08.12Z</time></trkpt><trkpt lat="45.6329463" lon="11.6361869"><ele>47.0</ele><time>2026-05-04T12:22:09.12Z</time></trkpt><trkpt lat="45.6329653" lon="11.6359641"><ele>47.0</ele><time>2026-05-04T12:22:10.121Z</time></trkpt><trkpt lat="45.6329813" lon="11.6357565"><ele>47.25</ele><time>2026-05-04T12:22:11.12Z</time></trkpt><trkpt lat="45.6329971" lon="11.63556"><ele>47.5</ele><time>2026-05-04T12:22:12.121Z</time></trkpt><trkpt lat="45.633014" lon="11.6353806"><ele>47.75</ele><time>2026-05-04T12:22:13.121Z</time></trkpt><trkpt lat="45.633028" lon="11.6352182"><ele>48.0</ele><time>2026-05-04T12:22:14.12Z</time></trkpt><trkpt lat="45.6330416" lon="11.6350546"><ele>48.0</ele><time>2026-05-04T12:22:15.12Z</time></trkpt><trkpt lat="45.6330542" lon="11.6348817"><ele>48.0</ele><time>2026-05-04T12:22:16.121Z</time></trkpt><trkpt lat="45.6330666" lon="11.6346983"><ele>48.0</ele><time>2026-05-04T12:22:17.121Z</time></trkpt><trkpt lat="45.6330793" lon="11.6345065"><ele>48.0</ele><time>2026-05-04T12:22:18.12Z</time></trkpt><trkpt lat="45.6330938" lon="11.6343089"><ele>48.0</ele><time>2026-05-04T12:22:19.12Z</time></trkpt><trkpt lat="45.6331131" lon="11.6341072"><ele>48.0</ele><time>2026-05-04T12:22:20.121Z</time></trkpt><trkpt lat="45.6331329" lon="11.6339122"><ele>48.0</ele><time>2026-05-04T12:22:21.12Z</time></trkpt><trkpt lat="45.6331518" lon="11.6337258"><ele>48.0</ele><time>2026-05-04T12:22:22.121Z</time></trkpt><trkpt lat="45.633172" lon="11.633551"><ele>48.0</ele><time>2026-05-04T12:22:23.12Z</time></trkpt><trkpt lat="45.6331937" lon="11.6333706"><ele>48.0</ele><time>2026-05-04T12:22:24.121Z</time></trkpt><trkpt lat="45.6332191" lon="11.6331913"><ele>48.0</ele><time>2026-05-04T12:22:25.121Z</time></trkpt><trkpt lat="45.6332474" lon="11.6330046"><ele>48.0</ele><time>2026-05-04T12:22:26.121Z</time></trkpt><trkpt lat="45.6332731" lon="11.6328101"><ele>48.25</ele><time>2026-05-04T12:22:27.12Z</time></trkpt><trkpt lat="45.6332999" lon="11.6326088"><ele>48.5</ele><time>2026-05-04T12:22:28.121Z</time></trkpt><trkpt lat="45.6333265" lon="11.6324006"><ele>48.75</ele><time>2026-05-04T12:22:29.12Z</time></trkpt><trkpt lat="45.6333481" lon="11.6321876"><ele>49.0</ele><time>2026-05-04T12:22:30.121Z</time></trkpt><trkpt lat="45.6333632" lon="11.6319911"><ele>48.25</ele><time>2026-05-04T12:22:31.12Z</time></trkpt><trkpt lat="45.6333603" lon="11.6318105"><ele>47.5</ele><time>2026-05-04T12:22:32.12Z</time></trkpt><trkpt lat="45.6333405" lon="11.6316333"><ele>46.75</ele><time>2026-05-04T12:22:33.12Z</time></trkpt><trkpt lat="45.633307" lon="11.63146"><ele>46.0</ele><time>2026-05-04T12:22:34.121Z</time></trkpt><trkpt lat="45.6332608" lon="11.6312877"><ele>46.25</ele><time>2026-05-04T12:22:35.12Z</time></trkpt><trkpt lat="45.6332149" lon="11.6311232"><ele>46.5</ele><time>2026-05-04T12:22:36.121Z</time></trkpt><trkpt lat="45.6331731" lon="11.6309683"><ele>46.75</ele><time>2026-05-04T12:22:37.121Z</time></trkpt><trkpt lat="45.6331313" lon="11.630823"><ele>47.0</ele><time>2026-05-04T12:22:38.121Z</time></trkpt><trkpt lat="45.6330872" lon="11.6306866"><ele>47.0</ele><time>2026-05-04T12:22:39.12Z</time></trkpt><trkpt lat="45.633045" lon="11.6305431"><ele>47.0</ele><time>2026-05-04T12:22:40.121Z</time></trkpt><trkpt lat="45.6330038" lon="11.6303888"><ele>47.0</ele><time>2026-05-04T12:22:41.12Z</time></trkpt><trkpt lat="45.6329601" lon="11.6302305"><ele>47.0</ele><time>2026-05-04T12:22:42.12Z</time></trkpt><trkpt lat="45.6329164" lon="11.6300613"><ele>47.25</ele><time>2026-05-04T12:22:43.12Z</time></trkpt><trkpt lat="45.6328736" lon="11.6298853"><ele>47.5</ele><time>2026-05-04T12:22:44.121Z</time></trkpt><trkpt lat="45.6328368" lon="11.6297071"><ele>47.75</ele><time>2026-05-04T12:22:45.121Z</time></trkpt><trkpt lat="45.6328089" lon="11.6295188"><ele>48.0</ele><time>2026-05-04T12:22:46.12Z</time></trkpt><trkpt lat="45.6327894" lon="11.6293255"><ele>48.0</ele><time>2026-05-04T12:22:47.121Z</time></trkpt><trkpt lat="45.632777" lon="11.6291319"><ele>48.0</ele><time>2026-05-04T12:22:48.121Z</time></trkpt><trkpt lat="45.6327659" lon="11.628939"><ele>48.0</ele><time>2026-05-04T12:22:49.121Z</time></trkpt><trkpt lat="45.6327589" lon="11.6287487"><ele>48.0</ele><time>2026-05-04T12:22:50.121Z</time></trkpt><trkpt lat="45.632748" lon="11.6285598"><ele>48.25</ele><time>2026-05-04T12:22:51.12Z</time></trkpt><trkpt lat="45.6327378" lon="11.6283707"><ele>48.5</ele><time>2026-05-04T12:22:52.12Z</time></trkpt><trkpt lat="45.6327286" lon="11.6281831"><ele>48.75</ele><time>2026-05-04T12:22:53.12Z</time></trkpt><trkpt lat="45.6327188" lon="11.6279946"><ele>49.0</ele><time>2026-05-04T12:22:54.121Z</time></trkpt><trkpt lat="45.6327086" lon="11.6278115"><ele>48.75</ele><time>2026-05-04T12:22:55.12Z</time></trkpt><trkpt lat="45.632695" lon="11.627629"><ele>48.5</ele><time>2026-05-04T12:22:56.12Z</time></trkpt><trkpt lat="45.6326856" lon="11.6274452"><ele>48.25</ele><time>2026-05-04T12:22:57.121Z</time></trkpt><trkpt lat="45.6326729" lon="11.6272603"><ele>48.0</ele><time>2026-05-04T12:22:58.12Z</time></trkpt><trkpt lat="45.6326644" lon="11.6270763"><ele>47.75</ele><time>2026-05-04T12:22:59.12Z</time></trkpt><trkpt lat="45.6326647" lon="11.6268902"><ele>47.5</ele><time>2026-05-04T12:23:00.12Z</time></trkpt><trkpt lat="45.6326692" lon="11.6267061"><ele>47.25</ele><time>2026-05-04T12:23:01.121Z</time></trkpt><trkpt lat="45.6326734" lon="11.6265295"><ele>47.0</ele><time>2026-05-04T12:23:02.12Z</time></trkpt><trkpt lat="45.6326795" lon="11.6263595"><ele>47.0</ele><time>2026-05-04T12:23:03.121Z</time></trkpt><trkpt lat="45.6326942" lon="11.62621"><ele>47.0</ele><time>2026-05-04T12:23:04.121Z</time></trkpt><trkpt lat="45.6327126" lon="11.6260752"><ele>47.0</ele><time>2026-05-04T12:23:05.12Z</time></trkpt><trkpt lat="45.6327283" lon="11.625973"><ele>47.0</ele><time>2026-05-04T12:23:06.121Z</time></trkpt><trkpt lat="45.6327482" lon="11.6258566"><ele>47.0</ele><time>2026-05-04T12:23:08.121Z</time></trkpt><trkpt lat="45.6327164" lon="11.6257299"><ele>47.2</ele><time>2026-05-04T12:23:12.12Z</time></trkpt><trkpt lat="45.6326082" lon="11.625656"><ele>47.400000000000006</ele><time>2026-05-04T12:23:14.121Z</time></trkpt><trkpt lat="45.6325315" lon="11.6256116"><ele>47.599999999999994</ele><time>2026-05-04T12:23:15.12Z</time></trkpt><trkpt lat="45.6324431" lon="11.6255612"><ele>47.8</ele><time>2026-05-04T12:23:16.121Z</time></trkpt><trkpt lat="45.6323477" lon="11.6255036"><ele>48.0</ele><time>2026-05-04T12:23:17.12Z</time></trkpt><trkpt lat="45.6322514" lon="11.6254419"><ele>48.0</ele><time>2026-05-04T12:23:18.12Z</time></trkpt><trkpt lat="45.6321554" lon="11.6253827"><ele>48.0</ele><time>2026-05-04T12:23:19.121Z</time></trkpt><trkpt lat="45.6320537" lon="11.6253185"><ele>48.0</ele><time>2026-05-04T12:23:20.121Z</time></trkpt><trkpt lat="45.6319492" lon="11.62525"><ele>48.0</ele><time>2026-05-04T12:23:21.12Z</time></trkpt><trkpt lat="45.6318437" lon="11.6251826"><ele>48.0</ele><time>2026-05-04T12:23:22.12Z</time></trkpt><trkpt lat="45.631735" lon="11.625112"><ele>48.0</ele><time>2026-05-04T12:23:23.121Z</time></trkpt><trkpt lat="45.6316287" lon="11.6250478"><ele>48.0</ele><time>2026-05-04T12:23:24.121Z</time></trkpt><trkpt lat="45.6315324" lon="11.6249819"><ele>48.0</ele><time>2026-05-04T12:23:25.121Z</time></trkpt><trkpt lat="45.6314398" lon="11.6249242"><ele>48.0</ele><time>2026-05-04T12:23:26.12Z</time></trkpt><trkpt lat="45.631352" lon="11.6248643"><ele>48.0</ele><time>2026-05-04T12:23:27.121Z</time></trkpt><trkpt lat="45.6312717" lon="11.6248132"><ele>48.0</ele><time>2026-05-04T12:23:28.121Z</time></trkpt><trkpt lat="45.6311952" lon="11.6247618"><ele>48.0</ele><time>2026-05-04T12:23:29.12Z</time></trkpt><trkpt lat="45.6311207" lon="11.6247193"><ele>48.0</ele><time>2026-05-04T12:23:30.121Z</time></trkpt><trkpt lat="45.6310378" lon="11.6246712"><ele>48.0</ele><time>2026-05-04T12:23:31.12Z</time></trkpt><trkpt lat="45.6309458" lon="11.6246184"><ele>48.0</ele><time>2026-05-04T12:23:32.121Z</time></trkpt><trkpt lat="45.6308471" lon="11.6245584"><ele>48.0</ele><time>2026-05-04T12:23:33.12Z</time></trkpt><trkpt lat="45.6307429" lon="11.6244977"><ele>48.0</ele><time>2026-05-04T12:23:34.121Z</time></trkpt><trkpt lat="45.6306354" lon="11.6244281"><ele>48.0</ele><time>2026-05-04T12:23:35.121Z</time></trkpt><trkpt lat="45.6305344" lon="11.6243573"><ele>48.0</ele><time>2026-05-04T12:23:36.121Z</time></trkpt><trkpt lat="45.6304298" lon="11.6242904"><ele>47.8</ele><time>2026-05-04T12:23:37.121Z</time></trkpt><trkpt lat="45.6303287" lon="11.6242271"><ele>47.599999999999994</ele><time>2026-05-04T12:23:38.121Z</time></trkpt><trkpt lat="45.6302348" lon="11.6241713"><ele>47.400000000000006</ele><time>2026-05-04T12:23:39.12Z</time></trkpt><trkpt lat="45.630149" lon="11.6241166"><ele>47.2</ele><time>2026-05-04T12:23:40.12Z</time></trkpt><trkpt lat="45.6300661" lon="11.6240687"><ele>47.0</ele><time>2026-05-04T12:23:41.12Z</time></trkpt><trkpt lat="45.6299903" lon="11.6240209"><ele>47.0</ele><time>2026-05-04T12:23:42.121Z</time></trkpt><trkpt lat="45.6299179" lon="11.6239803"><ele>47.0</ele><time>2026-05-04T12:23:43.121Z</time></trkpt><trkpt lat="45.6298479" lon="11.6239393"><ele>47.0</ele><time>2026-05-04T12:23:44.12Z</time></trkpt><trkpt lat="45.6297852" lon="11.6239007"><ele>47.0</ele><time>2026-05-04T12:23:45.121Z</time></trkpt><trkpt lat="45.6296979" lon="11.6238527"><ele>47.0</ele><time>2026-05-04T12:23:47.121Z</time></trkpt></trkseg></trk></gpx>